Provisional Data: Little Chiques Creek near Mount Joy, PA


Please select a monitoring station.
Please select start date.
Please select start date.

Toggle Unit: C/F Toggle Unit: C/F
Sample Time Temperature (C) Temperature (F) Specific Conductivity (mS/cm) pH   Turbidity (NTU+) DO (mg/L)
4/13/2022 12:00:00 AM 14.51 58.118 0.366 7.67 13.02 9.24
4/13/2022 12:15:00 AM 14.47 58.046 0.366 7.67 8.18 9.23
4/13/2022 12:30:00 AM 14.43 57.974 0.366 7.66 16.09 9.22
4/13/2022 12:45:00 AM 14.38 57.884 0.366 7.66 21.84 9.22
4/13/2022 1:00:00 AM 14.32 57.776 0.366 7.66 13.1 9.22
4/13/2022 1:15:00 AM 14.25 57.65 0.366 7.65 12.58 9.22
4/13/2022 1:30:00 AM 14.18 57.524 0.366 7.64 12.95 9.22
4/13/2022 1:45:00 AM 14.11 57.398 0.365 7.65 13.89 9.22
4/13/2022 2:00:00 AM 14.04 57.272 0.366 7.64 13.32 9.23
4/13/2022 2:15:00 AM 13.98 57.164 0.367 7.64 13.29 9.23
4/13/2022 2:30:00 AM 13.92 57.056 0.367 7.64 7.7 9.23
4/13/2022 2:45:00 AM 13.84 56.912 0.367 7.64 124.15 9.25
4/13/2022 3:00:00 AM 13.78 56.804 0.367 7.64 11.02 9.25
4/13/2022 3:15:00 AM 13.7 56.66 0.367 7.63 12.52 9.27
4/13/2022 3:30:00 AM 13.62 56.516 0.367 7.63 13.3 9.27
4/13/2022 3:45:00 AM 13.54 56.372 0.367 7.63 12.93 9.28
4/13/2022 4:00:00 AM 13.45 56.21 0.368 7.63 17.76 9.28
4/13/2022 4:15:00 AM 13.38 56.084 0.367 7.63 13.33 9.32
4/13/2022 4:30:00 AM 13.31 55.958 0.368 7.63 11.83 9.33
4/13/2022 4:45:00 AM 13.23 55.814 0.368 7.62 13.66 9.35
4/13/2022 5:00:00 AM 13.15 55.67 0.368 7.62 10.04 9.36
4/13/2022 5:15:00 AM 13.07 55.526 0.368 7.61 12.29 9.39
4/13/2022 5:30:00 AM 13 55.4 0.368 7.62 13.16 9.4
4/13/2022 5:45:00 AM 12.92 55.256 0.368 7.62 13.82 9.41
4/13/2022 6:00:00 AM 12.84 55.112 0.369 7.62 13.96 9.44
4/13/2022 6:15:00 AM 12.75 54.95 0.369 7.61 12.72 9.46
4/13/2022 6:30:00 AM 12.68 54.824 0.369 7.62 12.07 9.49
4/13/2022 6:45:00 AM 12.6 54.68 0.369 7.62 12.17 9.51
4/13/2022 7:00:00 AM 12.55 54.59 0.369 7.61 12.47 9.54
4/13/2022 7:15:00 AM 12.49 54.482 0.369 7.62 12.21 9.57
4/13/2022 7:30:00 AM 12.46 54.428 0.369 7.62 11.9 9.62
4/13/2022 7:45:00 AM 12.42 54.356 0.369 7.62 11.26 9.68
4/13/2022 8:00:00 AM 12.4 54.32 0.369 7.63 12.29 9.73
4/13/2022 8:15:00 AM 12.39 54.302 0.368 7.64 11.31 9.82
4/13/2022 8:30:00 AM 12.41 54.338 0.369 7.64 22.63 9.9
4/13/2022 8:45:00 AM 12.42 54.356 0.369 7.65 10.98 9.99
4/13/2022 9:00:00 AM 12.46 54.428 0.369 7.66 11.55 10.08
4/13/2022 9:15:00 AM 12.49 54.482 0.369 7.68 10.74 10.15
4/13/2022 9:30:00 AM 12.57 54.626 0.369 7.69 10.57 10.25
4/13/2022 9:45:00 AM 12.63 54.734 0.369 7.7 11.28 10.35
4/13/2022 10:00:00 AM 12.73 54.914 0.369 7.71 10.9 10.41
4/13/2022 10:15:00 AM 12.82 55.076 0.369 7.72 10.86 10.5
4/13/2022 10:30:00 AM 12.93 55.274 0.369 7.74 10.07 10.58
4/13/2022 10:45:00 AM 13.04 55.472 0.37 7.75 10.57 10.67
4/13/2022 11:00:00 AM 13.15 55.67 0.37 7.76 11.19 10.76
4/13/2022 11:15:00 AM 13.26 55.868 0.37 7.77 10.68 10.83
4/13/2022 11:30:00 AM 13.32 55.976 0.37 7.78 10.19 10.87
4/13/2022 11:45:00 AM 13.45 56.21 0.37 7.79 10.58 10.92
4/13/2022 12:00:00 PM 13.54 56.372 0.37 7.81 10.77 10.96
4/13/2022 12:15:00 PM 13.65 56.57 0.37 7.82 10.63 11.01
4/13/2022 12:30:00 PM 13.76 56.768 0.37 7.83 10.95 11.06
4/13/2022 12:45:00 PM 13.98 57.164 0.37 7.84 10.66 11.1
4/13/2022 1:00:00 PM 14.23 57.614 0.37 7.85 10.6 11.14
4/13/2022 1:15:00 PM 14.45 58.01 0.37 7.87 10.55 11.17
4/13/2022 1:30:00 PM 14.63 58.334 0.37 7.88 11.2 11.18
4/13/2022 1:45:00 PM 14.77 58.586 0.37 7.89 10.44 11.19
4/13/2022 2:00:00 PM 14.82 58.676 0.369 7.9 10.77 11.19
4/13/2022 2:15:00 PM 14.86 58.748 0.369 7.91 11.07 11.18
4/13/2022 2:30:00 PM 14.89 58.802 0.369 7.91 11.53 11.16
4/13/2022 2:45:00 PM 14.94 58.892 0.369 7.92 19.22 11.14
4/13/2022 3:00:00 PM 15.03 59.054 0.369 7.92 12.97 11.13
4/13/2022 3:15:00 PM 15.12 59.216 0.369 7.93 12.03 11.1
4/13/2022 3:30:00 PM 15.24 59.432 0.369 7.93 12.92 11.06
4/13/2022 3:45:00 PM 15.34 59.612 0.369 7.94 12.66 11.03
4/13/2022 4:00:00 PM 15.43 59.774 0.369 7.94 13.26 11
4/13/2022 4:15:00 PM 15.51 59.918 0.369 7.95 12.87 10.96
4/13/2022 4:30:00 PM 15.57 60.026 0.369 7.95 13.21 10.91
4/13/2022 4:45:00 PM 15.62 60.116 0.369 7.95 12.95 10.86
4/13/2022 5:00:00 PM 15.66 60.188 0.369 7.95 13.44 10.79
4/13/2022 5:15:00 PM 15.69 60.242 0.369 7.94 13.4 10.72
4/13/2022 5:30:00 PM 15.72 60.296 0.369 7.94 12.52 10.64
4/13/2022 5:45:00 PM 15.76 60.368 0.369 7.93 13.14 10.57
4/13/2022 6:00:00 PM 15.79 60.422 0.369 7.92 12.45 10.47
4/13/2022 6:15:00 PM 15.83 60.494 0.369 7.92 12.7 10.39
4/13/2022 6:30:00 PM 15.87 60.566 0.369 7.91 12.63 10.31
4/13/2022 6:45:00 PM 15.88 60.584 0.369 7.9 12.9 10.21
4/13/2022 7:00:00 PM 15.89 60.602 0.369 7.89 16.31 10.12
4/13/2022 7:15:00 PM 15.89 60.602 0.369 7.88 13.17 10.02
4/13/2022 7:30:00 PM 15.87 60.566 0.369 7.86 12.94 9.91
4/13/2022 7:45:00 PM 15.86 60.548 0.369 7.85 11.32 9.79
4/13/2022 8:00:00 PM 15.84 60.512 0.369 7.83 11.75 9.69
4/13/2022 8:15:00 PM 15.82 60.476 0.369 7.82 11.88 9.61
4/13/2022 8:30:00 PM 15.8 60.44 0.369 7.81 12.87 9.54
4/13/2022 8:45:00 PM 15.78 60.404 0.369 7.8 12.63 9.47
4/13/2022 9:00:00 PM 15.75 60.35 0.369 7.79 3.17 9.41
4/13/2022 9:15:00 PM 15.73 60.314 0.369 7.77 13 9.36
4/13/2022 9:30:00 PM 15.71 60.278 0.369 7.76 16.21 9.31
4/13/2022 9:45:00 PM 15.68 60.224 0.369 7.75 11.99 9.25
4/13/2022 10:00:00 PM 15.65 60.17 0.369 7.74 12.82 9.21
4/13/2022 10:15:00 PM 15.62 60.116 0.369 7.74 13.16 9.16
4/13/2022 10:30:00 PM 15.59 60.062 0.369 7.73 13.27 9.12
4/13/2022 10:45:00 PM 15.55 59.99 0.369 7.72 12.96 9.08
4/13/2022 11:00:00 PM 15.52 59.936 0.369 7.72 13.2 9.05
4/13/2022 11:15:00 PM 15.49 59.882 0.369 7.71 15.16 9.02
4/13/2022 11:30:00 PM 15.46 59.828 0.369 7.7 19.39 8.99
4/13/2022 11:45:00 PM 15.43 59.774 0.369 7.69 14.07 8.97
4/14/2022 12:00:00 AM 15.39 59.702 0.369 7.69 14.18 8.95
4/14/2022 12:15:00 AM 15.36 59.648 0.369 7.68 12.65 8.94
4/14/2022 12:30:00 AM 15.31 59.558 0.369 7.68 13.04 8.92
4/14/2022 12:45:00 AM 15.27 59.486 0.369 7.67 16.68 8.91
4/14/2022 1:00:00 AM 15.22 59.396 0.369 7.67 13.64 8.9
4/14/2022 1:15:00 AM 15.17 59.306 0.369 7.67 17.68 8.89
4/14/2022 1:30:00 AM 15.13 59.234 0.369 7.66 15.68 8.89
4/14/2022 1:45:00 AM 15.1 59.18 0.369 7.66 14.32 8.89
4/14/2022 2:00:00 AM 15.06 59.108 0.369 7.65 14.71 8.88
4/14/2022 2:15:00 AM 15.03 59.054 0.369 7.65 15.49 8.88
4/14/2022 2:30:00 AM 14.99 58.982 0.369 7.64 13.13 8.88
4/14/2022 2:45:00 AM 14.96 58.928 0.369 7.65 15.93 8.88
4/14/2022 3:00:00 AM 14.92 58.856 0.369 7.64 16.03 8.87
4/14/2022 3:15:00 AM 14.88 58.784 0.37 7.64 14.79 8.88
4/14/2022 3:30:00 AM 14.84 58.712 0.37 7.64 18.73 8.88
4/14/2022 3:45:00 AM 14.8 58.64 0.37 7.63 5.22 8.87
4/14/2022 4:00:00 AM 14.75 58.55 0.37 7.64 15.29 8.89
4/14/2022 4:15:00 AM 14.7 58.46 0.37 7.63 15.68 8.89
4/14/2022 4:30:00 AM 14.64 58.352 0.37 7.63 21.47 8.9
4/14/2022 4:45:00 AM 14.59 58.262 0.37 7.63 10.49 8.91
4/14/2022 5:00:00 AM 14.53 58.154 0.371 7.63 12.98 8.93
4/14/2022 5:15:00 AM 14.49 58.082 0.371 7.64 17.39 8.93
4/14/2022 5:30:00 AM 14.43 57.974 0.371 7.64 18.42 8.94
4/14/2022 5:45:00 AM 14.37 57.866 0.371 7.63 14.13 8.96
4/14/2022 6:00:00 AM 14.32 57.776 0.371 7.63 15.49 8.97
4/14/2022 6:15:00 AM 14.26 57.668 0.371 7.63 3.39 8.97
4/14/2022 6:30:00 AM 14.2 57.56 0.371 7.63 12.56 8.99
4/14/2022 6:45:00 AM 14.15 57.47 0.371 7.63 13.31 9
4/14/2022 7:00:00 AM 14.09 57.362 0.371 7.63 12.43 9.03
4/14/2022 7:15:00 AM 14.04 57.272 0.371 7.64 13.21 9.07
4/14/2022 7:30:00 AM 14 57.2 0.371 7.64 12.55 9.11
4/14/2022 7:45:00 AM 13.97 57.146 0.371 7.64 12.51 9.18
4/14/2022 8:00:00 AM 13.96 57.128 0.371 7.65 12.96 9.25
4/14/2022 8:15:00 AM 13.97 57.146 0.371 7.65 16.62 9.31
4/14/2022 8:30:00 AM 13.99 57.182 0.371 7.66 12.96 9.42
4/14/2022 8:45:00 AM 14.01 57.218 0.371 7.67 11.17 9.52
4/14/2022 9:00:00 AM 14.08 57.344 0.371 7.68 12.75 9.62
4/14/2022 9:15:00 AM 14.13 57.434 0.371 7.68 19.54 9.71
4/14/2022 9:30:00 AM 14.19 57.542 0.371 7.7 12.66 9.83
4/14/2022 9:45:00 AM 14.27 57.686 0.372 7.72 12.13 9.92
4/14/2022 10:00:00 AM 14.37 57.866 0.372 7.73 11.68 10.03
4/14/2022 10:15:00 AM 14.51 58.118 0.372 7.74 12.33 10.13
4/14/2022 10:30:00 AM 14.66 58.388 0.372 7.76 12.59 10.24
4/14/2022 10:45:00 AM 14.8 58.64 0.372 7.78 13.22 10.31
4/14/2022 11:00:00 AM 14.94 58.892 0.372 7.79 12.63 10.42
4/14/2022 11:15:00 AM 15.1 59.18 0.372 7.81 11.63 10.5
4/14/2022 11:30:00 AM 15.24 59.432 0.372 7.82 11.33 10.58
4/14/2022 11:45:00 AM 15.4 59.72 0.372 7.83 11.78 10.63
4/14/2022 12:00:00 PM 15.56 60.008 0.372 7.85 11.88 10.69
4/14/2022 12:15:00 PM 15.65 60.17 0.372 7.86 11.28 10.72
4/14/2022 12:30:00 PM 15.76 60.368 0.376 7.87 11.2 10.78
4/14/2022 12:45:00 PM 15.85 60.53 0.374 7.89 11.79 10.82
4/14/2022 1:00:00 PM 15.95 60.71 0.374 7.91 12.52 10.84
4/14/2022 1:15:00 PM 16.04 60.872 0.374 7.92 11.44 10.88
4/14/2022 1:30:00 PM 16.17 61.106 0.374 7.94 11.74 10.92
4/14/2022 1:45:00 PM 16.32 61.376 0.374 7.94 11.41 10.95
4/14/2022 2:00:00 PM 16.39 61.502 0.374 7.95 11.98 10.91
4/14/2022 2:15:00 PM 16.41 61.538 0.374 7.95 12.55 10.82
4/14/2022 2:30:00 PM 16.37 61.466 0.374 7.95 12.31 10.68
4/14/2022 2:45:00 PM 16.3 61.34 0.376 7.93 13.18 10.51
4/14/2022 3:00:00 PM 16.23 61.214 0.375 7.9 12.28 10.33
4/14/2022 3:15:00 PM 16.19 61.142 0.374 7.89 12.11 10.17
4/14/2022 3:30:00 PM 16.17 61.106 0.375 7.88 12.02 10.05
4/14/2022 3:45:00 PM 16.2 61.16 0.374 7.88 12.53 10.04
4/14/2022 4:00:00 PM 16.3 61.34 0.373 7.89 12.59 10.11
4/14/2022 4:15:00 PM 16.43 61.574 0.373 7.91 11.83 10.22
4/14/2022 4:30:00 PM 16.48 61.664 0.374 7.93 11.42 10.29
4/14/2022 4:45:00 PM 16.51 61.718 0.373 7.93 17.63 10.31
4/14/2022 5:00:00 PM 16.47 61.646 0.373 7.94 30.99 10.3
4/14/2022 5:15:00 PM 16.41 61.538 0.373 7.94 13.75 10.28
4/14/2022 5:30:00 PM 16.33 61.394 0.373 7.93 11.94 10.19
4/14/2022 5:45:00 PM 16.24 61.232 0.373 7.92 12.64 10.11
4/14/2022 6:00:00 PM 16.21 61.178 0.373 7.91 11.94 10.07
4/14/2022 6:15:00 PM 16.17 61.106 0.372 7.91 12.07 10.06
4/14/2022 6:30:00 PM 16.15 61.07 0.373 7.91 11.45 10.02
4/14/2022 6:45:00 PM 16.11 60.998 0.373 7.9 11.73 9.97
4/14/2022 7:00:00 PM 16.06 60.908 0.369 7.89 11.57 9.9
4/14/2022 7:15:00 PM 15.99 60.782 0.369 7.88 10.92 9.8
4/14/2022 7:30:00 PM 15.92 60.656 0.369 7.87 11.51 9.7
4/14/2022 7:45:00 PM 15.85 60.53 0.37 7.85 12.2 9.58
4/14/2022 8:00:00 PM 15.78 60.404 0.37 7.84 12.08 9.54
4/14/2022 8:15:00 PM 15.74 60.332 0.37 7.83 20.38 9.48
4/14/2022 8:30:00 PM 15.71 60.278 0.369 7.82 12.11 9.42
4/14/2022 8:45:00 PM 15.68 60.224 0.369 7.81 16.9 9.37
4/14/2022 9:00:00 PM 15.63 60.134 0.369 7.8 13.84 9.32
4/14/2022 9:15:00 PM 15.57 60.026 0.369 7.79 13.2 9.29
4/14/2022 9:30:00 PM 15.5 59.9 0.369 7.79 12.83 9.25
4/14/2022 9:45:00 PM 15.41 59.738 0.369 7.78 18.49 9.22
4/14/2022 10:00:00 PM 15.33 59.594 0.369 7.77 13.09 9.18
4/14/2022 10:15:00 PM 15.24 59.432 0.369 7.76 90.05 9.16
4/14/2022 10:30:00 PM 15.16 59.288 0.369 7.75 15.44 9.14
4/14/2022 10:45:00 PM 15.08 59.144 0.369 7.75 12.91 9.12
4/14/2022 11:00:00 PM 15 59 0.369 7.74 11.9 9.1
4/14/2022 11:15:00 PM 14.91 58.838 0.369 7.74 12.87 9.09
4/14/2022 11:30:00 PM 14.83 58.694 0.369 7.73 12.99 9.07
4/14/2022 11:45:00 PM 14.74 58.532 0.37 7.73 12.77 9.07
4/15/2022 12:00:00 AM 14.65 58.37 0.37 7.72 12.84 9.07
4/15/2022 12:15:00 AM 14.55 58.19 0.37 7.71 12.87 9.07
4/15/2022 12:30:00 AM 14.46 58.028 0.37 7.71 12.29 9.07
4/15/2022 12:45:00 AM 14.36 57.848 0.37 7.7 12.4 9.08
4/15/2022 1:00:00 AM 14.28 57.704 0.37 7.7 18.88 9.07
4/15/2022 1:15:00 AM 14.18 57.524 0.37 7.69 13.17 9.09
4/15/2022 1:30:00 AM 14.08 57.344 0.37 7.69 2.19 9.09
4/15/2022 1:45:00 AM 13.98 57.164 0.37 7.69 13.5 9.11
4/15/2022 2:00:00 AM 13.88 56.984 0.37 7.68 12.81 9.13
4/15/2022 2:15:00 AM 13.78 56.804 0.371 7.68 13.35 9.14
4/15/2022 2:30:00 AM 13.67 56.606 0.371 7.67 13.55 9.16
4/15/2022 2:45:00 AM 13.56 56.408 0.371 7.67 12.45 9.17
4/15/2022 3:00:00 AM 13.46 56.228 0.371 7.67 13.42 9.19
4/15/2022 3:15:00 AM 13.35 56.03 0.371 7.66 13.07 9.21
4/15/2022 3:30:00 AM 13.23 55.814 0.371 7.66 12.64 9.24
4/15/2022 3:45:00 AM 13.13 55.634 0.371 7.66 12.32 9.26
4/15/2022 4:00:00 AM 13.02 55.436 0.371 7.66 13.78 9.28
4/15/2022 4:15:00 AM 12.91 55.238 0.372 7.66 13.53 9.3
4/15/2022 4:30:00 AM 12.8 55.04 0.371 7.66 13.39 9.32
4/15/2022 4:45:00 AM 12.69 54.842 0.372 7.66 13.36 9.36
4/15/2022 5:00:00 AM 12.58 54.644 0.372 7.65 13.7 9.38
4/15/2022 5:15:00 AM 12.47 54.446 0.372 7.65 8.75 9.41
4/15/2022 5:30:00 AM 12.36 54.248 0.372 7.65 4.72 9.43
4/15/2022 5:45:00 AM 12.25 54.05 0.373 7.65 11.49 9.46
4/15/2022 6:00:00 AM 12.15 53.87 0.373 7.65 14.26 9.49
4/15/2022 6:15:00 AM 12.04 53.672 0.373 7.65 13.91 9.52
4/15/2022 6:30:00 AM 11.93 53.474 0.373 7.65 12.76 9.55
4/15/2022 6:45:00 AM 11.83 53.294 0.373 7.65 13.1 9.59
4/15/2022 7:00:00 AM 11.73 53.114 0.373 7.65 12.45 9.63
4/15/2022 7:15:00 AM 11.65 52.97 0.374 7.65 16.43 9.68
4/15/2022 7:30:00 AM 11.57 52.826 0.374 7.66 13.43 9.74
4/15/2022 7:45:00 AM 11.52 52.736 0.374 7.67 13.23 9.82
4/15/2022 8:00:00 AM 11.48 52.664 0.374 7.68 11.68 9.91
4/15/2022 8:15:00 AM 11.47 52.646 0.374 7.69 12.86 10.02
4/15/2022 8:30:00 AM 11.48 52.664 0.374 7.7 12.04 10.14
4/15/2022 8:45:00 AM 11.49 52.682 0.374 7.71 12.06 10.26
4/15/2022 9:00:00 AM 11.52 52.736 0.375 7.73 12.44 10.39
4/15/2022 9:15:00 AM 11.56 52.808 0.375 7.74 11.61 10.5
4/15/2022 9:30:00 AM 11.61 52.898 0.375 7.76 12.01 10.62
4/15/2022 9:45:00 AM 11.67 53.006 0.375 7.77 12.02 10.73
4/15/2022 10:00:00 AM 11.74 53.132 0.375 7.79 12.25 10.84
4/15/2022 10:15:00 AM 11.83 53.294 0.375 7.8 11.72 10.93
4/15/2022 10:30:00 AM 11.96 53.528 0.375 7.82 12.36 11.07
4/15/2022 10:45:00 AM 12.07 53.726 0.375 7.83 10.87 11.17
4/15/2022 11:00:00 AM 12.2 53.96 0.375 7.84 11.38 11.27
4/15/2022 11:15:00 AM 12.33 54.194 0.375 7.86 12.25 11.35
4/15/2022 11:30:00 AM 12.46 54.428 0.375 7.87 11.08 11.43
4/15/2022 11:45:00 AM 12.61 54.698 0.375 7.89 11.56 11.5
4/15/2022 12:00:00 PM 12.75 54.95 0.375 7.91 12.2 11.55
4/15/2022 12:15:00 PM 12.93 55.274 0.375 7.92 10.53 11.61
4/15/2022 12:30:00 PM 13.12 55.616 0.375 7.93 11.04 11.66
4/15/2022 12:45:00 PM 13.32 55.976 0.375 7.95 12.98 11.7
4/15/2022 1:00:00 PM 13.54 56.372 0.375 7.96 14.21 11.74
4/15/2022 1:15:00 PM 13.77 56.786 0.375 7.98 12.32 11.78
4/15/2022 1:30:00 PM 13.97 57.146 0.375 7.99 12.15 11.82
4/15/2022 1:45:00 PM 14.17 57.506 0.376 8 11.77 11.85
4/15/2022 2:00:00 PM 14.34 57.812 0.376 8.02 11.33 11.87
4/15/2022 2:15:00 PM 14.5 58.1 0.376 8.03 12.12 11.88
4/15/2022 2:30:00 PM 14.63 58.334 0.376 8.04 14.74 11.87
4/15/2022 2:45:00 PM 14.73 58.514 0.376 8.04 10.76 11.82
4/15/2022 3:00:00 PM 14.84 58.712 0.376 8.06 12.8 11.84
4/15/2022 3:15:00 PM 14.91 58.838 0.376 8.06 11.9 11.81
4/15/2022 3:30:00 PM 14.97 58.946 0.376 8.08 11.74 11.78
4/15/2022 3:45:00 PM 15.02 59.036 0.376 8.08 11.67 11.74
4/15/2022 4:00:00 PM 15.07 59.126 0.376 8.09 11.62 11.71
4/15/2022 4:15:00 PM 15.12 59.216 0.376 8.09 91.49 11.65
4/15/2022 4:30:00 PM 15.13 59.234 0.376 8.09 11.88 11.59
4/15/2022 4:45:00 PM 15.13 59.234 0.376 8.09 12.24 11.51
4/15/2022 5:00:00 PM 15.12 59.216 0.376 8.09 11.86 11.44
4/15/2022 5:15:00 PM 15.11 59.198 0.376 8.08 13.03 11.36
4/15/2022 5:30:00 PM 15.08 59.144 0.376 8.07 11.54 11.25
4/15/2022 5:45:00 PM 15.05 59.09 0.376 8.06 11.4 11.16
4/15/2022 6:00:00 PM 15.04 59.072 0.376 8.05 11.77 11.05
4/15/2022 6:15:00 PM 15.01 59.018 0.377 8.04 15.71 10.93
4/15/2022 6:30:00 PM 14.96 58.928 0.377 8.02 11.97 10.81
4/15/2022 6:45:00 PM 14.93 58.874 0.377 8.01 11.63 10.69
4/15/2022 7:00:00 PM 14.9 58.82 0.377 8 11.47 10.56
4/15/2022 7:15:00 PM 14.85 58.73 0.377 7.97 12.1 10.44
4/15/2022 7:30:00 PM 14.8 58.64 0.377 7.96 11.87 10.32
4/15/2022 7:45:00 PM 14.75 58.55 0.377 7.94 12.1 10.21
4/15/2022 8:00:00 PM 14.7 58.46 0.377 7.93 12.03 10.1
4/15/2022 8:15:00 PM 14.66 58.388 0.377 7.91 29.76 10.01
4/15/2022 8:30:00 PM 14.6 58.28 0.377 7.9 12.72 9.92
4/15/2022 8:45:00 PM 14.54 58.172 0.377 7.88 13.07 9.86
4/15/2022 9:00:00 PM 14.47 58.046 0.377 7.88 12.94 9.79
4/15/2022 9:15:00 PM 14.4 57.92 0.378 7.87 12.88 9.74
4/15/2022 9:30:00 PM 14.33 57.794 0.378 7.85 12.47 9.68
4/15/2022 9:45:00 PM 14.26 57.668 0.378 7.84 2.2 9.63
4/15/2022 10:00:00 PM 14.2 57.56 0.378 7.83 12.96 9.58
4/15/2022 10:15:00 PM 14.13 57.434 0.378 7.82 13.59 9.54
4/15/2022 10:30:00 PM 14.07 57.326 0.378 7.81 13.03 9.49
4/15/2022 10:45:00 PM 14.01 57.218 0.378 7.8 12.53 9.46
4/15/2022 11:00:00 PM 13.95 57.11 0.378 7.8 68.16 9.42
4/15/2022 11:15:00 PM 13.9 57.02 0.378 7.78 12.64 9.4
4/15/2022 11:30:00 PM 13.84 56.912 0.378 7.78 27.6 9.37
4/15/2022 11:45:00 PM 13.78 56.804 0.378 7.78 12.77 9.35
4/16/2022 12:00:00 AM 13.74 56.732 0.378 7.77 12.55 9.33
4/16/2022 12:15:00 AM 13.69 56.642 0.378 7.76 13.03 9.31
4/16/2022 12:30:00 AM 13.65 56.57 0.378 7.76 0.93 9.29
4/16/2022 12:45:00 AM 13.61 56.498 0.378 7.75 13.96 9.28
4/16/2022 1:00:00 AM 13.57 56.426 0.378 7.75 12.88 9.26
4/16/2022 1:15:00 AM 13.52 56.336 0.378 7.74 13.44 9.26
4/16/2022 1:30:00 AM 13.48 56.264 0.378 7.74 14.01 9.25
4/16/2022 1:45:00 AM 13.42 56.156 0.378 7.73 11.11 9.25
4/16/2022 2:00:00 AM 13.37 56.066 0.378 7.73 13.89 9.25
4/16/2022 2:15:00 AM 13.32 55.976 0.378 7.73 13.71 9.24
4/16/2022 2:30:00 AM 13.27 55.886 0.378 7.72 13.93 9.25
4/16/2022 2:45:00 AM 13.23 55.814 0.378 7.72 16.74 9.24
4/16/2022 3:00:00 AM 13.18 55.724 0.378 7.72 13.99 9.25
4/16/2022 3:15:00 AM 13.14 55.652 0.379 7.71 13.75 9.25
4/16/2022 3:30:00 AM 13.1 55.58 0.379 7.71 15.11 9.25
4/16/2022 3:45:00 AM 13.06 55.508 0.379 7.71 14.49 9.25
4/16/2022 4:00:00 AM 13.01 55.418 0.379 7.7 14.84 9.26
4/16/2022 4:15:00 AM 12.97 55.346 0.379 7.7 14.12 9.26
4/16/2022 4:30:00 AM 12.93 55.274 0.379 7.7 14.85 9.27
4/16/2022 4:45:00 AM 12.88 55.184 0.379 7.7 14.35 9.28
4/16/2022 5:00:00 AM 12.84 55.112 0.38 7.69 17.13 9.29
4/16/2022 5:15:00 AM 12.8 55.04 0.38 7.69 4.86 9.29
4/16/2022 5:30:00 AM 12.75 54.95 0.38 7.69 15.71 9.31
4/16/2022 5:45:00 AM 12.71 54.878 0.38 7.69 5.2 9.31
4/16/2022 6:00:00 AM 12.68 54.824 0.38 7.69 2.62 9.33
4/16/2022 6:15:00 AM 12.64 54.752 0.38 7.69 3.44 9.34
4/16/2022 6:30:00 AM 12.6 54.68 0.38 7.68 14.5 9.35
4/16/2022 6:45:00 AM 12.56 54.608 0.38 7.68 15 9.37
4/16/2022 7:00:00 AM 12.52 54.536 0.38 7.69 12.57 9.38
4/16/2022 7:15:00 AM 12.48 54.464 0.38 7.69 13.39 9.41
4/16/2022 7:30:00 AM 12.45 54.41 0.38 7.69 13.3 9.42
4/16/2022 7:45:00 AM 12.43 54.374 0.38 7.68 13.51 9.46
4/16/2022 8:00:00 AM 12.42 54.356 0.38 7.69 13.04 9.51
4/16/2022 8:15:00 AM 12.43 54.374 0.38 7.7 37.81 9.59
4/16/2022 8:30:00 AM 12.44 54.392 0.38 7.71 38.69 9.7
4/16/2022 8:45:00 AM 12.45 54.41 0.38 7.72 12.95 9.84
4/16/2022 9:00:00 AM 12.46 54.428 0.38 7.74 12.39 9.97
4/16/2022 9:15:00 AM 12.51 54.518 0.38 7.75 12.56 10.15
4/16/2022 9:30:00 AM 12.56 54.608 0.38 7.77 12.76 10.31
4/16/2022 9:45:00 AM 12.62 54.716 0.38 7.79 13.33 10.45
4/16/2022 10:00:00 AM 12.68 54.824 0.38 7.8 12 10.59
4/16/2022 10:15:00 AM 12.75 54.95 0.38 7.82 12.49 10.72
4/16/2022 10:30:00 AM 12.83 55.094 0.38 7.84 12.73 10.85
4/16/2022 10:45:00 AM 12.89 55.202 0.38 7.86 11.96 10.94
4/16/2022 11:00:00 AM 12.95 55.31 0.38 7.87 19.97 11.04
4/16/2022 11:15:00 AM 13.02 55.436 0.38 7.89 12.42 11.14
4/16/2022 11:30:00 AM 13.09 55.562 0.38 7.91 2.91 11.19
4/16/2022 11:45:00 AM 13.14 55.652 0.38 7.92 16.31 11.29
4/16/2022 12:00:00 PM 13.19 55.742 0.38 7.93 12.45 11.38
4/16/2022 12:15:00 PM 13.23 55.814 0.38 7.95 12.36 11.4
4/16/2022 12:30:00 PM 13.26 55.868 0.38 7.95 12.59 11.41
4/16/2022 12:45:00 PM 13.25 55.85 0.38 7.96 13.02 11.42
4/16/2022 1:00:00 PM 13.26 55.868 0.38 7.97 11.49 11.44
4/16/2022 1:15:00 PM 13.3 55.94 0.38 7.98 12.17 11.46
4/16/2022 1:30:00 PM 13.45 56.21 0.38 8 12.67 11.55
4/16/2022 1:45:00 PM 13.6 56.48 0.38 8.02 11.86 11.66
4/16/2022 2:00:00 PM 13.79 56.822 0.38 8.04 12.29 11.77
4/16/2022 2:15:00 PM 13.99 57.182 0.38 8.07 12.38 11.86
4/16/2022 2:30:00 PM 14.23 57.614 0.38 8.09 12.95 11.94
4/16/2022 2:45:00 PM 14.4 57.92 0.379 8.11 12.12 11.96
4/16/2022 3:00:00 PM 14.59 58.262 0.379 8.13 12.79 11.97
4/16/2022 3:15:00 PM 14.62 58.316 0.379 8.13 13.29 11.89
4/16/2022 3:30:00 PM 14.58 58.244 0.38 8.13 12.64 11.83
4/16/2022 3:45:00 PM 14.52 58.136 0.38 8.12 10.92 11.74
4/16/2022 4:00:00 PM 14.43 57.974 0.379 8.12 13.31 11.64
4/16/2022 4:15:00 PM 14.38 57.884 0.38 8.11 3.71 11.55
4/16/2022 4:30:00 PM 14.38 57.884 0.38 8.1 18.5 11.49
4/16/2022 4:45:00 PM 14.42 57.956 0.379 8.11 12.8 11.45
4/16/2022 5:00:00 PM 14.47 58.046 0.379 8.11 13.07 11.41
4/16/2022 5:15:00 PM 14.5 58.1 0.379 8.1 13.17 11.3
4/16/2022 5:30:00 PM 14.54 58.172 0.379 8.09 12.73 11.2
4/16/2022 5:45:00 PM 14.52 58.136 0.379 8.07 12.34 11.03
4/16/2022 6:00:00 PM 14.49 58.082 0.379 8.05 12.06 10.85
4/16/2022 6:15:00 PM 14.46 58.028 0.379 8.02 12.27 10.68
4/16/2022 6:30:00 PM 14.46 58.028 0.379 8.01 11.89 10.56
4/16/2022 6:45:00 PM 14.46 58.028 0.379 7.99 12.66 10.45
4/16/2022 7:00:00 PM 14.46 58.028 0.379 7.98 12.62 10.38
4/16/2022 7:15:00 PM 14.44 57.992 0.379 7.97 12.75 10.32
4/16/2022 7:30:00 PM 14.4 57.92 0.379 7.96 12.1 10.23
4/16/2022 7:45:00 PM 14.33 57.794 0.379 7.95 12.09 10.15
4/16/2022 8:00:00 PM 14.26 57.668 0.379 7.93 13.14 10.04
4/16/2022 8:15:00 PM 14.2 57.56 0.379 7.91 15.68 9.94
4/16/2022 8:30:00 PM 14.15 57.47 0.379 7.9 14.22 9.86
4/16/2022 8:45:00 PM 14.09 57.362 0.379 7.88 14.95 9.79
4/16/2022 9:00:00 PM 14.05 57.29 0.379 7.87 17.01 9.73
4/16/2022 9:15:00 PM 14.01 57.218 0.379 7.86 13.58 9.68
4/16/2022 9:30:00 PM 13.97 57.146 0.379 7.85 13.77 9.63
4/16/2022 9:45:00 PM 13.93 57.074 0.378 7.84 11.08 9.59
4/16/2022 10:00:00 PM 13.89 57.002 0.378 7.83 4.27 9.55
4/16/2022 10:15:00 PM 13.84 56.912 0.378 7.83 13.87 9.51
4/16/2022 10:30:00 PM 13.79 56.822 0.378 7.82 14.72 9.48
4/16/2022 10:45:00 PM 13.74 56.732 0.378 7.8 14.17 9.44
4/16/2022 11:00:00 PM 13.69 56.642 0.378 7.79 14.83 9.41
4/16/2022 11:15:00 PM 13.63 56.534 0.378 7.8 20.07 9.39
4/16/2022 11:30:00 PM 13.57 56.426 0.377 7.78 14.18 9.37
4/16/2022 11:45:00 PM 13.51 56.318 0.378 7.78 14.47 9.35
4/17/2022 12:00:00 AM 13.44 56.192 0.378 7.78 29.93 9.34
4/17/2022 12:15:00 AM 13.37 56.066 0.378 7.77 14.12 9.33
4/17/2022 12:30:00 AM 13.3 55.94 0.378 7.77 15.3 9.33
4/17/2022 12:45:00 AM 13.24 55.832 0.378 7.76 3.06 9.32
4/17/2022 1:00:00 AM 13.18 55.724 0.378 7.76 30.12 9.31
4/17/2022 1:15:00 AM 13.12 55.616 0.377 7.75 13.13 9.31
4/17/2022 1:30:00 AM 13.06 55.508 0.378 7.75 14.01 9.31
4/17/2022 1:45:00 AM 13.01 55.418 0.377 7.74 14.59 9.3
4/17/2022 2:00:00 AM 12.95 55.31 0.377 7.74 20.02 9.29
4/17/2022 2:15:00 AM 12.89 55.202 0.377 7.74 14.41 9.3
4/17/2022 2:30:00 AM 12.82 55.076 0.377 7.73 14.52 9.3
4/17/2022 2:45:00 AM 12.75 54.95 0.377 7.72 14.54 9.31
4/17/2022 3:00:00 AM 12.7 54.86 0.377 7.72 14.74 9.32
4/17/2022 3:15:00 AM 12.65 54.77 0.377 7.73 15.02 9.32
4/17/2022 3:30:00 AM 12.6 54.68 0.377 7.72 15.54 9.33
4/17/2022 3:45:00 AM 12.53 54.554 0.377 7.72 15.7 9.34
4/17/2022 4:00:00 AM 12.45 54.41 0.377 7.72 17.1 9.35
4/17/2022 4:15:00 AM 12.37 54.266 0.377 7.71 15.95 9.36
4/17/2022 4:30:00 AM 12.28 54.104 0.377 7.71 13.13 9.37
4/17/2022 4:45:00 AM 12.18 53.924 0.377 7.71 15.33 9.39
4/17/2022 5:00:00 AM 12.09 53.762 0.377 7.71 20.36 9.41
4/17/2022 5:15:00 AM 12 53.6 0.377 7.71 4.47 9.43
4/17/2022 5:30:00 AM 11.92 53.456 0.378 7.71 15.94 9.46
4/17/2022 5:45:00 AM 11.84 53.312 0.378 7.71 16.8 9.47
4/17/2022 6:00:00 AM 11.76 53.168 0.378 7.7 21.81 9.49
4/17/2022 6:15:00 AM 11.68 53.024 0.378 7.71 15.92 9.51
4/17/2022 6:30:00 AM 11.6 52.88 0.378 7.7 30.46 9.54
4/17/2022 6:45:00 AM 11.54 52.772 0.378 7.7 3.44 9.56
4/17/2022 7:00:00 AM 11.47 52.646 0.378 7.7 14.48 9.59
4/17/2022 7:15:00 AM 11.41 52.538 0.378 7.71 14.45 9.66
4/17/2022 7:30:00 AM 11.35 52.43 0.378 7.72 14.4 9.73
4/17/2022 7:45:00 AM 11.3 52.34 0.378 7.72 10.79 9.82
4/17/2022 8:00:00 AM 11.28 52.304 0.379 7.73 2.43 9.91
4/17/2022 8:15:00 AM 11.26 52.268 0.379 7.74 14.38 10.06
4/17/2022 8:30:00 AM 11.22 52.196 0.379 7.76 2.11 10.18
4/17/2022 8:45:00 AM 11.22 52.196 0.379 7.77 6.31 10.35
4/17/2022 9:00:00 AM 11.22 52.196 0.379 7.79 3.75 10.47
4/17/2022 9:15:00 AM 11.22 52.196 0.379 7.79 14.74 10.61
4/17/2022 9:30:00 AM 11.22 52.196 0.379 7.81 13.45 10.73
4/17/2022 9:45:00 AM 11.19 52.142 0.379 7.83 13.21 10.84
4/17/2022 10:00:00 AM 11.18 52.124 0.379 7.84 10.7 10.93
4/17/2022 10:15:00 AM 11.14 52.052 0.379 7.85 15.39 11.03
4/17/2022 10:30:00 AM 11.23 52.214 0.379 7.86 13.99 11.18
4/17/2022 10:45:00 AM 11.24 52.232 0.379 7.88 14.41 11.32
4/17/2022 11:00:00 AM 11.26 52.268 0.379 7.91 11.91 11.44
4/17/2022 11:15:00 AM 11.22 52.196 0.379 7.92 14.29 11.51
4/17/2022 11:30:00 AM 11.36 52.448 0.379 7.94 13.45 11.68
4/17/2022 11:45:00 AM 11.5 52.7 0.379 7.96 13.34 11.78
4/17/2022 12:00:00 PM 11.63 52.934 0.379 7.98 13.12 11.85
4/17/2022 12:15:00 PM 11.79 53.222 0.379 7.99 16.63 11.93
4/17/2022 12:30:00 PM 11.86 53.348 0.378 8 12.54 11.99
4/17/2022 12:45:00 PM 11.89 53.402 0.379 8.02 13.87 12.02
4/17/2022 1:00:00 PM 11.9 53.42 0.379 8.03 13.84 12.09
4/17/2022 1:15:00 PM 11.85 53.33 0.379 8.06 7.8 12.14
4/17/2022 1:30:00 PM 12.02 53.636 0.379 8.08 35.77 12.24
4/17/2022 1:45:00 PM 12.23 54.014 0.379 8.1 13.67 12.31
4/17/2022 2:00:00 PM 12.45 54.41 0.379 8.11 13.96 12.38
4/17/2022 2:15:00 PM 12.68 54.824 0.29 8.12 13.52 12.44
4/17/2022 2:30:00 PM 12.9 55.22 0.379 8.15 4.12 12.46
4/17/2022 2:45:00 PM 12.94 55.292 0.379 8.17 13.55 12.47
4/17/2022 3:00:00 PM 12.97 55.346 0.379 8.18 6.54 12.47
4/17/2022 3:15:00 PM 12.93 55.274 0.379 8.19 9.63 12.44
4/17/2022 3:30:00 PM 12.92 55.256 0.38 8.19 6.55 12.42
4/17/2022 3:45:00 PM 12.89 55.202 0.38 8.2 15.06 12.4
4/17/2022 4:00:00 PM 12.96 55.328 0.38 8.2 13.43 12.39
4/17/2022 4:15:00 PM 13.08 55.544 0.38 8.21 6.68 12.39
4/17/2022 4:30:00 PM 13.17 55.706 0.38 8.21 13.54 12.38
4/17/2022 4:45:00 PM 13.26 55.868 0.38 8.23 15.7 12.37
4/17/2022 5:00:00 PM 13.27 55.886 0.38 8.24 13.87 12.32
4/17/2022 5:15:00 PM 13.23 55.814 0.38 8.23 13.75 12.24
4/17/2022 5:30:00 PM 13.15 55.67 0.229 8.22 12.86 12.14
4/17/2022 5:45:00 PM 13.06 55.508 0.38 8.21 8.93 12.03
4/17/2022 6:00:00 PM 13 55.4 0.38 8.19 12.56 11.91
4/17/2022 6:15:00 PM 12.95 55.31 0.259 8.18 13.31 11.79
4/17/2022 6:30:00 PM 12.9 55.22 0.38 8.16 13.75 11.66
4/17/2022 6:45:00 PM 12.86 55.148 0.381 8.15 13.94 11.53
4/17/2022 7:00:00 PM 12.81 55.058 0.38 8.13 14.35 11.41
4/17/2022 7:15:00 PM 12.77 54.986 0.381 8.11 8.22 11.28
4/17/2022 7:30:00 PM 12.71 54.878 0.381 8.09 4.39 11.16
4/17/2022 7:45:00 PM 12.66 54.788 0.381 8.06 9.21 11.02
4/17/2022 8:00:00 PM 12.6 54.68 0.381 8.04 13.74 10.9
4/17/2022 8:15:00 PM 12.51 54.518 0.381 8.02 14.15 10.79
4/17/2022 8:30:00 PM 12.44 54.392 0.381 8 14.65 10.69
4/17/2022 8:45:00 PM 12.35 54.23 0.381 7.98 14.71 10.6
4/17/2022 9:00:00 PM 12.25 54.05 0.381 7.97 14.73 10.54
4/17/2022 9:15:00 PM 12.16 53.888 0.381 7.96 14.92 10.49
4/17/2022 9:30:00 PM 12.07 53.726 0.381 7.94 15.2 10.44
4/17/2022 9:45:00 PM 11.96 53.528 0.381 7.92 14.84 10.4
4/17/2022 10:00:00 PM 11.87 53.366 0.381 7.91 15.73 10.36
4/17/2022 10:15:00 PM 11.76 53.168 0.382 7.9 15.55 10.31
4/17/2022 10:30:00 PM 11.66 52.988 0.382 7.88 15.19 10.27
4/17/2022 10:45:00 PM 11.55 52.79 0.382 7.87 16.22 10.23
4/17/2022 11:00:00 PM 11.45 52.61 0.382 7.85 15.16 10.2
4/17/2022 11:15:00 PM 11.35 52.43 0.382 7.85 14.97 10.18
4/17/2022 11:30:00 PM 11.25 52.25 0.382 7.83 6.87 10.15
4/17/2022 11:45:00 PM 11.15 52.07 0.382 7.82 16.38 10.13
4/18/2022 12:00:00 AM 11.07 51.926 0.382 7.81 15.33 10.11
4/18/2022 12:15:00 AM 10.99 51.782 0.383 7.81 14.99 10.09
4/18/2022 12:30:00 AM 10.9 51.62 0.383 7.8 14.74 10.09
4/18/2022 12:45:00 AM 10.82 51.476 0.382 7.8 14.83 10.08
4/18/2022 1:00:00 AM 10.73 51.314 0.382 7.78 14.79 10.08
4/18/2022 1:15:00 AM 10.66 51.188 0.383 7.78 14.7 10.07
4/18/2022 1:30:00 AM 10.59 51.062 0.383 7.78 15.34 10.07
4/18/2022 1:45:00 AM 10.5 50.9 0.383 7.78 15.03 10.07
4/18/2022 2:00:00 AM 10.42 50.756 0.383 7.77 14.74 10.07
4/18/2022 2:15:00 AM 10.34 50.612 0.383 7.76 18.64 10.07
4/18/2022 2:30:00 AM 10.25 50.45 0.383 7.76 15.28 10.08
4/18/2022 2:45:00 AM 10.18 50.324 0.383 7.75 15 10.09
4/18/2022 3:00:00 AM 10.09 50.162 0.383 7.75 15.26 10.1
4/18/2022 3:15:00 AM 10.01 50.018 0.383 7.75 15.41 10.11
4/18/2022 3:30:00 AM 9.92 49.856 0.383 7.75 16.31 10.12
4/18/2022 3:45:00 AM 9.84 49.712 0.383 7.74 10.98 10.13
4/18/2022 4:00:00 AM 9.75 49.55 0.383 7.74 15.93 10.15
4/18/2022 4:15:00 AM 9.66 49.388 0.383 7.74 14.56 10.16
4/18/2022 4:30:00 AM 9.57 49.226 0.383 7.73 16.54 10.18
4/18/2022 4:45:00 AM 9.48 49.064 0.384 7.73 15.83 10.2
4/18/2022 5:00:00 AM 9.39 48.902 0.383 7.72 16.14 10.22
4/18/2022 5:15:00 AM 9.3 48.74 0.384 7.73 9.08 10.24
4/18/2022 5:30:00 AM 9.21 48.578 0.384 7.73 15.5 10.26
4/18/2022 5:45:00 AM 9.13 48.434 0.384 7.73 15.68 10.27
4/18/2022 6:00:00 AM 9.04 48.272 0.384 7.72 13.56 10.29
4/18/2022 6:15:00 AM 8.96 48.128 0.385 7.72 15.38 10.32
4/18/2022 6:30:00 AM 8.87 47.966 0.384 7.72 15.62 10.34
4/18/2022 6:45:00 AM 8.8 47.84 0.384 7.72 39.87 10.38
4/18/2022 7:00:00 AM 8.73 47.714 0.384 7.72 14.43 10.45
4/18/2022 7:15:00 AM 8.7 47.66 0.385 7.73 14.48 10.52
4/18/2022 7:30:00 AM 8.67 47.606 0.385 7.74 10.92 10.62
4/18/2022 7:45:00 AM 8.65 47.57 0.385 7.74 8 10.74
4/18/2022 8:00:00 AM 8.63 47.534 0.385 7.76 14.2 10.86
4/18/2022 8:15:00 AM 8.61 47.498 0.384 7.77 14.1 10.99
4/18/2022 8:30:00 AM 8.6 47.48 0.385 7.78 15.78 11.12
4/18/2022 8:45:00 AM 8.61 47.498 0.385 7.79 14.2 11.24
4/18/2022 9:00:00 AM 8.62 47.516 0.385 7.81 13.69 11.39
4/18/2022 9:15:00 AM 8.62 47.516 0.385 7.83 13.86 11.52
4/18/2022 9:30:00 AM 8.61 47.498 0.385 7.84 12.83 11.62
4/18/2022 9:45:00 AM 8.6 47.48 0.385 7.85 13.59 11.73
4/18/2022 10:00:00 AM 8.6 47.48 0.385 7.86 12.8 11.83
4/18/2022 10:15:00 AM 8.61 47.498 0.385 7.88 16.61 11.93
4/18/2022 10:30:00 AM 8.62 47.516 0.385 7.89 14.63 12.02
4/18/2022 10:45:00 AM 8.62 47.516 0.385 7.9 14.22 12.1
4/18/2022 11:00:00 AM 8.62 47.516 0.385 7.91 16.72 12.19
4/18/2022 11:15:00 AM 8.61 47.498 0.385 7.93 13.14 12.26
4/18/2022 11:30:00 AM 8.59 47.462 0.385 7.91 51.58 12.22
4/18/2022 11:45:00 AM 8.58 47.444 0.302 7.93 16.5 12.29
4/18/2022 12:00:00 PM 8.57 47.426 0.385 7.94 12.84 12.34
4/18/2022 12:15:00 PM 8.56 47.408 0.385 7.95 13.23 12.38
4/18/2022 12:30:00 PM 8.54 47.372 0.385 7.96 12.82 12.38
4/18/2022 12:45:00 PM 8.51 47.318 0.385 7.95 12.65 12.36
4/18/2022 1:00:00 PM 8.5 47.3 0.385 7.96 12.73 12.32
4/18/2022 1:15:00 PM 8.48 47.264 0.385 7.95 12.51 12.27
4/18/2022 1:30:00 PM 8.47 47.246 0.385 7.95 12.38 12.23
4/18/2022 1:45:00 PM 8.46 47.228 0.385 7.95 12.6 12.22
4/18/2022 2:00:00 PM 8.46 47.228 0.385 7.95 12.48 12.22
4/18/2022 2:15:00 PM 8.46 47.228 0.386 7.95 12.9 12.22
4/18/2022 2:30:00 PM 8.46 47.228 0.386 7.96 12.94 12.23
4/18/2022 2:45:00 PM 8.45 47.21 0.386 7.96 13.05 12.25
4/18/2022 3:00:00 PM 8.45 47.21 0.385 7.97 13.02 12.26
4/18/2022 3:15:00 PM 8.43 47.174 0.386 7.96 12.54 12.26
4/18/2022 3:30:00 PM 8.41 47.138 0.386 7.97 12.71 12.24
4/18/2022 3:45:00 PM 8.38 47.084 0.385 7.97 12.81 12.25
4/18/2022 4:00:00 PM 8.35 47.03 0.385 7.97 12.77 12.24
4/18/2022 4:15:00 PM 8.32 46.976 0.384 7.97 13.01 12.22
4/18/2022 4:30:00 PM 8.28 46.904 0.383 7.96 12.42 12.19
4/18/2022 4:45:00 PM 8.26 46.868 0.383 7.95 12.79 12.15
4/18/2022 5:00:00 PM 8.23 46.814 0.383 7.94 13.17 12.09
4/18/2022 5:15:00 PM 8.2 46.76 0.382 7.94 7.35 12.06
4/18/2022 5:30:00 PM 8.19 46.742 0.381 7.93 13.45 12.05
4/18/2022 5:45:00 PM 8.18 46.724 0.381 7.93 12.77 12.04
4/18/2022 6:00:00 PM 8.17 46.706 0.381 7.93 13.32 12.05
4/18/2022 6:15:00 PM 8.15 46.67 0.381 7.93 13.77 12.03
4/18/2022 6:30:00 PM 8.13 46.634 0.381 7.92 13.32 11.97
4/18/2022 6:45:00 PM 8.12 46.616 0.381 7.91 16.57 11.88
4/18/2022 7:00:00 PM 8.1 46.58 0.381 7.9 13.6 11.78
4/18/2022 7:15:00 PM 8.07 46.526 0.381 7.88 13.9 11.7
4/18/2022 7:30:00 PM 8.05 46.49 0.38 7.87 4.81 11.62
4/18/2022 7:45:00 PM 8.03 46.454 0.38 7.87 7.23 11.57
4/18/2022 8:00:00 PM 8.01 46.418 0.379 7.86 13.9 11.52
4/18/2022 8:15:00 PM 8 46.4 0.379 7.86 13.93 11.47
4/18/2022 8:30:00 PM 7.98 46.364 0.379 7.86 8.33 11.43
4/18/2022 8:45:00 PM 7.95 46.31 0.377 7.85 13.39 11.4
4/18/2022 9:00:00 PM 7.92 46.256 0.376 7.85 11.79 11.37
4/18/2022 9:15:00 PM 7.88 46.184 0.373 7.84 16.1 11.35
4/18/2022 9:30:00 PM 7.84 46.112 0.371 7.84 10.56 11.34
4/18/2022 9:45:00 PM 7.79 46.022 0.367 7.84 10.09 11.34
4/18/2022 10:00:00 PM 7.76 45.968 0.365 7.84 22.16 11.31
4/18/2022 10:15:00 PM 7.72 45.896 0.362 7.83 26.27 11.3
4/18/2022 10:30:00 PM 7.69 45.842 0.36 7.83 22.76 11.29
4/18/2022 10:45:00 PM 7.66 45.788 0.359 7.82 22.38 11.27
4/18/2022 11:00:00 PM 7.62 45.716 0.357 7.81 24.11 11.25
4/18/2022 11:15:00 PM 7.57 45.626 0.354 7.79 29.15 11.23
4/18/2022 11:30:00 PM 7.53 45.554 0.351 7.78 43.1 11.21
4/18/2022 11:45:00 PM 7.49 45.482 0.35 7.77 34.61 11.21
4/19/2022 12:00:00 AM 7.46 45.428 0.346 7.76 39.67 11.21
4/19/2022 12:15:00 AM 7.43 45.374 0.344 7.76 40.69 11.21
4/19/2022 12:30:00 AM 7.38 45.284 0.339 7.76 41 11.21
4/19/2022 12:45:00 AM 7.31 45.158 0.334 7.75 38.46 11.22
4/19/2022 1:00:00 AM 7.24 45.032 0.33 7.74 52.32 11.21
4/19/2022 1:15:00 AM 7.2 44.96 0.329 7.73 58.3 11.2
4/19/2022 1:30:00 AM 7.2 44.96 0.328 7.71 65.87 11.14
4/19/2022 1:45:00 AM 7.11 44.798 0.322 7.72 74.98 11.2
4/19/2022 2:00:00 AM 7.11 44.798 0.316 7.72 118.39 11.16
4/19/2022 2:15:00 AM 7.04 44.672 0.312 7.7 174.75 11.19
4/19/2022 2:30:00 AM 6.99 44.582 0.308 7.7 149.18 11.2
4/19/2022 2:45:00 AM 6.97 44.546 0.304 7.69 131.39 11.23
4/19/2022 3:00:00 AM 6.91 44.438 0.3 7.69 135.43 11.23
4/19/2022 3:15:00 AM 6.96 44.528 0.301 7.62 247.47 11.16
4/19/2022 3:30:00 AM 6.92 44.456 0.295 7.66 169.02 11.15
4/19/2022 3:45:00 AM 6.74 44.132 0.294 7.66 129.56 11.23
4/19/2022 4:00:00 AM 6.72 44.096 0.291 7.67 141.94 11.22
4/19/2022 4:15:00 AM 6.65 43.97 0.283 7.67 173.05 11.23
4/19/2022 4:30:00 AM 6.51 43.718 0.267 7.58 146.23 11.31
4/19/2022 4:45:00 AM 6.48 43.664 0.261 7.68 184 11.31
4/19/2022 5:00:00 AM 6.45 43.61 0.256 7.67 153.68 11.31
4/19/2022 5:15:00 AM 6.43 43.574 0.251 7.63 157.89 11.32
4/19/2022 5:30:00 AM 6.41 43.538 0.246 7.62 155.82 11.33
4/19/2022 5:45:00 AM 6.39 43.502 0.241 7.62 143.63 11.33
4/19/2022 6:00:00 AM 6.38 43.484 0.238 7.6 143.2 11.34
4/19/2022 6:15:00 AM 6.37 43.466 0.236 7.61 133.12 11.34
4/19/2022 6:30:00 AM 6.36 43.448 0.234 7.6 123.37 11.35
4/19/2022 6:45:00 AM 6.34 43.412 0.232 7.6 140.3 11.35
4/19/2022 7:00:00 AM 6.32 43.376 0.231 7.62 125.16 11.35
4/19/2022 7:15:00 AM 6.3 43.34 0.231 7.59 122.94 11.36
4/19/2022 7:30:00 AM 6.29 43.322 0.229 7.59 109.29 11.37
4/19/2022 7:45:00 AM 6.29 43.322 0.229 7.59 106.83 11.37
4/19/2022 8:00:00 AM 6.35 43.43 0.236 7.58 105 11.33
4/19/2022 8:15:00 AM 6.47 43.646 0.247 7.56 147.17 11.15
4/19/2022 8:30:00 AM 6.65 43.97 0.269 7.53 89.91 11
4/19/2022 8:45:00 AM 6.63 43.934 0.268 7.51 91.17 10.98
4/19/2022 9:00:00 AM 6.77 44.186 0.273 7.29 100.83 10.97
4/19/2022 9:15:00 AM 6.8 44.24 0.269 7.52 73.86 11.03
4/19/2022 9:30:00 AM 6.84 44.312 0.262 7.54 124.95 11.07
4/19/2022 9:45:00 AM 6.79 44.222 0.242 7.56 86.33 11.18
4/19/2022 10:00:00 AM 6.88 44.384 0.258 7.51 66.75 11.17
4/19/2022 10:15:00 AM 6.91 44.438 0.26 7.55 43.14 11.23
4/19/2022 10:30:00 AM 7.05 44.69 0.264 7.53 63.99 11.24
4/19/2022 10:45:00 AM 7.16 44.888 0.265 7.54 58.19 11.24
4/19/2022 11:00:00 AM 7.26 45.068 0.275 7.53 59.34 11.28
4/19/2022 11:15:00 AM 7.37 45.266 0.27 7.54 57.74 11.25
4/19/2022 11:30:00 AM 7.4 45.32 0.27 7.54 56.95 11.29
4/19/2022 11:45:00 AM 7.45 45.41 0.269 7.55 66.19 11.31
4/19/2022 12:00:00 PM 7.53 45.554 0.273 7.56 60.05 11.34
4/19/2022 12:15:00 PM 7.58 45.644 0.27 7.57 55.97 11.33
4/19/2022 12:30:00 PM 7.71 45.878 0.275 7.55 51.05 11.26
4/19/2022 12:45:00 PM 7.77 45.986 0.275 7.58 61.11 11.33
4/19/2022 1:00:00 PM 7.91 46.238 0.273 7.59 35.17 11.36
4/19/2022 1:15:00 PM 8.04 46.472 0.272 7.6 61.9 11.4
4/19/2022 1:30:00 PM 8.03 46.454 0.276 7.61 40.66 11.39
4/19/2022 1:45:00 PM 7.98 46.364 0.271 7.61 41.53 11.39
4/19/2022 2:00:00 PM 8.02 46.436 0.275 7.62 38.95 11.39
4/19/2022 2:15:00 PM 8.14 46.652 0.273 7.63 37.27 11.41
4/19/2022 2:30:00 PM 8.43 47.174 0.278 7.63 49.73 11.41
4/19/2022 2:45:00 PM 8.61 47.498 0.278 7.65 13.06 11.44
4/19/2022 3:00:00 PM 8.72 47.696 0.284 7.66 33.53 11.45
4/19/2022 3:15:00 PM 8.79 47.822 0.282 7.67 34.81 11.44
4/19/2022 3:30:00 PM 8.8 47.84 0.283 7.68 31.43 11.44
4/19/2022 3:45:00 PM 8.79 47.822 0.284 7.69 29.58 11.42
4/19/2022 4:00:00 PM 8.82 47.876 0.287 7.68 31.54 11.4
4/19/2022 4:15:00 PM 8.86 47.948 0.289 7.69 32.15 11.38
4/19/2022 4:30:00 PM 8.91 48.038 0.29 7.69 30.12 11.35
4/19/2022 4:45:00 PM 9.08 48.344 0.293 7.69 28.05 11.36
4/19/2022 5:00:00 PM 9.17 48.506 0.294 7.7 26.86 11.35
4/19/2022 5:15:00 PM 9.23 48.614 0.296 7.7 26.67 11.34
4/19/2022 5:30:00 PM 9.29 48.722 0.298 7.71 27.3 11.34
4/19/2022 5:45:00 PM 9.31 48.758 0.3 7.71 25.36 11.3
4/19/2022 6:00:00 PM 9.31 48.758 0.302 7.71 27.49 11.27
4/19/2022 6:15:00 PM 9.31 48.758 0.303 7.71 57.15 11.24
4/19/2022 6:30:00 PM 9.31 48.758 0.305 7.71 23.27 11.22
4/19/2022 6:45:00 PM 9.3 48.74 0.307 7.71 20.95 11.18
4/19/2022 7:00:00 PM 9.3 48.74 0.309 7.7 21.55 11.14
4/19/2022 7:15:00 PM 9.28 48.704 0.31 7.7 23.85 11.1
4/19/2022 7:30:00 PM 9.26 48.668 0.312 7.69 21.81 11.06
4/19/2022 7:45:00 PM 9.23 48.614 0.313 7.69 20.99 11.03
4/19/2022 8:00:00 PM 9.2 48.56 0.315 7.69 20.12 11
4/19/2022 8:15:00 PM 9.16 48.488 0.316 7.69 18.5 10.96
4/19/2022 8:30:00 PM 9.13 48.434 0.318 7.69 18.53 10.92
4/19/2022 8:45:00 PM 9.09 48.362 0.319 7.69 15.96 10.89
4/19/2022 9:00:00 PM 9.06 48.308 0.32 7.69 17.87 10.87
4/19/2022 9:15:00 PM 9.02 48.236 0.322 7.68 18.67 10.85
4/19/2022 9:30:00 PM 8.99 48.182 0.323 7.67 16.9 10.83
4/19/2022 9:45:00 PM 8.95 48.11 0.324 7.68 15.84 10.82
4/19/2022 10:00:00 PM 8.92 48.056 0.325 7.67 14.99 10.8
4/19/2022 10:15:00 PM 8.88 47.984 0.326 7.66 18.07 10.79
4/19/2022 10:30:00 PM 8.85 47.93 0.328 7.67 15.02 10.78
4/19/2022 10:45:00 PM 8.82 47.876 0.329 7.67 16.76 10.77
4/19/2022 11:00:00 PM 8.78 47.804 0.33 7.66 16.43 10.78
4/19/2022 11:15:00 PM 8.73 47.714 0.331 7.66 16.6 10.77
4/19/2022 11:30:00 PM 8.68 47.624 0.332 7.67 17.19 10.77
4/19/2022 11:45:00 PM 8.63 47.534 0.33 7.66 16.02 10.76
4/20/2022 12:00:00 AM 8.58 47.444 0.334 7.66 17.68 10.77
4/20/2022 12:15:00 AM 8.53 47.354 0.335 7.66 15.69 10.77
4/20/2022 12:30:00 AM 8.48 47.264 0.335 7.65 15.9 10.78
4/20/2022 12:45:00 AM 8.43 47.174 0.337 7.66 14.28 10.79
4/20/2022 1:00:00 AM 8.37 47.066 0.337 7.65 15.56 10.79
4/20/2022 1:15:00 AM 8.31 46.958 0.338 7.65 14.25 10.8
4/20/2022 1:30:00 AM 8.25 46.85 0.339 7.65 15.15 10.81
4/20/2022 1:45:00 AM 8.19 46.742 0.34 7.65 14.21 10.82
4/20/2022 2:00:00 AM 8.13 46.634 0.342 7.65 13.95 10.84
4/20/2022 2:15:00 AM 8.07 46.526 0.342 7.65 13.24 10.85
4/20/2022 2:30:00 AM 8.01 46.418 0.343 7.65 12.82 10.86
4/20/2022 2:45:00 AM 7.95 46.31 0.344 7.65 14.23 10.87
4/20/2022 3:00:00 AM 7.89 46.202 0.345 7.65 12.86 10.88
4/20/2022 3:15:00 AM 7.83 46.094 0.345 7.65 12.93 10.9
4/20/2022 3:30:00 AM 7.78 46.004 0.346 7.64 12.25 10.92
4/20/2022 3:45:00 AM 7.72 45.896 0.347 7.64 12.32 10.94
4/20/2022 4:00:00 AM 7.66 45.788 0.348 7.65 12.51 10.95
4/20/2022 4:15:00 AM 7.6 45.68 0.349 7.64 12.51 10.97
4/20/2022 4:30:00 AM 7.55 45.59 0.349 7.65 11.59 10.99
4/20/2022 4:45:00 AM 7.49 45.482 0.35 7.65 12.16 11.01
4/20/2022 5:00:00 AM 7.43 45.374 0.35 7.64 12.05 11.03
4/20/2022 5:15:00 AM 7.38 45.284 0.351 7.65 11.46 11.04
4/20/2022 5:30:00 AM 7.32 45.176 0.352 7.63 11.92 11.06
4/20/2022 5:45:00 AM 7.26 45.068 0.35 7.64 11.47 11.08
4/20/2022 6:00:00 AM 7.2 44.96 0.352 7.65 10.76 11.09
4/20/2022 6:15:00 AM 7.15 44.87 0.353 7.65 12.07 11.12
4/20/2022 6:30:00 AM 7.1 44.78 0.353 7.65 10.14 11.13
4/20/2022 6:45:00 AM 7.05 44.69 0.354 7.65 11.53 11.16
4/20/2022 7:00:00 AM 7.01 44.618 0.354 7.65 10.15 11.2
4/20/2022 7:15:00 AM 6.99 44.582 0.355 7.65 10 11.24
4/20/2022 7:30:00 AM 6.97 44.546 0.355 7.65 9.47 11.28
4/20/2022 7:45:00 AM 6.95 44.51 0.355 7.66 9.28 11.35
4/20/2022 8:00:00 AM 6.95 44.51 0.355 7.67 8.91 11.41
4/20/2022 8:15:00 AM 6.96 44.528 0.356 7.67 8.87 11.48
4/20/2022 8:30:00 AM 6.99 44.582 0.356 7.68 9.08 11.56
4/20/2022 8:45:00 AM 7.02 44.636 0.357 7.69 8.41 11.64
4/20/2022 9:00:00 AM 7.08 44.744 0.356 7.7 8.8 11.71
4/20/2022 9:15:00 AM 7.12 44.816 0.357 7.71 8.66 11.78
4/20/2022 9:30:00 AM 7.2 44.96 0.358 7.72 7.57 11.86
4/20/2022 9:45:00 AM 7.28 45.104 0.357 7.72 7.85 11.93
4/20/2022 10:00:00 AM 7.4 45.32 0.358 7.74 7.22 12.01
4/20/2022 10:15:00 AM 7.52 45.536 0.358 7.75 7.27 12.08
4/20/2022 10:30:00 AM 7.65 45.77 0.359 7.75 6.82 12.14
4/20/2022 10:45:00 AM 7.82 46.076 0.358 7.77 7.48 12.2
4/20/2022 11:00:00 AM 7.94 46.292 0.359 7.77 6.89 12.26
4/20/2022 11:15:00 AM 8.11 46.598 0.359 7.79 7.22 12.32
4/20/2022 11:30:00 AM 8.31 46.958 0.359 7.8 6.72 12.36
4/20/2022 11:45:00 AM 8.49 47.282 0.36 7.81 10.83 12.4
4/20/2022 12:00:00 PM 8.69 47.642 0.359 7.82 7.49 12.43
4/20/2022 12:15:00 PM 8.93 48.074 0.36 7.83 6.72 12.46
4/20/2022 12:30:00 PM 9.17 48.506 0.36 7.84 7.02 12.48
4/20/2022 12:45:00 PM 9.41 48.938 0.36 7.85 6.88 12.51
4/20/2022 1:00:00 PM 9.66 49.388 0.36 7.87 6.46 12.51
4/20/2022 1:15:00 PM 9.89 49.802 0.36 7.88 7 12.52
4/20/2022 1:30:00 PM 10.12 50.216 0.36 7.89 48.04 12.53
4/20/2022 1:45:00 PM 10.32 50.576 0.361 7.9 6.54 12.53
4/20/2022 2:00:00 PM 10.53 50.954 0.361 7.91 6.83 12.53
4/20/2022 2:15:00 PM 10.73 51.314 0.361 7.91 6.86 12.52
4/20/2022 2:30:00 PM 10.91 51.638 0.361 7.92 6.66 12.5
4/20/2022 2:45:00 PM 11.07 51.926 0.361 7.93 6.5 12.47
4/20/2022 3:00:00 PM 11.23 52.214 0.362 7.93 100.83 12.45
4/20/2022 3:15:00 PM 11.38 52.484 0.362 7.95 6.81 12.43
4/20/2022 3:30:00 PM 11.51 52.718 0.361 7.95 6.83 12.39
4/20/2022 3:45:00 PM 11.62 52.916 0.362 7.95 7.84 12.35
4/20/2022 4:00:00 PM 11.73 53.114 0.362 7.95 7.8 12.29
4/20/2022 4:15:00 PM 11.82 53.276 0.362 7.96 6.56 12.24
4/20/2022 4:30:00 PM 11.9 53.42 0.362 7.96 6.87 12.19
4/20/2022 4:45:00 PM 11.97 53.546 0.363 7.95 6.58 12.11
4/20/2022 5:00:00 PM 12.04 53.672 0.362 7.95 6.77 12.05
4/20/2022 5:15:00 PM 12.09 53.762 0.363 7.95 7.27 11.96
4/20/2022 5:30:00 PM 12.14 53.852 0.363 7.95 7.29 11.88
4/20/2022 5:45:00 PM 12.17 53.906 0.363 7.95 7.11 11.78
4/20/2022 6:00:00 PM 12.21 53.978 0.363 7.93 7.23 11.68
4/20/2022 6:15:00 PM 12.24 54.032 0.363 7.93 7.3 11.58
4/20/2022 6:30:00 PM 12.27 54.086 0.364 7.92 6.78 11.47
4/20/2022 6:45:00 PM 12.29 54.122 0.363 7.91 7.08 11.36
4/20/2022 7:00:00 PM 12.3 54.14 0.364 7.89 6.81 11.25
4/20/2022 7:15:00 PM 12.3 54.14 0.364 7.88 6.99 11.15
4/20/2022 7:30:00 PM 12.29 54.122 0.365 7.86 7.22 11.04
4/20/2022 7:45:00 PM 12.26 54.068 0.365 7.85 7.51 10.93
4/20/2022 8:00:00 PM 12.23 54.014 0.365 7.84 7.02 10.83
4/20/2022 8:15:00 PM 12.19 53.942 0.365 7.83 7.05 10.74
4/20/2022 8:30:00 PM 12.14 53.852 0.365 7.82 7.27 10.66
4/20/2022 8:45:00 PM 12.09 53.762 0.365 7.8 7.29 10.58
4/20/2022 9:00:00 PM 12.04 53.672 0.365 7.78 8.3 10.52
4/20/2022 9:15:00 PM 12 53.6 0.366 7.77 9.04 10.46
4/20/2022 9:30:00 PM 11.96 53.528 0.366 7.77 8.39 10.4
4/20/2022 9:45:00 PM 11.91 53.438 0.366 7.76 8.28 10.35
4/20/2022 10:00:00 PM 11.86 53.348 0.366 7.75 8.27 10.3
4/20/2022 10:15:00 PM 11.8 53.24 0.366 7.75 8.65 10.26
4/20/2022 10:30:00 PM 11.75 53.15 0.365 7.74 8.42 10.22
4/20/2022 10:45:00 PM 11.69 53.042 0.367 7.73 8.24 10.18
4/20/2022 11:00:00 PM 11.64 52.952 0.367 7.72 7.95 10.15
4/20/2022 11:15:00 PM 11.59 52.862 0.366 7.72 8.25 10.13
4/20/2022 11:30:00 PM 11.54 52.772 0.367 7.71 8.53 10.1
4/20/2022 11:45:00 PM 11.49 52.682 0.367 7.71 8.33 10.09
4/21/2022 12:00:00 AM 11.44 52.592 0.367 7.7 8.89 10.07
4/21/2022 12:15:00 AM 11.4 52.52 0.367 7.7 8.41 10.06
4/21/2022 12:30:00 AM 11.36 52.448 0.367 7.7 8.55 10.05
4/21/2022 12:45:00 AM 11.32 52.376 0.367 7.69 7.5 10.04
4/21/2022 1:00:00 AM 11.28 52.304 0.367 7.69 8.15 10.04
4/21/2022 1:15:00 AM 11.23 52.214 0.367 7.69 9.21 10.04
4/21/2022 1:30:00 AM 11.17 52.106 0.368 7.68 8.8 10.03
4/21/2022 1:45:00 AM 11.11 51.998 0.368 7.69 8.67 10.04
4/21/2022 2:00:00 AM 11.04 51.872 0.369 7.68 8.01 10.04
4/21/2022 2:15:00 AM 10.97 51.746 0.368 7.68 8.61 10.05
4/21/2022 2:30:00 AM 10.9 51.62 0.368 7.68 8.68 10.05
4/21/2022 2:45:00 AM 10.83 51.494 0.368 7.68 8.59 10.07
4/21/2022 3:00:00 AM 10.76 51.368 0.369 7.66 8.43 10.08
4/21/2022 3:15:00 AM 10.7 51.26 0.369 7.67 8.55 10.09
4/21/2022 3:30:00 AM 10.64 51.152 0.369 7.67 8.3 10.1
4/21/2022 3:45:00 AM 10.58 51.044 0.37 7.67 8.28 10.11
4/21/2022 4:00:00 AM 10.52 50.936 0.369 7.66 8.92 10.12
4/21/2022 4:15:00 AM 10.46 50.828 0.37 7.67 8.75 10.13
4/21/2022 4:30:00 AM 10.39 50.702 0.37 7.66 8.58 10.14
4/21/2022 4:45:00 AM 10.33 50.594 0.37 7.66 8.71 10.16
4/21/2022 5:00:00 AM 10.26 50.468 0.37 7.66 8.04 10.17
4/21/2022 5:15:00 AM 10.19 50.342 0.37 7.66 8.23 10.19
4/21/2022 5:30:00 AM 10.12 50.216 0.37 7.66 8.11 10.21
4/21/2022 5:45:00 AM 10.05 50.09 0.367 7.66 8.25 10.23
4/21/2022 6:00:00 AM 9.98 49.964 0.371 7.66 8.37 10.24
4/21/2022 6:15:00 AM 9.91 49.838 0.371 7.66 8.58 10.26
4/21/2022 6:30:00 AM 9.85 49.73 0.371 7.66 8.25 10.28
4/21/2022 6:45:00 AM 9.8 49.64 0.371 7.66 8.3 10.31
4/21/2022 7:00:00 AM 9.76 49.568 0.372 7.65 7.62 10.35
4/21/2022 7:15:00 AM 9.73 49.514 0.372 7.66 7.56 10.41
4/21/2022 7:30:00 AM 9.72 49.496 0.372 7.67 7.55 10.49
4/21/2022 7:45:00 AM 9.73 49.514 0.372 7.68 7.16 10.59
4/21/2022 8:00:00 AM 9.73 49.514 0.372 7.69 7.03 10.68
4/21/2022 8:15:00 AM 9.72 49.496 0.371 7.7 7.05 10.79
4/21/2022 8:30:00 AM 9.72 49.496 0.372 7.7 7.24 10.87
4/21/2022 8:45:00 AM 9.71 49.478 0.372 7.71 6.57 10.96
4/21/2022 9:00:00 AM 9.73 49.514 0.372 7.73 6.33 11.05
4/21/2022 9:15:00 AM 9.76 49.568 0.372 7.73 6.09 11.15
4/21/2022 9:30:00 AM 9.8 49.64 0.371 7.75 6.16 11.24
4/21/2022 9:45:00 AM 9.84 49.712 0.372 7.76 6.35 11.35
4/21/2022 10:00:00 AM 9.92 49.856 0.372 7.77 5.95 11.46
4/21/2022 10:15:00 AM 9.97 49.946 0.371 7.79 5.79 11.55
4/21/2022 10:30:00 AM 10.04 50.072 0.372 7.8 6.04 11.64
4/21/2022 10:45:00 AM 10.19 50.342 0.371 7.82 5.5 11.74
4/21/2022 11:00:00 AM 10.29 50.522 0.372 7.83 6.07 11.81
4/21/2022 11:15:00 AM 10.35 50.63 0.372 7.84 5.71 11.86
4/21/2022 11:30:00 AM 10.39 50.702 0.372 7.86 6.06 11.91
4/21/2022 11:45:00 AM 10.4 50.72 0.372 7.86 5.71 11.92
4/21/2022 12:00:00 PM 10.4 50.72 0.372 7.87 6.07 11.95
4/21/2022 12:15:00 PM 10.46 50.828 0.372 7.88 6.13 12
4/21/2022 12:30:00 PM 10.6 51.08 0.372 7.9 7.72 12.07
4/21/2022 12:45:00 PM 10.88 51.584 0.372 7.91 6.02 12.14
4/21/2022 1:00:00 PM 11.22 52.196 0.372 7.93 5.7 12.23
4/21/2022 1:15:00 PM 11.38 52.484 0.372 7.95 5.57 12.26
4/21/2022 1:30:00 PM 11.38 52.484 0.372 7.95 5.62 12.24
4/21/2022 1:45:00 PM 11.34 52.412 0.371 7.96 6.05 12.25
4/21/2022 2:00:00 PM 11.28 52.304 0.372 7.96 5.95 12.21
4/21/2022 2:15:00 PM 11.37 52.466 0.372 7.97 7.07 12.23
4/21/2022 2:30:00 PM 11.51 52.718 0.372 7.98 6.26 12.25
4/21/2022 2:45:00 PM 11.63 52.934 0.372 7.99 6.12 12.24
4/21/2022 3:00:00 PM 11.72 53.096 0.372 8 5.73 12.26
4/21/2022 3:15:00 PM 11.76 53.168 0.37 8 5.97 12.22
4/21/2022 3:30:00 PM 11.73 53.114 0.371 8 6.08 12.1
4/21/2022 3:45:00 PM 11.68 53.024 0.371 7.98 5.99 11.98
4/21/2022 4:00:00 PM 11.65 52.97 0.371 7.97 5.64 11.84
4/21/2022 4:15:00 PM 11.64 52.952 0.371 7.96 6.01 11.72
4/21/2022 4:30:00 PM 11.67 53.006 0.371 7.94 5.49 11.62
4/21/2022 4:45:00 PM 11.7 53.06 0.371 7.93 5.75 11.53
4/21/2022 5:00:00 PM 11.74 53.132 0.371 7.93 6.39 11.48
4/21/2022 5:15:00 PM 11.76 53.168 0.371 7.92 5.76 11.42
4/21/2022 5:30:00 PM 11.79 53.222 0.371 7.91 6.03 11.37
4/21/2022 5:45:00 PM 11.81 53.258 0.371 7.91 7.09 11.31
4/21/2022 6:00:00 PM 11.83 53.294 0.371 7.9 6.24 11.24
4/21/2022 6:15:00 PM 11.83 53.294 0.371 7.89 6.37 11.16
4/21/2022 6:30:00 PM 11.83 53.294 0.371 7.88 5.88 11.08
4/21/2022 6:45:00 PM 11.83 53.294 0.371 7.86 6.67 10.99
4/21/2022 7:00:00 PM 11.82 53.276 0.371 7.85 6.64 10.89
4/21/2022 7:15:00 PM 11.81 53.258 0.371 7.84 5.96 10.79
4/21/2022 7:30:00 PM 11.8 53.24 0.371 7.82 6.59 10.71
4/21/2022 7:45:00 PM 11.8 53.24 0.371 7.81 6.69 10.64
4/21/2022 8:00:00 PM 11.8 53.24 0.371 7.8 8 10.56
4/21/2022 8:15:00 PM 11.8 53.24 0.37 7.79 6.54 10.51
4/21/2022 8:30:00 PM 11.8 53.24 0.371 7.78 7.55 10.46
4/21/2022 8:45:00 PM 11.8 53.24 0.371 7.77 8.53 10.41
4/21/2022 9:00:00 PM 11.8 53.24 0.37 7.77 8.15 10.36
4/21/2022 9:15:00 PM 11.8 53.24 0.371 7.76 6.98 10.33
4/21/2022 9:30:00 PM 11.79 53.222 0.37 7.76 7.68 10.27
4/21/2022 9:45:00 PM 11.78 53.204 0.37 7.75 7.8 10.24
4/21/2022 10:00:00 PM 11.77 53.186 0.37 7.74 7.87 10.2
4/21/2022 10:15:00 PM 11.76 53.168 0.37 7.73 7.23 10.17
4/21/2022 10:30:00 PM 11.74 53.132 0.37 7.73 7.78 10.14
4/21/2022 10:45:00 PM 11.72 53.096 0.37 7.72 7.71 10.11
4/21/2022 11:00:00 PM 11.7 53.06 0.37 7.71 7.44 10.09
4/21/2022 11:15:00 PM 11.67 53.006 0.37 7.71 7.8 10.06
4/21/2022 11:30:00 PM 11.64 52.952 0.37 7.71 7.92 10.04
4/21/2022 11:45:00 PM 11.61 52.898 0.37 7.7 7.63 10.03
4/22/2022 12:00:00 AM 11.58 52.844 0.37 7.7 7.55 10.02
4/22/2022 12:15:00 AM 11.55 52.79 0.37 7.69 8.07 10
4/22/2022 12:30:00 AM 11.52 52.736 0.37 7.69 7.43 9.99
4/22/2022 12:45:00 AM 11.48 52.664 0.37 7.68 7.38 9.98
4/22/2022 1:00:00 AM 11.43 52.574 0.37 7.68 7.7 9.98
4/22/2022 1:15:00 AM 11.38 52.484 0.37 7.68 7.89 9.97
4/22/2022 1:30:00 AM 11.33 52.394 0.37 7.68 7.46 9.97
4/22/2022 1:45:00 AM 11.27 52.286 0.37 7.67 7.75 9.97
4/22/2022 2:00:00 AM 11.22 52.196 0.369 7.67 8.39 9.98
4/22/2022 2:15:00 AM 11.17 52.106 0.371 7.67 8.03 9.98
4/22/2022 2:30:00 AM 11.12 52.016 0.37 7.66 7.78 9.98
4/22/2022 2:45:00 AM 11.06 51.908 0.371 7.67 7.61 9.99
4/22/2022 3:00:00 AM 11.01 51.818 0.371 7.66 8.43 9.99
4/22/2022 3:15:00 AM 10.95 51.71 0.371 7.66 8.33 10
4/22/2022 3:30:00 AM 10.89 51.602 0.371 7.66 7.94 10
4/22/2022 3:45:00 AM 10.83 51.494 0.37 7.66 7.28 10.02
4/22/2022 4:00:00 AM 10.77 51.386 0.371 7.66 7.71 10.02
4/22/2022 4:15:00 AM 10.72 51.296 0.371 7.65 8.46 10.04
4/22/2022 4:30:00 AM 10.66 51.188 0.371 7.65 8.81 10.05
4/22/2022 4:45:00 AM 10.6 51.08 0.371 7.65 8.25 10.06
4/22/2022 5:00:00 AM 10.54 50.972 0.371 7.65 7.84 10.07
4/22/2022 5:15:00 AM 10.48 50.864 0.372 7.65 7.66 10.09
4/22/2022 5:30:00 AM 10.41 50.738 0.371 7.64 7.89 10.1
4/22/2022 5:45:00 AM 10.35 50.63 0.372 7.64 8.25 10.11
4/22/2022 6:00:00 AM 10.28 50.504 0.372 7.64 7.32 10.12
4/22/2022 6:15:00 AM 10.22 50.396 0.372 7.64 7.82 10.15
4/22/2022 6:30:00 AM 10.16 50.288 0.372 7.64 7.87 10.17
4/22/2022 6:45:00 AM 10.1 50.18 0.372 7.64 8.35 10.2
4/22/2022 7:00:00 AM 10.05 50.09 0.372 7.65 7.07 10.24
4/22/2022 7:15:00 AM 10.01 50.018 0.372 7.65 7.09 10.3
4/22/2022 7:30:00 AM 9.99 49.982 0.373 7.65 6.56 10.37
4/22/2022 7:45:00 AM 9.97 49.946 0.372 7.66 6.5 10.46
4/22/2022 8:00:00 AM 9.98 49.964 0.372 7.67 6.59 10.56
4/22/2022 8:15:00 AM 10.01 50.018 0.373 7.68 6.63 10.67
4/22/2022 8:30:00 AM 10.05 50.09 0.373 7.69 6.35 10.78
4/22/2022 8:45:00 AM 10.11 50.198 0.371 7.7 6.38 10.89
4/22/2022 9:00:00 AM 10.18 50.324 0.37 7.72 5.79 11
4/22/2022 9:15:00 AM 10.28 50.504 0.373 7.74 5.68 11.11
4/22/2022 9:30:00 AM 10.37 50.666 0.373 7.75 5.62 11.22
4/22/2022 9:45:00 AM 10.48 50.864 0.373 7.76 5.45 11.33
4/22/2022 10:00:00 AM 10.59 51.062 0.373 7.78 5.16 11.44
4/22/2022 10:15:00 AM 10.73 51.314 0.373 7.8 5.49 11.54
4/22/2022 10:30:00 AM 10.87 51.566 0.373 7.81 5.7 11.64
4/22/2022 10:45:00 AM 11.02 51.836 0.373 7.83 5.66 11.74
4/22/2022 11:00:00 AM 11.18 52.124 0.373 7.84 7.67 11.82
4/22/2022 11:15:00 AM 11.36 52.448 0.373 7.86 6.09 11.91
4/22/2022 11:30:00 AM 11.54 52.772 0.373 7.88 5.68 11.98
4/22/2022 11:45:00 AM 11.75 53.15 0.373 7.9 5.38 12.05
4/22/2022 12:00:00 PM 11.98 53.564 0.373 7.92 5.48 12.12
4/22/2022 12:15:00 PM 12.2 53.96 0.373 7.94 5.73 12.17
4/22/2022 12:30:00 PM 12.44 54.392 0.373 7.95 5.6 12.22
4/22/2022 12:45:00 PM 12.68 54.824 0.373 7.97 5.68 12.27
4/22/2022 1:00:00 PM 12.9 55.22 0.373 7.99 5.64 12.29
4/22/2022 1:15:00 PM 13.1 55.58 0.373 8 5.6 12.33
4/22/2022 1:30:00 PM 13.3 55.94 0.373 8.02 6.38 12.37
4/22/2022 1:45:00 PM 13.48 56.264 0.373 8.04 6.78 12.39
4/22/2022 2:00:00 PM 13.63 56.534 0.373 8.05 6.77 12.39
4/22/2022 2:15:00 PM 13.77 56.786 0.373 8.07 6.23 12.4
4/22/2022 2:30:00 PM 13.86 56.948 0.372 8.08 6.76 12.38
4/22/2022 2:45:00 PM 13.9 57.02 0.373 8.09 8.5 12.35
4/22/2022 3:00:00 PM 13.9 57.02 0.372 8.09 6.01 12.3
4/22/2022 3:15:00 PM 13.9 57.02 0.373 8.09 6.15 12.25
4/22/2022 3:30:00 PM 13.88 56.984 0.372 8.09 5.85 12.17
4/22/2022 3:45:00 PM 13.91 57.038 0.372 8.09 6.95 12.11
4/22/2022 4:00:00 PM 14.02 57.236 0.372 8.1 6.92 12.09
4/22/2022 4:15:00 PM 14.11 57.398 0.372 8.11 6.38 12.04
4/22/2022 4:30:00 PM 14.22 57.596 0.372 8.11 6.23 11.98
4/22/2022 4:45:00 PM 14.32 57.776 0.371 8.12 6.57 11.96
4/22/2022 5:00:00 PM 14.35 57.83 0.373 8.12 6.7 11.89
4/22/2022 5:15:00 PM 14.35 57.83 0.373 8.11 6.45 11.8
4/22/2022 5:30:00 PM 14.34 57.812 0.373 8.11 7.18 11.71
4/22/2022 5:45:00 PM 14.32 57.776 0.373 8.09 7.28 11.6
4/22/2022 6:00:00 PM 14.29 57.722 0.373 8.07 7.1 11.48
4/22/2022 6:15:00 PM 14.27 57.686 0.373 8.06 7.03 11.35
4/22/2022 6:30:00 PM 14.26 57.668 0.373 8.05 7.36 11.23
4/22/2022 6:45:00 PM 14.27 57.686 0.373 8.03 7.44 11.11
4/22/2022 7:00:00 PM 14.3 57.74 0.373 8.01 7.39 11
4/22/2022 7:15:00 PM 14.3 57.74 0.373 8 6.56 10.9
4/22/2022 7:30:00 PM 14.3 57.74 0.373 7.98 7.14 10.78
4/22/2022 7:45:00 PM 14.29 57.722 0.374 7.96 6.82 10.65
4/22/2022 8:00:00 PM 14.26 57.668 0.374 7.93 6.58 10.51
4/22/2022 8:15:00 PM 14.22 57.596 0.374 7.91 6.6 10.37
4/22/2022 8:30:00 PM 14.19 57.542 0.374 7.89 6.89 10.24
4/22/2022 8:45:00 PM 14.15 57.47 0.374 7.87 7.85 10.14
4/22/2022 9:00:00 PM 14.11 57.398 0.374 7.86 7.09 10.06
4/22/2022 9:15:00 PM 14.08 57.344 0.374 7.84 7.19 10
4/22/2022 9:30:00 PM 14.04 57.272 0.374 7.83 8.38 9.94
4/22/2022 9:45:00 PM 14 57.2 0.374 7.82 7.31 9.88
4/22/2022 10:00:00 PM 13.95 57.11 0.374 7.8 7.55 9.82
4/22/2022 10:15:00 PM 13.9 57.02 0.374 7.79 8.04 9.76
4/22/2022 10:30:00 PM 13.84 56.912 0.374 7.78 8.14 9.7
4/22/2022 10:45:00 PM 13.78 56.804 0.374 7.77 7.26 9.66
4/22/2022 11:00:00 PM 13.72 56.696 0.374 7.76 7.78 9.61
4/22/2022 11:15:00 PM 13.65 56.57 0.374 7.75 7.71 9.57
4/22/2022 11:30:00 PM 13.6 56.48 0.374 7.74 7.68 9.54
4/22/2022 11:45:00 PM 13.55 56.39 0.374 7.73 8.28 9.5
4/23/2022 12:00:00 AM 13.52 56.336 0.374 7.73 7.36 9.48
4/23/2022 12:15:00 AM 13.49 56.282 0.375 7.72 7.9 9.45
4/23/2022 12:30:00 AM 13.47 56.246 0.374 7.71 7.69 9.43
4/23/2022 12:45:00 AM 13.44 56.192 0.374 7.71 8.24 9.41
4/23/2022 1:00:00 AM 13.41 56.138 0.374 7.7 8.22 9.39
4/23/2022 1:15:00 AM 13.38 56.084 0.375 7.7 7.99 9.38
4/23/2022 1:30:00 AM 13.35 56.03 0.375 7.69 8.08 9.37
4/23/2022 1:45:00 AM 13.31 55.958 0.374 7.69 7.98 9.37
4/23/2022 2:00:00 AM 13.27 55.886 0.374 7.68 8.14 9.36
4/23/2022 2:15:00 AM 13.23 55.814 0.374 7.68 7.62 9.36
4/23/2022 2:30:00 AM 13.2 55.76 0.374 7.68 8.59 9.34
4/23/2022 2:45:00 AM 13.16 55.688 0.373 7.67 8.29 9.34
4/23/2022 3:00:00 AM 13.12 55.616 0.375 7.67 8.03 9.35
4/23/2022 3:15:00 AM 13.07 55.526 0.375 7.67 7.85 9.35
4/23/2022 3:30:00 AM 13.03 55.454 0.375 7.67 8.09 9.35
4/23/2022 3:45:00 AM 12.99 55.382 0.375 7.67 8.4 9.35
4/23/2022 4:00:00 AM 12.95 55.31 0.375 7.66 7.77 9.35
4/23/2022 4:15:00 AM 12.9 55.22 0.375 7.66 8.16 9.36
4/23/2022 4:30:00 AM 12.86 55.148 0.376 7.66 8.05 9.37
4/23/2022 4:45:00 AM 12.82 55.076 0.375 7.66 8.04 9.37
4/23/2022 5:00:00 AM 12.78 55.004 0.376 7.66 7.64 9.38
4/23/2022 5:15:00 AM 12.73 54.914 0.375 7.66 7.56 9.39
4/23/2022 5:30:00 AM 12.69 54.842 0.376 7.65 8.86 9.39
4/23/2022 5:45:00 AM 12.65 54.77 0.376 7.65 8.03 9.39
4/23/2022 6:00:00 AM 12.6 54.68 0.376 7.65 8.03 9.41
4/23/2022 6:15:00 AM 12.56 54.608 0.377 7.65 7.93 9.42
4/23/2022 6:30:00 AM 12.5 54.5 0.377 7.65 8.21 9.44
4/23/2022 6:45:00 AM 12.46 54.428 0.376 7.65 7.75 9.46
4/23/2022 7:00:00 AM 12.41 54.338 0.377 7.65 7.58 9.47
4/23/2022 7:15:00 AM 12.37 54.266 0.377 7.66 7.36 9.52
4/23/2022 7:30:00 AM 12.33 54.194 0.377 7.65 7.76 9.55
4/23/2022 7:45:00 AM 12.29 54.122 0.377 7.66 7.56 9.6
4/23/2022 8:00:00 AM 12.26 54.068 0.377 7.67 7.94 9.65
4/23/2022 8:15:00 AM 12.23 54.014 0.377 7.67 6.89 9.71
4/23/2022 8:30:00 AM 12.21 53.978 0.376 7.68 7.53 9.78
4/23/2022 8:45:00 AM 12.19 53.942 0.378 7.68 6.51 9.84
4/23/2022 9:00:00 AM 12.16 53.888 0.378 7.69 6.69 9.92
4/23/2022 9:15:00 AM 12.14 53.852 0.378 7.69 6.09 9.99
4/23/2022 9:30:00 AM 12.14 53.852 0.378 7.71 7.21 10.11
4/23/2022 9:45:00 AM 12.14 53.852 0.378 7.72 6.94 10.25
4/23/2022 10:00:00 AM 12.16 53.888 0.378 7.74 6.48 10.4
4/23/2022 10:15:00 AM 12.16 53.888 0.378 7.75 6.52 10.54
4/23/2022 10:30:00 AM 12.19 53.942 0.378 7.77 6.12 10.64
4/23/2022 10:45:00 AM 12.22 53.996 0.378 7.79 6.34 10.84
4/23/2022 11:00:00 AM 12.28 54.104 0.378 7.81 6.44 10.97
4/23/2022 11:15:00 AM 12.29 54.122 0.378 7.82 5.99 11.03
4/23/2022 11:30:00 AM 12.31 54.158 0.378 7.83 6.42 11.11
4/23/2022 11:45:00 AM 12.32 54.176 0.378 7.85 6.33 11.21
4/23/2022 12:00:00 PM 12.32 54.176 0.378 7.86 5.95 11.27
4/23/2022 12:15:00 PM 12.31 54.158 0.378 7.87 6.07 11.27
4/23/2022 12:30:00 PM 12.32 54.176 0.378 7.88 6.07 11.32
4/23/2022 12:45:00 PM 12.34 54.212 0.378 7.89 6.41 11.38
4/23/2022 1:00:00 PM 12.34 54.212 0.378 7.9 6.02 11.38
4/23/2022 1:15:00 PM 12.35 54.23 0.377 7.9 5.74 11.4
4/23/2022 1:30:00 PM 12.36 54.248 0.378 7.92 6.32 11.44
4/23/2022 1:45:00 PM 12.43 54.374 0.378 7.93 6.32 11.53
4/23/2022 2:00:00 PM 12.48 54.464 0.378 7.95 6.65 11.61
4/23/2022 2:15:00 PM 12.54 54.572 0.378 7.96 5.96 11.69
4/23/2022 2:30:00 PM 12.59 54.662 0.378 7.99 6.36 11.77
4/23/2022 2:45:00 PM 12.73 54.914 0.378 8.01 6.1 11.89
4/23/2022 3:00:00 PM 12.9 55.22 0.377 8.04 6.4 11.98
4/23/2022 3:15:00 PM 13.01 55.418 0.377 8.05 6.42 12.02
4/23/2022 3:30:00 PM 13.06 55.508 0.377 8.07 6.15 12.05
4/23/2022 3:45:00 PM 13.12 55.616 0.378 8.07 6.13 12.09
4/23/2022 4:00:00 PM 13.24 55.832 0.378 8.09 6.58 12.12
4/23/2022 4:15:00 PM 13.29 55.922 0.378 8.1 5.7 12.1
4/23/2022 4:30:00 PM 13.35 56.03 0.376 8.1 6.7 12.08
4/23/2022 4:45:00 PM 13.38 56.084 0.377 8.1 7.2 12.06
4/23/2022 5:00:00 PM 13.44 56.192 0.377 8.11 8.77 12.03
4/23/2022 5:15:00 PM 13.45 56.21 0.377 8.11 7.36 11.98
4/23/2022 5:30:00 PM 13.44 56.192 0.377 8.11 6.18 11.91
4/23/2022 5:45:00 PM 13.44 56.192 0.377 8.1 6.08 11.84
4/23/2022 6:00:00 PM 13.44 56.192 0.377 8.09 6.22 11.75
4/23/2022 6:15:00 PM 13.43 56.174 0.378 8.08 6.78 11.65
4/23/2022 6:30:00 PM 13.43 56.174 0.377 8.08 6.09 11.54
4/23/2022 6:45:00 PM 13.42 56.156 0.378 8.06 5.49 11.43
4/23/2022 7:00:00 PM 13.42 56.156 0.377 8.05 5.99 11.3
4/23/2022 7:15:00 PM 13.41 56.138 0.378 8.03 5.87 11.18
4/23/2022 7:30:00 PM 13.39 56.102 0.378 8.02 5.53 11.06
4/23/2022 7:45:00 PM 13.37 56.066 0.378 7.99 5.86 10.94
4/23/2022 8:00:00 PM 13.34 56.012 0.378 7.98 5.91 10.81
4/23/2022 8:15:00 PM 13.3 55.94 0.378 7.96 6.17 10.68
4/23/2022 8:30:00 PM 13.27 55.886 0.378 7.94 6.73 10.57
4/23/2022 8:45:00 PM 13.24 55.832 0.378 7.92 6.68 10.48
4/23/2022 9:00:00 PM 13.2 55.76 0.377 7.91 7.28 10.39
4/23/2022 9:15:00 PM 13.16 55.688 0.378 7.89 6.7 10.32
4/23/2022 9:30:00 PM 13.12 55.616 0.378 7.88 6.88 10.25
4/23/2022 9:45:00 PM 13.09 55.562 0.378 7.86 6.85 10.18
4/23/2022 10:00:00 PM 13.05 55.49 0.376 7.85 7.08 10.11
4/23/2022 10:15:00 PM 13.02 55.436 0.378 7.84 7.02 10.05
4/23/2022 10:30:00 PM 12.98 55.364 0.378 7.82 7.46 9.99
4/23/2022 10:45:00 PM 12.94 55.292 0.378 7.81 8.07 9.93
4/23/2022 11:00:00 PM 12.9 55.22 0.378 7.8 7.02 9.87
4/23/2022 11:15:00 PM 12.85 55.13 0.378 7.79 6.96 9.83
4/23/2022 11:30:00 PM 12.81 55.058 0.378 7.78 7.51 9.79
4/23/2022 11:45:00 PM 12.76 54.968 0.378 7.77 7.97 9.76
4/24/2022 12:00:00 AM 12.72 54.896 0.377 7.76 7.61 9.73
4/24/2022 12:15:00 AM 12.67 54.806 0.377 7.75 7.4 9.7
4/24/2022 12:30:00 AM 12.64 54.752 0.377 7.75 7.41 9.68
4/24/2022 12:45:00 AM 12.6 54.68 0.378 7.74 7.08 9.66
4/24/2022 1:00:00 AM 12.56 54.608 0.378 7.73 9.09 9.63
4/24/2022 1:15:00 AM 12.52 54.536 0.378 7.72 7.68 9.63
4/24/2022 1:30:00 AM 12.48 54.464 0.378 7.72 7.37 9.62
4/24/2022 1:45:00 AM 12.44 54.392 0.378 7.72 6.88 9.61
4/24/2022 2:00:00 AM 12.4 54.32 0.378 7.71 7.86 9.6
4/24/2022 2:15:00 AM 12.35 54.23 0.377 7.71 7.63 9.59
4/24/2022 2:30:00 AM 12.3 54.14 0.376 7.71 7.4 9.59
4/24/2022 2:45:00 AM 12.25 54.05 0.378 7.7 7.34 9.59
4/24/2022 3:00:00 AM 12.2 53.96 0.378 7.7 7.99 9.58
4/24/2022 3:15:00 AM 12.15 53.87 0.378 7.7 7.75 9.58
4/24/2022 3:30:00 AM 12.1 53.78 0.377 7.69 8.34 9.58
4/24/2022 3:45:00 AM 12.04 53.672 0.378 7.69 7.24 9.59
4/24/2022 4:00:00 AM 11.98 53.564 0.377 7.69 7.38 9.59
4/24/2022 4:15:00 AM 11.93 53.474 0.377 7.69 7.93 9.6
4/24/2022 4:30:00 AM 11.87 53.366 0.378 7.68 8.12 9.61
4/24/2022 4:45:00 AM 11.82 53.276 0.378 7.68 8.52 9.61
4/24/2022 5:00:00 AM 11.77 53.186 0.378 7.68 8.38 9.62
4/24/2022 5:15:00 AM 11.72 53.096 0.378 7.67 8.53 9.61
4/24/2022 5:30:00 AM 11.68 53.024 0.378 7.67 8.16 9.62
4/24/2022 5:45:00 AM 11.63 52.934 0.378 7.67 7.82 9.63
4/24/2022 6:00:00 AM 11.57 52.826 0.378 7.67 7.57 9.64
4/24/2022 6:15:00 AM 11.52 52.736 0.378 7.66 7.47 9.64
4/24/2022 6:30:00 AM 11.48 52.664 0.378 7.66 7.45 9.66
4/24/2022 6:45:00 AM 11.44 52.592 0.375 7.67 7.77 9.69
4/24/2022 7:00:00 AM 11.41 52.538 0.379 7.67 7.24 9.72
4/24/2022 7:15:00 AM 11.37 52.466 0.379 7.67 8.88 9.77
4/24/2022 7:30:00 AM 11.34 52.412 0.378 7.67 7.86 9.84
4/24/2022 7:45:00 AM 11.33 52.394 0.38 7.68 7.12 9.92
4/24/2022 8:00:00 AM 11.34 52.412 0.38 7.69 7.47 10.04
4/24/2022 8:15:00 AM 11.36 52.448 0.379 7.71 6.94 10.17
4/24/2022 8:30:00 AM 11.4 52.52 0.38 7.72 6.09 10.33
4/24/2022 8:45:00 AM 11.44 52.592 0.38 7.74 6.57 10.45
4/24/2022 9:00:00 AM 11.46 52.628 0.379 7.76 6.63 10.57
4/24/2022 9:15:00 AM 11.53 52.754 0.379 7.77 6.28 10.7
4/24/2022 9:30:00 AM 11.62 52.916 0.379 7.78 6.58 10.81
4/24/2022 9:45:00 AM 11.72 53.096 0.379 7.8 5.93 10.94
4/24/2022 10:00:00 AM 11.83 53.294 0.379 7.82 6.32 11.07
4/24/2022 10:15:00 AM 11.99 53.582 0.379 7.83 6.04 11.2
4/24/2022 10:30:00 AM 12.13 53.834 0.379 7.86 7.11 11.33
4/24/2022 10:45:00 AM 12.29 54.122 0.378 7.88 7.42 11.45
4/24/2022 11:00:00 AM 12.45 54.41 0.38 7.9 5.9 11.56
4/24/2022 11:15:00 AM 12.64 54.752 0.379 7.92 6.81 11.67
4/24/2022 11:30:00 AM 12.82 55.076 0.379 7.94 6.4 11.77
4/24/2022 11:45:00 AM 13.02 55.436 0.379 7.97 7.91 11.87
4/24/2022 12:00:00 PM 13.2 55.76 0.378 7.99 6.23 11.98
4/24/2022 12:15:00 PM 13.42 56.156 0.378 8.01 6.53 12.05
4/24/2022 12:30:00 PM 13.65 56.57 0.379 8.03 6.16 12.12
4/24/2022 12:45:00 PM 13.9 57.02 0.379 8.04 12.81 12.17
4/24/2022 1:00:00 PM 14.14 57.452 0.379 8.06 14.39 12.16
4/24/2022 1:15:00 PM 14.4 57.92 0.378 8.08 10.29 12.25
4/24/2022 1:30:00 PM 14.67 58.406 0.378 8.1 8.13 12.3
4/24/2022 1:45:00 PM 14.9 58.82 0.378 8.12 6.83 12.32
4/24/2022 2:00:00 PM 15.11 59.198 0.377 8.15 6.27 12.37
4/24/2022 2:15:00 PM 15.31 59.558 0.403 8.16 6.57 12.37
4/24/2022 2:30:00 PM 15.49 59.882 0.38 8.17 9.39 12.37
4/24/2022 2:45:00 PM 15.65 60.17 0.38 8.19 7.74 12.35
4/24/2022 3:00:00 PM 15.78 60.404 0.447 8.21 8.35 12.34
4/24/2022 3:15:00 PM 15.92 60.656 0.388 8.21 7.5 12.31
4/24/2022 3:30:00 PM 16.04 60.872 0.381 8.22 6.94 12.26
4/24/2022 3:45:00 PM 16.14 61.052 0.38 8.23 6.89 12.21
4/24/2022 4:00:00 PM 16.24 61.232 0.381 8.23 8.14 12.15
4/24/2022 4:15:00 PM 16.32 61.376 0.381 8.24 6.91 12.08
4/24/2022 4:30:00 PM 16.37 61.466 0.38 8.24 10.85 12.01
4/24/2022 4:45:00 PM 16.42 61.556 0.388 8.24 8.15 11.91
4/24/2022 5:00:00 PM 16.46 61.628 0.382 8.24 7.12 11.8
4/24/2022 5:15:00 PM 16.48 61.664 0.381 8.22 7.25 11.7
4/24/2022 5:30:00 PM 16.49 61.682 0.381 8.22 8.73 11.57
4/24/2022 5:45:00 PM 16.51 61.718 0.381 8.2 10.07 11.45
4/24/2022 6:00:00 PM 16.53 61.754 0.383 8.19 9.13 11.3
4/24/2022 6:15:00 PM 16.54 61.772 0.382 8.18 7.11 11.16
4/24/2022 6:30:00 PM 16.54 61.772 0.382 8.14 6.72 11
4/24/2022 6:45:00 PM 16.54 61.772 0.382 8.13 6.59 10.83
4/24/2022 7:00:00 PM 16.53 61.754 0.382 8.11 6.65 10.67
4/24/2022 7:15:00 PM 16.51 61.718 0.39 8.09 6.88 10.51
4/24/2022 7:30:00 PM 16.48 61.664 0.382 8.06 6.51 10.35
4/24/2022 7:45:00 PM 16.44 61.592 0.382 8.03 6.88 10.15
4/24/2022 8:00:00 PM 16.4 61.52 0.382 8.01 6.44 10.02
4/24/2022 8:15:00 PM 16.35 61.43 0.385 7.98 7.79 9.87
4/24/2022 8:30:00 PM 16.31 61.358 0.382 7.96 7.59 9.74
4/24/2022 8:45:00 PM 16.26 61.268 0.385 7.94 8.21 9.6
4/24/2022 9:00:00 PM 16.23 61.214 0.382 7.92 8.14 9.53
4/24/2022 9:15:00 PM 16.19 61.142 0.382 7.9 8.42 9.42
4/24/2022 9:30:00 PM 16.14 61.052 0.383 7.89 8.12 9.34
4/24/2022 9:45:00 PM 16.09 60.962 0.384 7.87 7.33 9.26
4/24/2022 10:00:00 PM 16.04 60.872 0.383 7.85 7.64 9.2
4/24/2022 10:15:00 PM 15.98 60.764 0.383 7.84 7.69 9.12
4/24/2022 10:30:00 PM 15.91 60.638 0.383 7.82 8.21 9.06
4/24/2022 10:45:00 PM 15.84 60.512 0.382 7.81 9.21 9
4/24/2022 11:00:00 PM 15.78 60.404 0.391 7.8 8.13 8.94
4/24/2022 11:15:00 PM 15.72 60.296 0.382 7.79 7.86 8.89
4/24/2022 11:30:00 PM 15.67 60.206 0.384 7.77 8.62 8.84
4/24/2022 11:45:00 PM 15.63 60.134 0.383 7.76 8.68 8.8
4/25/2022 12:00:00 AM 15.59 60.062 0.384 7.76 8.43 8.77
4/25/2022 12:15:00 AM 15.55 59.99 0.383 7.75 8.26 8.74
4/25/2022 12:30:00 AM 15.5 59.9 0.382 7.74 7.48 8.71
4/25/2022 12:45:00 AM 15.45 59.81 0.382 7.74 7.96 8.69
4/25/2022 1:00:00 AM 15.39 59.702 0.383 7.73 8.58 8.67
4/25/2022 1:15:00 AM 15.34 59.612 0.405 7.73 8.18 8.67
4/25/2022 1:30:00 AM 15.28 59.504 0.451 7.72 10.59 8.66
4/25/2022 1:45:00 AM 15.23 59.414 0.405 7.72 8.44 8.65
4/25/2022 2:00:00 AM 15.17 59.306 0.405 7.72 9.03 8.63
4/25/2022 2:15:00 AM 15.12 59.216 0.386 7.71 8.79 8.63
4/25/2022 2:30:00 AM 15.06 59.108 0.386 7.71 9.34 8.64
4/25/2022 2:45:00 AM 15.01 59.018 0.383 7.71 9.1 8.63
4/25/2022 3:00:00 AM 14.95 58.91 0.383 7.7 8.58 8.63
4/25/2022 3:15:00 AM 14.89 58.802 0.379 7.7 8.99 8.62
4/25/2022 3:30:00 AM 14.83 58.694 0.345 7.69 8.78 8.63
4/25/2022 3:45:00 AM 14.77 58.586 0.38 7.69 8.45 8.64
4/25/2022 4:00:00 AM 14.71 58.478 0.392 7.69 8.15 8.64
4/25/2022 4:15:00 AM 14.64 58.352 0.381 7.69 8.11 8.65
4/25/2022 4:30:00 AM 14.57 58.226 0.381 7.68 8.45 8.66
4/25/2022 4:45:00 AM 14.5 58.1 0.381 7.69 7.99 8.68
4/25/2022 5:00:00 AM 14.43 57.974 0.38 7.68 9.33 8.69
4/25/2022 5:15:00 AM 14.35 57.83 0.381 7.68 9.13 8.71
4/25/2022 5:30:00 AM 14.27 57.686 0.381 7.67 9.65 8.71
4/25/2022 5:45:00 AM 14.2 57.56 0.381 7.67 8.96 8.73
4/25/2022 6:00:00 AM 14.12 57.416 0.38 7.68 8.55 8.75
4/25/2022 6:15:00 AM 14.05 57.29 0.382 7.67 8.54 8.76
4/25/2022 6:30:00 AM 13.98 57.164 0.382 7.67 8.11 8.79
4/25/2022 6:45:00 AM 13.92 57.056 0.382 7.67 7.65 8.82
4/25/2022 7:00:00 AM 13.87 56.966 0.382 7.68 8.58 8.88
4/25/2022 7:15:00 AM 13.83 56.894 0.382 7.68 7.85 8.95
4/25/2022 7:30:00 AM 13.8 56.84 0.382 7.69 7.94 9.04
4/25/2022 7:45:00 AM 13.77 56.786 0.382 7.69 7.59 9.11
4/25/2022 8:00:00 AM 13.72 56.696 0.382 7.7 7.88 9.19
4/25/2022 8:15:00 AM 13.67 56.606 0.382 7.7 7.83 9.26
4/25/2022 8:30:00 AM 13.63 56.534 0.383 7.71 8.85 9.33
4/25/2022 8:45:00 AM 13.59 56.462 0.383 7.72 7.67 9.41
4/25/2022 9:00:00 AM 13.55 56.39 0.382 7.72 7.64 9.51
4/25/2022 9:15:00 AM 13.52 56.336 0.383 7.73 7.39 9.61
4/25/2022 9:30:00 AM 13.49 56.282 0.383 7.75 7.59 9.74
4/25/2022 9:45:00 AM 13.47 56.246 0.383 7.76 7.65 9.9
4/25/2022 10:00:00 AM 13.47 56.246 0.382 7.78 7.7 10.05
4/25/2022 10:15:00 AM 13.48 56.264 0.382 7.8 7.54 10.14
4/25/2022 10:30:00 AM 13.48 56.264 0.382 7.81 6.55 10.3
4/25/2022 10:45:00 AM 13.48 56.264 0.382 7.83 7.29 10.44
4/25/2022 11:00:00 AM 13.49 56.282 0.382 7.85 6.59 10.55
4/25/2022 11:15:00 AM 13.5 56.3 0.382 7.86 7.08 10.67
4/25/2022 11:30:00 AM 13.51 56.318 0.382 7.87 6.93 10.77
4/25/2022 11:45:00 AM 13.54 56.372 0.382 7.89 6.9 10.89
4/25/2022 12:00:00 PM 13.58 56.444 0.382 7.92 7.59 11.03
4/25/2022 12:15:00 PM 13.63 56.534 0.382 7.94 6.83 11.19
4/25/2022 12:30:00 PM 13.69 56.642 0.382 7.96 6.93 11.32
4/25/2022 12:45:00 PM 13.77 56.786 0.382 7.99 8.31 11.46
4/25/2022 1:00:00 PM 13.85 56.93 0.382 8.01 7.3 11.58
4/25/2022 1:15:00 PM 13.93 57.074 0.381 8.04 7.08 11.68
4/25/2022 1:30:00 PM 13.97 57.146 0.381 8.05 7.11 11.74
4/25/2022 1:45:00 PM 14 57.2 0.381 8.07 6.69 11.79
4/25/2022 2:00:00 PM 14.04 57.272 0.382 8.08 7.54 11.84
4/25/2022 2:15:00 PM 14.08 57.344 0.381 8.1 7.6 11.88
4/25/2022 2:30:00 PM 14.15 57.47 0.381 8.12 6.78 11.94
4/25/2022 2:45:00 PM 14.23 57.614 0.382 8.14 8.06 12
4/25/2022 3:00:00 PM 14.3 57.74 0.381 8.15 8.56 12.05
4/25/2022 3:15:00 PM 14.38 57.884 0.381 8.17 6.41 12.1
4/25/2022 3:30:00 PM 14.48 58.064 0.381 8.19 6.7 12.17
4/25/2022 3:45:00 PM 14.56 58.208 0.381 8.21 6.81 12.2
4/25/2022 4:00:00 PM 14.63 58.334 0.377 8.22 6.91 12.21
4/25/2022 4:15:00 PM 14.69 58.442 0.381 8.24 6.74 12.21
4/25/2022 4:30:00 PM 14.72 58.496 0.38 8.24 6.83 12.18
4/25/2022 4:45:00 PM 14.75 58.55 0.453 8.25 7.03 12.14
4/25/2022 5:00:00 PM 14.75 58.55 0.38 8.24 6.89 12.08
4/25/2022 5:15:00 PM 14.75 58.55 0.38 8.24 6.32 12
4/25/2022 5:30:00 PM 14.74 58.532 0.38 8.23 7.52 11.9
4/25/2022 5:45:00 PM 14.72 58.496 0.454 8.22 7.71 11.78
4/25/2022 6:00:00 PM 14.7 58.46 0.408 8.2 7.45 11.63
4/25/2022 6:15:00 PM 14.66 58.388 0.381 8.18 8.1 11.48
4/25/2022 6:30:00 PM 14.63 58.334 0.381 8.16 6.62 11.31
4/25/2022 6:45:00 PM 14.59 58.262 0.382 8.13 7.55 11.15
4/25/2022 7:00:00 PM 14.57 58.226 0.38 8.11 7.72 10.98
4/25/2022 7:15:00 PM 14.54 58.172 0.38 8.08 6.99 10.83
4/25/2022 7:30:00 PM 14.51 58.118 0.382 8.06 6.43 10.69
4/25/2022 7:45:00 PM 14.48 58.064 0.381 8.04 7.26 10.57
4/25/2022 8:00:00 PM 14.45 58.01 0.382 8.02 6.85 10.45
4/25/2022 8:15:00 PM 14.42 57.956 0.382 8 7.04 10.33
4/25/2022 8:30:00 PM 14.38 57.884 0.382 7.98 6.48 10.23
4/25/2022 8:45:00 PM 14.35 57.83 0.382 7.96 7.1 10.12
4/25/2022 9:00:00 PM 14.31 57.758 0.383 7.94 6.78 10.03
4/25/2022 9:15:00 PM 14.28 57.704 0.382 7.92 7.26 9.94
4/25/2022 9:30:00 PM 14.24 57.632 0.382 7.9 7.24 9.86
4/25/2022 9:45:00 PM 14.2 57.56 0.382 7.89 7.12 9.78
4/25/2022 10:00:00 PM 14.16 57.488 0.382 7.87 7.8 9.71
4/25/2022 10:15:00 PM 14.13 57.434 0.383 7.86 7.53 9.65
4/25/2022 10:30:00 PM 14.1 57.38 0.382 7.84 7.95 9.58
4/25/2022 10:45:00 PM 14.06 57.308 0.383 7.83 6.95 9.52
4/25/2022 11:00:00 PM 14.03 57.254 0.383 7.82 7.62 9.46
4/25/2022 11:15:00 PM 13.99 57.182 0.382 7.81 7.64 9.41
4/25/2022 11:30:00 PM 13.96 57.128 0.383 7.79 7.6 9.36
4/25/2022 11:45:00 PM 13.93 57.074 0.382 7.79 7.41 9.33
4/26/2022 12:00:00 AM 13.9 57.02 0.383 7.78 7.87 9.3
4/26/2022 12:15:00 AM 13.87 56.966 0.383 7.77 8.22 9.26
4/26/2022 12:30:00 AM 13.84 56.912 0.383 7.76 8.2 9.23
4/26/2022 12:45:00 AM 13.81 56.858 0.383 7.76 7.33 9.21
4/26/2022 1:00:00 AM 13.79 56.822 0.382 7.75 7.61 9.19
4/26/2022 1:15:00 AM 13.77 56.786 0.383 7.75 7.27 9.17
4/26/2022 1:30:00 AM 13.75 56.75 0.383 7.75 7.59 9.15
4/26/2022 1:45:00 AM 13.73 56.714 0.383 7.73 7.53 9.14
4/26/2022 2:00:00 AM 13.72 56.696 0.383 7.74 6.83 9.11
4/26/2022 2:15:00 AM 13.7 56.66 0.383 7.73 7.28 9.1
4/26/2022 2:30:00 AM 13.68 56.624 0.383 7.73 7.84 9.09
4/26/2022 2:45:00 AM 13.66 56.588 0.383 7.73 8.24 9.08
4/26/2022 3:00:00 AM 13.63 56.534 0.383 7.72 7.61 9.08
4/26/2022 3:15:00 AM 13.61 56.498 0.383 7.71 7.82 9.07
4/26/2022 3:30:00 AM 13.59 56.462 0.383 7.71 8.28 9.07
4/26/2022 3:45:00 AM 13.57 56.426 0.383 7.71 7.76 9.06
4/26/2022 4:00:00 AM 13.54 56.372 0.382 7.71 8.35 9.05
4/26/2022 4:15:00 AM 13.52 56.336 0.383 7.71 8.25 8.99
4/26/2022 4:30:00 AM 13.49 56.282 0.383 7.7 7.97 9.03
4/26/2022 4:45:00 AM 13.47 56.246 0.383 7.7 7.69 9.04
4/26/2022 5:00:00 AM 13.44 56.192 0.383 7.7 8.09 9.05
4/26/2022 5:15:00 AM 13.41 56.138 0.383 7.7 8.23 9.01
4/26/2022 5:30:00 AM 13.39 56.102 0.383 7.7 8.55 9.03
4/26/2022 5:45:00 AM 13.36 56.048 0.383 7.7 7.68 9.04
4/26/2022 6:00:00 AM 13.34 56.012 0.383 7.69 7.59 9.05
4/26/2022 6:15:00 AM 13.31 55.958 0.383 7.69 7.82 9.05
4/26/2022 6:30:00 AM 13.28 55.904 0.383 7.69 8.07 9.06
4/26/2022 6:45:00 AM 13.26 55.868 0.383 7.69 7.82 9.06
4/26/2022 7:00:00 AM 13.24 55.832 0.383 7.69 7.89 9.1
4/26/2022 7:15:00 AM 13.22 55.796 0.383 7.7 7.4 9.16
4/26/2022 7:30:00 AM 13.21 55.778 0.383 7.7 7.34 9.21
4/26/2022 7:45:00 AM 13.21 55.778 0.383 7.71 7.59 9.32
4/26/2022 8:00:00 AM 13.21 55.778 0.383 7.72 7.65 9.38
4/26/2022 8:15:00 AM 13.21 55.778 0.383 7.73 8.4 9.46
4/26/2022 8:30:00 AM 13.22 55.796 0.383 7.74 7.66 9.58
4/26/2022 8:45:00 AM 13.24 55.832 0.383 7.75 7.42 9.68
4/26/2022 9:00:00 AM 13.26 55.868 0.383 7.76 7.02 9.84
4/26/2022 9:15:00 AM 13.3 55.94 0.383 7.77 7.82 9.98
4/26/2022 9:30:00 AM 13.34 56.012 0.383 7.8 6.61 10.16
4/26/2022 9:45:00 AM 13.4 56.12 0.382 7.82 7.14 10.33
4/26/2022 10:00:00 AM 13.44 56.192 0.383 7.83 7.58 10.4
4/26/2022 10:15:00 AM 13.48 56.264 0.383 7.85 7.63 10.52
4/26/2022 10:30:00 AM 13.52 56.336 0.383 7.87 7.43 10.66
4/26/2022 10:45:00 AM 13.6 56.48 0.382 7.9 7.39 10.85
4/26/2022 11:00:00 AM 13.64 56.552 0.382 7.91 6.84 10.92
4/26/2022 11:15:00 AM 13.7 56.66 0.383 7.93 7.28 11.05
4/26/2022 11:30:00 AM 13.81 56.858 0.382 7.94 7.14 11.19
4/26/2022 11:45:00 AM 13.94 57.092 0.381 7.98 7.19 11.35
4/26/2022 12:00:00 PM 14.01 57.218 0.382 8 6.5 11.41
4/26/2022 12:15:00 PM 14.06 57.308 0.382 8.01 6.75 11.49
4/26/2022 12:30:00 PM 14.07 57.326 0.382 8.03 7.58 11.49
4/26/2022 12:45:00 PM 14.06 57.308 0.382 8.02 7.46 11.46
4/26/2022 1:00:00 PM 14.05 57.29 0.382 8.02 7 11.41
4/26/2022 1:15:00 PM 14.02 57.236 0.382 8.02 7.05 11.34
4/26/2022 1:30:00 PM 14.03 57.254 0.382 8.03 6.38 11.34
4/26/2022 1:45:00 PM 14.04 57.272 0.382 8.03 7.15 11.32
4/26/2022 2:00:00 PM 14.08 57.344 0.382 8.05 7.06 11.39
4/26/2022 2:15:00 PM 14.12 57.416 0.382 8.06 6.74 11.4
4/26/2022 2:30:00 PM 14.15 57.47 0.382 8.06 7.77 11.42
4/26/2022 2:45:00 PM 14.16 57.488 0.382 8.07 8.11 11.35
4/26/2022 3:00:00 PM 14.19 57.542 0.381 8.07 7.23 11.31
4/26/2022 3:15:00 PM 14.23 57.614 0.381 8.07 7.07 11.32
4/26/2022 3:30:00 PM 14.24 57.632 0.381 8.07 6.93 11.29
4/26/2022 3:45:00 PM 14.28 57.704 0.381 8.08 7.54 11.28
4/26/2022 4:00:00 PM 14.28 57.704 0.381 8.07 7.9 11.25
4/26/2022 4:15:00 PM 14.32 57.776 0.381 8.08 7.07 11.28
4/26/2022 4:30:00 PM 14.32 57.776 0.381 8.07 6.8 11.21
4/26/2022 4:45:00 PM 14.29 57.722 0.382 8.07 7.06 11.13
4/26/2022 5:00:00 PM 14.27 57.686 0.382 8.05 7.51 10.99
4/26/2022 5:15:00 PM 14.24 57.632 0.382 8.03 7.12 10.86
4/26/2022 5:30:00 PM 14.21 57.578 0.382 8.01 7.12 10.75
4/26/2022 5:45:00 PM 14.19 57.542 0.382 8 7.11 10.65
4/26/2022 6:00:00 PM 14.17 57.506 0.382 7.98 6.92 10.57
4/26/2022 6:15:00 PM 14.16 57.488 0.382 7.97 7.38 10.49
4/26/2022 6:30:00 PM 14.15 57.47 0.382 7.96 6.8 10.46
4/26/2022 6:45:00 PM 14.15 57.47 0.382 7.95 6.75 10.39
4/26/2022 7:00:00 PM 14.13 57.434 0.382 7.95 7.37 10.34
4/26/2022 7:15:00 PM 14.11 57.398 0.382 7.93 6.67 10.24
4/26/2022 7:30:00 PM 14.09 57.362 0.382 7.91 7.09 10.13
4/26/2022 7:45:00 PM 14.07 57.326 0.382 7.89 6.56 10.01
4/26/2022 8:00:00 PM 14.05 57.29 0.382 7.87 7.79 9.9
4/26/2022 8:15:00 PM 14.03 57.254 0.382 7.86 7.34 9.8
4/26/2022 8:30:00 PM 14.01 57.218 0.382 7.85 7.16 9.73
4/26/2022 8:45:00 PM 13.99 57.182 0.382 7.83 7.61 9.66
4/26/2022 9:00:00 PM 13.97 57.146 0.382 7.82 7.63 9.62
4/26/2022 9:15:00 PM 13.94 57.092 0.382 7.81 8.66 9.56
4/26/2022 9:30:00 PM 13.91 57.038 0.382 7.81 8.76 9.51
4/26/2022 9:45:00 PM 13.87 56.966 0.382 7.8 8.71 9.49
4/26/2022 10:00:00 PM 13.82 56.876 0.382 7.79 8.8 9.44
4/26/2022 10:15:00 PM 13.77 56.786 0.382 7.78 7.79 9.42
4/26/2022 10:30:00 PM 13.71 56.678 0.382 7.78 8.11 9.38
4/26/2022 10:45:00 PM 13.66 56.588 0.382 7.77 7.96 9.33
4/26/2022 11:00:00 PM 13.62 56.516 0.382 7.78 7.71 9.31
4/26/2022 11:15:00 PM 13.58 56.444 0.382 7.75 8.12 9.26
4/26/2022 11:30:00 PM 13.54 56.372 0.382 7.75 8.34 9.25
4/26/2022 11:45:00 PM 13.49 56.282 0.382 7.75 8.72 9.23
4/27/2022 12:00:00 AM 13.44 56.192 0.382 7.74 7.81 9.21
4/27/2022 12:15:00 AM 13.39 56.102 0.382 7.74 8.73 9.21
4/27/2022 12:30:00 AM 13.35 56.03 0.382 7.74 7.74 9.2
4/27/2022 12:45:00 AM 13.3 55.94 0.382 7.73 8.42 9.17
4/27/2022 1:00:00 AM 13.25 55.85 0.382 7.73 9.28 9.17
4/27/2022 1:15:00 AM 13.18 55.724 0.382 7.72 8.82 9.19
4/27/2022 1:30:00 AM 13.12 55.616 0.382 7.72 8.63 9.17
4/27/2022 1:45:00 AM 13.05 55.49 0.382 7.72 8.96 9.17
4/27/2022 2:00:00 AM 12.99 55.382 0.382 7.72 8.69 9.17
4/27/2022 2:15:00 AM 12.94 55.292 0.382 7.72 8.68 9.17
4/27/2022 2:30:00 AM 12.89 55.202 0.382 7.72 8.78 9.2
4/27/2022 2:45:00 AM 12.84 55.112 0.382 7.7 8.31 9.2
4/27/2022 3:00:00 AM 12.78 55.004 0.382 7.71 9.01 9.2
4/27/2022 3:15:00 AM 12.71 54.878 0.382 7.71 8.73 9.2
4/27/2022 3:30:00 AM 12.65 54.77 0.382 7.71 7.82 9.21
4/27/2022 3:45:00 AM 12.59 54.662 0.383 7.71 8.88 9.24
4/27/2022 4:00:00 AM 12.53 54.554 0.383 7.71 8.43 9.26
4/27/2022 4:15:00 AM 12.46 54.428 0.383 7.71 8.41 9.26
4/27/2022 4:30:00 AM 12.38 54.284 0.383 7.71 9.47 9.27
4/27/2022 4:45:00 AM 12.32 54.176 0.383 7.7 7.77 9.26
4/27/2022 5:00:00 AM 12.25 54.05 0.382 7.71 8.74 9.28
4/27/2022 5:15:00 AM 12.17 53.906 0.383 7.71 8.54 9.31
4/27/2022 5:30:00 AM 12.11 53.798 0.383 7.71 8.12 9.31
4/27/2022 5:45:00 AM 12.04 53.672 0.383 7.71 8.95 9.34
4/27/2022 6:00:00 AM 11.96 53.528 0.383 7.71 7.68 9.36
4/27/2022 6:15:00 AM 11.89 53.402 0.383 7.71 8.2 9.38
4/27/2022 6:30:00 AM 11.83 53.294 0.383 7.71 8.32 9.4
4/27/2022 6:45:00 AM 11.78 53.204 0.382 7.71 8.38 9.42
4/27/2022 7:00:00 AM 11.73 53.114 0.383 7.71 8.33 9.5
4/27/2022 7:15:00 AM 11.67 53.006 0.383 7.72 8.14 9.57
4/27/2022 7:30:00 AM 11.63 52.934 0.383 7.74 7.85 9.68
4/27/2022 7:45:00 AM 11.57 52.826 0.383 7.74 7.99 9.79
4/27/2022 8:00:00 AM 11.5 52.7 0.383 7.76 8.02 9.97
4/27/2022 8:15:00 AM 11.46 52.628 0.383 7.78 7.86 10.12
4/27/2022 8:30:00 AM -99999.99 -179968 -99999.99 -99999.99 -99999.99 -99999.99
4/27/2022 8:45:00 AM -99999.99 -179968 -99999.99 -99999.99 -99999.99 -99999.99
4/27/2022 9:00:00 AM -99999.99 -179968 -99999.99 -99999.99 -99999.99 -99999.99
4/27/2022 9:15:00 AM -99999.99 -179968 -99999.99 -99999.99 -99999.99 -99999.99
4/27/2022 9:30:00 AM -99999.99 -179968 -99999.99 -99999.99 -99999.99 -99999.99
4/27/2022 9:45:00 AM 11.65 52.97 0.384 7.84 3.82 11.19
4/27/2022 10:00:00 AM 11.71 53.078 0.383 7.88 4.62 11.31
4/27/2022 10:15:00 AM 11.75 53.15 0.383 7.91 4.28 11.41
4/27/2022 10:30:00 AM 11.75 53.15 0.383 7.92 4.86 11.48
4/27/2022 10:45:00 AM 11.81 53.258 0.383 7.95 4.54 11.58
4/27/2022 11:00:00 AM 11.84 53.312 0.383 7.96 4.27 11.67
4/27/2022 11:15:00 AM 11.92 53.456 0.383 7.98 3.91 11.76
4/27/2022 11:30:00 AM 12.07 53.726 0.383 8 3.97 11.89
4/27/2022 11:45:00 AM 12.29 54.122 0.383 8.03 4.21 12.05
4/27/2022 12:00:00 PM 12.47 54.446 0.383 8.06 4.85 12.17
4/27/2022 12:15:00 PM 12.63 54.734 0.383 8.09 4.67 12.28
4/27/2022 12:30:00 PM 12.79 55.022 0.382 8.12 5.17 12.38
4/27/2022 12:45:00 PM 13.01 55.418 0.382 8.15 4.59 12.46
4/27/2022 1:00:00 PM 13.1 55.58 0.382 8.17 4.35 12.51
4/27/2022 1:15:00 PM 13.08 55.544 0.383 8.19 4.78 12.51
4/27/2022 1:30:00 PM 13.13 55.634 0.377 8.2 4.55 12.55
4/27/2022 1:45:00 PM 13.3 55.94 0.383 8.22 4.69 12.62
4/27/2022 2:00:00 PM 13.5 56.3 0.231 8.24 4.45 12.65
4/27/2022 2:15:00 PM 13.56 56.408 0.383 8.25 4.87 12.64
4/27/2022 2:30:00 PM 13.47 56.246 0.383 8.25 4.43 12.59
4/27/2022 2:45:00 PM 13.44 56.192 0.383 8.26 4.41 12.56
4/27/2022 3:00:00 PM 13.53 56.354 0.383 8.27 5.11 12.6
4/27/2022 3:15:00 PM 13.58 56.444 0.383 8.29 4.78 12.62
4/27/2022 3:30:00 PM 13.66 56.588 0.383 8.29 4.49 12.63
4/27/2022 3:45:00 PM 13.67 56.606 0.383 8.31 4.54 12.6
4/27/2022 4:00:00 PM 13.69 56.642 0.383 8.32 4.5 12.61
4/27/2022 4:15:00 PM 13.69 56.642 0.383 8.33 5.08 12.58
4/27/2022 4:30:00 PM 13.59 56.462 0.383 8.33 4.93 12.52
4/27/2022 4:45:00 PM 13.47 56.246 0.383 8.32 4.53 12.4
4/27/2022 5:00:00 PM 13.33 55.994 0.383 8.3 4.69 12.22
4/27/2022 5:15:00 PM 13.22 55.796 0.384 8.28 5.41 12.11
4/27/2022 5:30:00 PM 13.14 55.652 0.384 8.26 5 12.02
4/27/2022 5:45:00 PM 13.07 55.526 0.384 8.25 4.67 11.85
4/27/2022 6:00:00 PM 12.98 55.364 0.384 8.21 4.79 11.66
4/27/2022 6:15:00 PM 12.89 55.202 0.384 8.18 4.36 11.48
4/27/2022 6:30:00 PM 12.83 55.094 0.385 8.16 4.5 11.35
4/27/2022 6:45:00 PM 12.77 54.986 0.385 8.14 4.25 11.2
4/27/2022 7:00:00 PM 12.7 54.86 0.385 8.12 4.81 11.08
4/27/2022 7:15:00 PM 12.64 54.752 0.385 8.09 4.3 10.98
4/27/2022 7:30:00 PM 12.57 54.626 0.385 8.08 4.84 10.86
4/27/2022 7:45:00 PM 12.48 54.464 0.385 8.05 4.47 10.77
4/27/2022 8:00:00 PM 12.38 54.284 0.385 8.04 4.51 10.66
4/27/2022 8:15:00 PM 12.29 54.122 0.385 8.02 5.73 10.57
4/27/2022 8:30:00 PM 12.2 53.96 0.385 8 5.32 10.49
4/27/2022 8:45:00 PM 12.11 53.798 0.385 7.98 5.11 10.42
4/27/2022 9:00:00 PM 12.03 53.654 0.386 7.96 5.08 10.34
4/27/2022 9:15:00 PM 11.96 53.528 0.265 7.94 4.45 10.28
4/27/2022 9:30:00 PM 11.88 53.384 0.386 7.93 5.37 10.22
4/27/2022 9:45:00 PM 11.8 53.24 0.386 7.92 5.44 10.16
4/27/2022 10:00:00 PM 11.72 53.096 0.249 7.89 4.59 10.1
4/27/2022 10:15:00 PM 11.65 52.97 0.386 7.88 4.96 10.04
4/27/2022 10:30:00 PM 11.56 52.808 0.386 7.88 5.82 9.99
4/27/2022 10:45:00 PM 11.49 52.682 0.386 7.85 5.09 9.95
4/27/2022 11:00:00 PM 11.41 52.538 0.387 7.84 4.75 9.92
4/27/2022 11:15:00 PM 11.34 52.412 0.387 7.84 5.1 9.88
4/27/2022 11:30:00 PM 11.25 52.25 0.387 7.83 5.89 9.86
4/27/2022 11:45:00 PM 11.15 52.07 0.387 7.82 5.89 9.83
4/28/2022 12:00:00 AM 11.08 51.944 0.387 7.81 5.97 9.82
4/28/2022 12:15:00 AM 11 51.8 0.387 7.8 5.2 9.81
4/28/2022 12:30:00 AM 10.92 51.656 0.387 7.8 5.94 9.81
4/28/2022 12:45:00 AM 10.85 51.53 0.387 7.79 5.39 9.8
4/28/2022 1:00:00 AM 10.77 51.386 0.387 7.78 4.79 9.8
4/28/2022 1:15:00 AM 10.7 51.26 0.28 7.69 5.11 9.79
4/28/2022 1:30:00 AM 10.64 51.152 0.388 7.78 5.68 9.8
4/28/2022 1:45:00 AM 10.6 51.08 0.388 7.77 5.21 9.79
4/28/2022 2:00:00 AM 10.56 51.008 0.388 7.77 4.79 9.79
4/28/2022 2:15:00 AM 10.5 50.9 0.388 7.76 4.98 9.79
4/28/2022 2:30:00 AM 10.44 50.792 0.388 7.76 4.69 9.8
4/28/2022 2:45:00 AM 10.38 50.684 0.388 7.75 4.58 9.8
4/28/2022 3:00:00 AM 10.31 50.558 0.388 7.75 5.23 9.81
4/28/2022 3:15:00 AM 10.24 50.432 0.388 7.75 5.35 9.81
4/28/2022 3:30:00 AM 10.16 50.288 0.388 7.74 5.06 9.83
4/28/2022 3:45:00 AM 10.08 50.144 0.388 7.74 4.99 9.84
4/28/2022 4:00:00 AM 10.01 50.018 0.388 7.74 5.03 9.85
4/28/2022 4:15:00 AM 9.95 49.91 0.388 7.75 5.68 9.86
4/28/2022 4:30:00 AM 9.87 49.766 0.388 7.74 5.97 9.87
4/28/2022 4:45:00 AM 9.82 49.676 0.389 7.74 5.7 9.88
4/28/2022 5:00:00 AM 9.75 49.55 0.389 7.75 5.31 9.89
4/28/2022 5:15:00 AM 9.69 49.442 0.389 7.74 5.94 9.9
4/28/2022 5:30:00 AM 9.63 49.334 0.389 7.74 6.06 9.92
4/28/2022 5:45:00 AM 9.57 49.226 0.389 7.73 6.06 9.93
4/28/2022 6:00:00 AM 9.51 49.118 0.389 7.73 4.98 9.95
4/28/2022 6:15:00 AM 9.45 49.01 0.389 7.73 4.82 9.97
4/28/2022 6:30:00 AM 9.4 48.92 0.389 7.74 5.04 9.99
4/28/2022 6:45:00 AM 9.35 48.83 0.389 7.74 4.96 10.02
4/28/2022 7:00:00 AM 9.32 48.776 0.389 7.74 4.48 10.05
4/28/2022 7:15:00 AM 9.28 48.704 0.39 7.74 4.68 10.12
4/28/2022 7:30:00 AM 9.25 48.65 0.39 7.74 4.68 10.2
4/28/2022 7:45:00 AM 9.23 48.614 0.389 7.75 4.6 10.34
4/28/2022 8:00:00 AM 9.22 48.596 0.389 7.77 4.73 10.48
4/28/2022 8:15:00 AM 9.21 48.578 0.389 7.79 4.95 10.67
4/28/2022 8:30:00 AM 9.19 48.542 0.389 7.82 4.03 10.87
4/28/2022 8:45:00 AM 9.2 48.56 0.389 7.84 4.34 11.07
4/28/2022 9:00:00 AM 9.26 48.668 0.389 7.85 4.37 11.27
4/28/2022 9:15:00 AM 9.28 48.704 0.389 7.87 4.63 11.45
4/28/2022 9:30:00 AM 9.34 48.812 0.389 7.89 3.7 11.59
4/28/2022 9:45:00 AM 9.41 48.938 0.389 7.91 3.7 11.7
4/28/2022 10:00:00 AM 9.54 49.172 0.389 7.93 3.49 11.85
4/28/2022 10:15:00 AM 9.68 49.424 0.389 7.95 3.67 11.97
4/28/2022 10:30:00 AM 9.82 49.676 0.389 7.97 4.31 12.1
4/28/2022 10:45:00 AM 9.97 49.946 0.388 7.98 4.5 12.23
4/28/2022 11:00:00 AM 10.12 50.216 0.388 8.01 3.86 12.35
4/28/2022 11:15:00 AM 10.29 50.522 0.388 8.03 3.61 12.46
4/28/2022 11:30:00 AM 10.47 50.846 0.388 8.05 3.81 12.59
4/28/2022 11:45:00 AM 10.65 51.17 0.388 8.08 4.11 12.71
4/28/2022 12:00:00 PM 10.83 51.494 0.388 8.11 3.88 12.81
4/28/2022 12:15:00 PM 11.05 51.89 0.387 8.13 4.28 12.89
4/28/2022 12:30:00 PM 11.27 52.286 0.387 8.16 3.81 13
4/28/2022 12:45:00 PM 11.49 52.682 0.387 8.18 4.29 13.07
4/28/2022 1:00:00 PM 11.72 53.096 0.385 8.21 3.82 13.14
4/28/2022 1:15:00 PM 11.96 53.528 0.291 8.23 3.13 13.23
4/28/2022 1:30:00 PM 12.21 53.978 0.387 8.25 6.28 13.28
4/28/2022 1:45:00 PM 12.41 54.338 0.387 8.27 3.33 13.32
4/28/2022 2:00:00 PM 12.58 54.644 0.387 8.29 4.1 13.33
4/28/2022 2:15:00 PM 12.76 54.968 0.387 8.31 3.51 13.36
4/28/2022 2:30:00 PM 12.92 55.256 0.387 8.33 4.23 13.38
4/28/2022 2:45:00 PM 13.03 55.454 0.387 8.34 4.31 13.37
4/28/2022 3:00:00 PM 13.14 55.652 0.387 8.36 4.13 13.37
4/28/2022 3:15:00 PM 13.24 55.832 0.387 8.37 3.71 13.35
4/28/2022 3:30:00 PM 13.31 55.958 0.387 8.38 3.52 13.33
4/28/2022 3:45:00 PM 13.35 56.03 0.386 8.39 3.73 13.28
4/28/2022 4:00:00 PM 13.38 56.084 0.386 8.4 3.92 13.22
4/28/2022 4:15:00 PM 13.41 56.138 0.386 8.41 3.65 13.2
4/28/2022 4:30:00 PM 13.4 56.12 0.386 8.41 3.63 13.1
4/28/2022 4:45:00 PM 13.4 56.12 0.386 8.41 3.48 13.06
4/28/2022 5:00:00 PM 13.37 56.066 0.386 8.4 4.48 12.95
4/28/2022 5:15:00 PM 13.35 56.03 0.386 8.41 3.67 12.86
4/28/2022 5:30:00 PM 13.28 55.904 0.386 8.39 4.41 12.72
4/28/2022 5:45:00 PM 13.23 55.814 0.387 8.38 4 12.58
4/28/2022 6:00:00 PM 13.19 55.742 0.387 8.36 3.85 12.46
4/28/2022 6:15:00 PM 13.15 55.67 0.387 8.34 4.19 12.3
4/28/2022 6:30:00 PM 13.1 55.58 0.387 8.32 3.77 12.15
4/28/2022 6:45:00 PM 13.06 55.508 0.388 8.29 4.07 11.96
4/28/2022 7:00:00 PM 13 55.4 0.388 8.27 4.15 11.8
4/28/2022 7:15:00 PM 12.94 55.292 0.388 8.24 4.29 11.62
4/28/2022 7:30:00 PM 12.89 55.202 0.388 8.2 4.06 11.44
4/28/2022 7:45:00 PM 12.83 55.094 0.389 8.18 4.34 11.29
4/28/2022 8:00:00 PM 12.77 54.986 0.389 8.15 4.31 11.12
4/28/2022 8:15:00 PM 12.7 54.86 0.389 8.11 4.18 10.95
4/28/2022 8:30:00 PM 12.63 54.734 0.389 8.09 4.09 10.82
4/28/2022 8:45:00 PM 12.55 54.59 0.389 8.06 4.6 10.68
4/28/2022 9:00:00 PM 12.48 54.464 0.39 8.04 4.65 10.57
4/28/2022 9:15:00 PM 12.4 54.32 0.39 8.02 5.17 10.49
4/28/2022 9:30:00 PM 12.33 54.194 0.39 7.99 4.78 10.4
4/28/2022 9:45:00 PM 12.25 54.05 0.39 7.98 5.04 10.34
4/28/2022 10:00:00 PM 12.17 53.906 0.39 7.96 5.82 10.26
4/28/2022 10:15:00 PM 12.09 53.762 0.39 7.95 4.92 10.2
4/28/2022 10:30:00 PM 12.01 53.618 0.39 7.93 5.12 10.13
4/28/2022 10:45:00 PM 11.93 53.474 0.391 7.91 5.61 10.07
4/28/2022 11:00:00 PM 11.84 53.312 0.391 7.89 5.36 10
4/28/2022 11:15:00 PM 11.76 53.168 0.391 7.88 4.55 9.93
4/28/2022 11:30:00 PM 11.67 53.006 0.391 7.86 4.97 9.87
4/28/2022 11:45:00 PM 11.58 52.844 0.391 7.85 4.72 9.82
4/29/2022 12:00:00 AM 11.48 52.664 0.391 7.84 4.8 9.78
4/29/2022 12:15:00 AM 11.39 52.502 0.391 7.82 5.5 9.75
4/29/2022 12:30:00 AM 11.31 52.358 0.391 7.81 5.26 9.73
4/29/2022 12:45:00 AM 11.22 52.196 0.392 7.8 5.14 9.7
4/29/2022 1:00:00 AM 11.14 52.052 0.392 7.8 6.04 9.68
4/29/2022 1:15:00 AM 11.07 51.926 0.392 7.79 6.51 9.66
4/29/2022 1:30:00 AM 10.98 51.764 0.392 7.79 6.3 9.65
4/29/2022 1:45:00 AM 10.9 51.62 0.392 7.78 6.27 9.64
4/29/2022 2:00:00 AM 10.82 51.476 0.392 7.77 5.05 9.65
4/29/2022 2:15:00 AM 10.74 51.332 0.392 7.76 5.3 9.65
4/29/2022 2:30:00 AM 10.66 51.188 0.392 7.76 5.51 9.65
4/29/2022 2:45:00 AM 10.58 51.044 0.392 7.76 5.02 9.65
4/29/2022 3:00:00 AM 10.5 50.9 0.391 7.75 5.52 9.66
4/29/2022 3:15:00 AM 10.42 50.756 0.392 7.75 5.74 9.65
4/29/2022 3:30:00 AM 10.34 50.612 0.392 7.74 5.07 9.66
4/29/2022 3:45:00 AM 10.25 50.45 0.392 7.74 5.59 9.69
4/29/2022 4:00:00 AM 10.17 50.306 0.391 7.74 5.2 9.7
4/29/2022 4:15:00 AM 10.09 50.162 0.391 7.73 5.27 9.72
4/29/2022 4:30:00 AM 10 50 0.391 7.73 5.46 9.73
4/29/2022 4:45:00 AM 9.92 49.856 0.392 7.73 5.21 9.74
4/29/2022 5:00:00 AM 9.84 49.712 0.391 7.73 5.07 9.76
4/29/2022 5:15:00 AM 9.77 49.586 0.391 7.73 5.9 9.77
4/29/2022 5:30:00 AM 9.68 49.424 0.391 7.74 5.35 9.8
4/29/2022 5:45:00 AM 9.6 49.28 0.391 7.72 4.84 9.81
4/29/2022 6:00:00 AM 9.51 49.118 0.392 7.72 4.76 9.84
4/29/2022 6:15:00 AM 9.43 48.974 0.391 7.72 4.99 9.87
4/29/2022 6:30:00 AM 9.35 48.83 0.391 7.72 4.5 9.91
4/29/2022 6:45:00 AM 9.29 48.722 0.392 7.73 6.26 9.95
4/29/2022 7:00:00 AM 9.24 48.632 0.392 7.73 5.49 10.03
4/29/2022 7:15:00 AM 9.2 48.56 0.392 7.74 4.84 10.17
4/29/2022 7:30:00 AM 9.18 48.524 0.392 7.76 4.74 10.3
4/29/2022 7:45:00 AM 9.18 48.524 0.392 7.77 4.42 10.47
4/29/2022 8:00:00 AM 9.21 48.578 0.392 7.79 4.29 10.63
4/29/2022 8:15:00 AM 9.23 48.614 0.392 7.8 4.18 10.82
4/29/2022 8:30:00 AM 9.26 48.668 0.392 7.82 4.06 11.01
4/29/2022 8:45:00 AM 9.3 48.74 0.392 7.84 4.73 11.21
4/29/2022 9:00:00 AM 9.36 48.848 0.392 7.87 4.17 11.39
4/29/2022 9:15:00 AM 9.43 48.974 0.293 7.88 3.94 11.54
4/29/2022 9:30:00 AM 9.53 49.154 0.391 7.91 4.22 11.73
4/29/2022 9:45:00 AM 9.62 49.316 0.391 7.93 3.76 11.91
4/29/2022 10:00:00 AM 9.74 49.532 0.391 7.95 4.05 12.07
4/29/2022 10:15:00 AM 9.88 49.784 0.391 7.98 4 12.22
4/29/2022 10:30:00 AM 10.02 50.036 0.391 8 4.06 12.37
4/29/2022 10:45:00 AM 10.2 50.36 0.391 8.03 4.06 12.5
4/29/2022 11:00:00 AM 10.31 50.558 0.39 8.05 3.66 12.62
4/29/2022 11:15:00 AM 10.46 50.828 0.39 8.07 3.65 12.73
4/29/2022 11:30:00 AM 10.66 51.188 0.39 8.1 4.1 12.86
4/29/2022 11:45:00 AM 10.85 51.53 0.39 8.12 4.08 12.96
4/29/2022 12:00:00 PM 11.06 51.908 0.389 8.15 3.86 13.07
4/29/2022 12:15:00 PM 11.29 52.322 0.389 8.18 3.99 13.16
4/29/2022 12:30:00 PM 11.53 52.754 0.389 8.2 40.91 13.28
4/29/2022 12:45:00 PM 11.78 53.204 0.388 8.23 4.61 13.36
4/29/2022 1:00:00 PM 12.04 53.672 0.388 8.26 3.91 13.44
4/29/2022 1:15:00 PM 12.3 54.14 0.388 8.3 3.95 13.52
4/29/2022 1:30:00 PM 12.55 54.59 0.388 8.32 3.62 13.59
4/29/2022 1:45:00 PM 12.77 54.986 0.385 8.34 3.95 13.64
4/29/2022 2:00:00 PM 12.99 55.382 0.388 8.37 3.63 13.69
4/29/2022 2:15:00 PM 13.15 55.67 0.388 8.39 3.74 13.73
4/29/2022 2:30:00 PM 13.3 55.94 0.388 8.41 4.67 13.75
4/29/2022 2:45:00 PM 13.43 56.174 0.388 8.43 3.85 13.75
4/29/2022 3:00:00 PM 13.56 56.408 0.387 8.45 4.21 13.74
4/29/2022 3:15:00 PM 13.63 56.534 0.387 8.46 3.99 13.73
4/29/2022 3:30:00 PM 13.7 56.66 0.387 8.47 5.06 13.7
4/29/2022 3:45:00 PM 13.75 56.75 0.387 8.49 5.07 13.65
4/29/2022 4:00:00 PM 13.79 56.822 0.387 8.49 4.86 13.62
4/29/2022 4:15:00 PM 13.83 56.894 0.387 8.5 4.62 13.55
4/29/2022 4:30:00 PM 13.82 56.876 0.387 8.5 4.57 13.48
4/29/2022 4:45:00 PM 13.8 56.84 0.387 8.51 4.4 13.38
4/29/2022 5:00:00 PM 13.8 56.84 0.387 8.51 4.45 13.29
4/29/2022 5:15:00 PM 13.76 56.768 0.387 8.5 4.1 13.16
4/29/2022 5:30:00 PM 13.7 56.66 0.387 8.48 4.13 13
4/29/2022 5:45:00 PM 13.67 56.606 0.387 8.47 3.72 12.85
4/29/2022 6:00:00 PM 13.64 56.552 0.387 8.45 4.05 12.69
4/29/2022 6:15:00 PM 13.6 56.48 0.388 8.44 4.88 12.52
4/29/2022 6:30:00 PM 13.57 56.426 0.388 8.41 4.66 12.36
4/29/2022 6:45:00 PM 13.52 56.336 0.388 8.38 4.79 12.15
4/29/2022 7:00:00 PM 13.49 56.282 0.389 8.35 4.6 11.95
4/29/2022 7:15:00 PM 13.45 56.21 0.389 8.32 5.48 11.76
4/29/2022 7:30:00 PM 13.4 56.12 0.389 8.28 6.38 11.57
4/29/2022 7:45:00 PM 13.35 56.03 0.39 8.25 6.75 11.38
4/29/2022 8:00:00 PM 13.29 55.922 0.39 8.21 5.39 11.19
4/29/2022 8:15:00 PM 13.22 55.796 0.39 8.18 5.31 11
4/29/2022 8:30:00 PM 13.14 55.652 0.39 8.14 5.15 10.83
4/29/2022 8:45:00 PM 13.07 55.526 0.39 8.11 4.82 10.68
4/29/2022 9:00:00 PM 12.98 55.364 0.39 8.08 6.29 10.56
4/29/2022 9:15:00 PM 12.9 55.22 0.391 8.06 5.23 10.45
4/29/2022 9:30:00 PM 12.82 55.076 0.391 8.03 5.96 10.37
4/29/2022 9:45:00 PM 12.75 54.95 0.391 8.01 5.52 10.28
4/29/2022 10:00:00 PM 12.67 54.806 0.391 8 5.4 10.2
4/29/2022 10:15:00 PM 12.6 54.68 0.391 7.97 4.71 10.12
4/29/2022 10:30:00 PM 12.52 54.536 0.392 7.95 4.88 10.04
4/29/2022 10:45:00 PM 12.46 54.428 0.392 7.93 4.95 9.96
4/29/2022 11:00:00 PM 12.37 54.266 0.392 7.91 5.13 9.88
4/29/2022 11:15:00 PM 12.29 54.122 0.392 7.89 4.9 9.8
4/29/2022 11:30:00 PM 12.2 53.96 0.392 7.87 6.38 9.73
4/29/2022 11:45:00 PM 12.12 53.816 0.392 7.86 4.89 9.67
4/30/2022 12:00:00 AM 12.03 53.654 0.393 7.84 5.31 9.62
4/30/2022 12:15:00 AM 11.95 53.51 0.393 7.82 5.48 9.57
4/30/2022 12:30:00 AM 11.87 53.366 0.393 7.82 5.49 9.53
4/30/2022 12:45:00 AM 11.79 53.222 0.393 7.8 5.39 9.5
4/30/2022 1:00:00 AM 11.71 53.078 0.393 7.8 5.13 9.47
4/30/2022 1:15:00 AM 11.64 52.952 0.393 7.79 5.36 9.45
4/30/2022 1:30:00 AM 11.56 52.808 0.393 7.78 5.63 9.43
4/30/2022 1:45:00 AM 11.48 52.664 0.393 7.78 5.14 9.42
4/30/2022 2:00:00 AM 11.39 52.502 0.393 7.77 5.32 9.42
4/30/2022 2:15:00 AM 11.31 52.358 0.393 7.76 4.93 9.41
4/30/2022 2:30:00 AM 11.23 52.214 0.393 7.76 5.45 9.42
4/30/2022 2:45:00 AM 11.14 52.052 0.393 7.75 5.02 9.41
4/30/2022 3:00:00 AM 11.06 51.908 0.393 7.76 5.63 9.41
4/30/2022 3:15:00 AM 10.98 51.764 0.393 7.75 6.11 9.4
4/30/2022 3:30:00 AM 10.89 51.602 0.393 7.75 5.57 9.42
4/30/2022 3:45:00 AM 10.81 51.458 0.393 7.73 5.73 9.43
4/30/2022 4:00:00 AM 10.73 51.314 0.393 7.74 5.48 9.44
4/30/2022 4:15:00 AM 10.65 51.17 0.393 7.74 6.43 9.43
4/30/2022 4:30:00 AM 10.57 51.026 0.393 7.73 6.96 9.46
4/30/2022 4:45:00 AM 10.49 50.882 0.393 7.73 5.48 9.46
4/30/2022 5:00:00 AM 10.41 50.738 0.393 7.73 5.26 9.49
4/30/2022 5:15:00 AM 10.32 50.576 0.393 7.73 5.59 9.5
4/30/2022 5:30:00 AM 10.25 50.45 0.393 7.72 5.49 9.52
4/30/2022 5:45:00 AM 10.16 50.288 0.393 7.72 5.02 9.55
4/30/2022 6:00:00 AM 10.08 50.144 0.393 7.72 5.1 9.57
4/30/2022 6:15:00 AM 10 50 0.393 7.72 4.55 9.59
4/30/2022 6:30:00 AM 9.93 49.874 0.393 7.72 4.5 9.62
4/30/2022 6:45:00 AM 9.86 49.748 0.393 7.72 4.96 9.66
4/30/2022 7:00:00 AM 9.8 49.64 0.393 7.73 5.43 9.75
4/30/2022 7:15:00 AM 9.76 49.568 0.393 7.74 4.48 9.87
4/30/2022 7:30:00 AM 9.74 49.532 0.393 7.75 4.17 10.03
4/30/2022 7:45:00 AM 9.73 49.514 0.393 7.77 4.44 10.22
4/30/2022 8:00:00 AM 9.75 49.55 0.393 7.78 4.27 10.39
4/30/2022 8:15:00 AM 9.78 49.604 0.393 7.8 4.48 10.61
4/30/2022 8:30:00 AM 9.83 49.694 0.393 7.83 4.4 10.84
4/30/2022 8:45:00 AM 9.91 49.838 0.393 7.85 4.94 11.07
4/30/2022 9:00:00 AM 10.02 50.036 0.393 7.88 4.1 11.27
4/30/2022 9:15:00 AM 10.12 50.216 0.393 7.9 12.21 11.47
4/30/2022 9:30:00 AM 10.22 50.396 0.393 7.92 4 11.64
4/30/2022 9:45:00 AM 10.33 50.594 0.393 7.95 5.04 11.8
4/30/2022 10:00:00 AM 10.45 50.81 0.393 7.97 4.36 11.97
4/30/2022 10:15:00 AM 10.61 51.098 0.393 8 3.95 12.14
4/30/2022 10:30:00 AM 10.77 51.386 0.393 8.03 4.29 12.31
4/30/2022 10:45:00 AM 10.94 51.692 0.392 8.06 4.58 12.43
4/30/2022 11:00:00 AM 11.1 51.98 0.392 8.08 4.31 12.59
4/30/2022 11:15:00 AM 11.27 52.286 0.392 8.11 3.91 12.75
4/30/2022 11:30:00 AM 11.46 52.628 0.391 8.14 3.79 12.9
4/30/2022 11:45:00 AM 11.66 52.988 0.391 8.18 3.78 13.05
4/30/2022 12:00:00 PM 11.88 53.384 0.39 8.22 3.84 13.19
4/30/2022 12:15:00 PM 12.12 53.816 0.39 8.25 4.2 13.32
4/30/2022 12:30:00 PM 12.38 54.284 0.39 8.28 5.17 13.42
4/30/2022 12:45:00 PM 12.67 54.806 0.39 8.31 13.02 13.54
4/30/2022 1:00:00 PM 12.92 55.256 0.39 8.33 9.81 13.59
4/30/2022 1:15:00 PM 13.22 55.796 0.39 8.37 5.92 13.71
4/30/2022 1:30:00 PM 13.45 56.21 0.389 8.41 5.03 13.82
4/30/2022 1:45:00 PM 13.72 56.696 0.389 8.43 5.86 13.89
4/30/2022 2:00:00 PM 13.91 57.038 0.463 8.46 4.75 13.95
4/30/2022 2:15:00 PM 14.09 57.362 0.394 8.49 4.95 13.97
4/30/2022 2:30:00 PM 14.24 57.632 0.391 8.51 4.79 14.02
4/30/2022 2:45:00 PM 14.33 57.794 0.39 8.54 4.62 14.03
4/30/2022 3:00:00 PM 14.43 57.974 0.39 8.56 4.42 14.04
4/30/2022 3:15:00 PM 14.53 58.154 0.389 8.58 4.82 14.03
4/30/2022 3:30:00 PM 14.63 58.334 0.389 8.59 4.48 14.01
4/30/2022 3:45:00 PM 14.71 58.478 0.389 8.61 6.25 13.96
4/30/2022 4:00:00 PM 14.77 58.586 0.389 8.62 4.87 13.92
4/30/2022 4:15:00 PM 14.82 58.676 0.389 8.63 4.91 13.88
4/30/2022 4:30:00 PM 14.83 58.694 0.389 8.63 4.29 13.77
4/30/2022 4:45:00 PM 14.82 58.676 0.389 8.64 4.15 13.67
4/30/2022 5:00:00 PM 14.82 58.676 0.389 8.64 4.97 13.57
4/30/2022 5:15:00 PM 14.77 58.586 0.389 8.63 4.82 13.41
4/30/2022 5:30:00 PM 14.73 58.514 0.389 8.62 3.99 13.24
4/30/2022 5:45:00 PM 14.69 58.442 0.389 8.6 4.03 13.04
4/30/2022 6:00:00 PM 14.65 58.37 0.389 8.57 4.24 12.85
4/30/2022 6:15:00 PM 14.63 58.334 0.39 8.56 4.06 12.7
4/30/2022 6:30:00 PM 14.6 58.28 0.39 8.53 4.62 12.49
4/30/2022 6:45:00 PM 14.57 58.226 0.39 8.51 4.22 12.28
4/30/2022 7:00:00 PM 14.54 58.172 0.391 8.46 4.18 12.02
4/30/2022 7:15:00 PM 14.5 58.1 0.391 8.43 4.05 11.79
4/30/2022 7:30:00 PM 14.45 58.01 0.392 8.39 4.88 11.59
4/30/2022 7:45:00 PM 14.39 57.902 0.392 8.34 5.05 11.35
4/30/2022 8:00:00 PM 14.32 57.776 0.392 8.31 4.64 11.14
4/30/2022 8:15:00 PM 14.24 57.632 0.393 8.26 4.38 10.92
4/30/2022 8:30:00 PM 14.13 57.434 0.393 8.21 4.61 10.72
4/30/2022 8:45:00 PM 14.04 57.272 0.393 8.18 5.13 10.56
4/30/2022 9:00:00 PM 13.96 57.128 0.394 8.15 5.09 10.43
4/30/2022 9:15:00 PM 13.87 56.966 0.394 8.11 5.23 10.32
4/30/2022 9:30:00 PM 13.79 56.822 0.395 8.09 5.36 10.22
4/30/2022 9:45:00 PM 13.72 56.696 0.395 8.06 5.18 10.11
4/30/2022 10:00:00 PM 13.65 56.57 0.399 8.04 5.28 10.02
4/30/2022 10:15:00 PM 13.58 56.444 0.397 8.01 5.06 9.92
4/30/2022 10:30:00 PM 13.51 56.318 0.404 7.98 4.91 9.83
4/30/2022 10:45:00 PM 13.44 56.192 0.396 7.95 4.8 9.72
4/30/2022 11:00:00 PM 13.38 56.084 0.393 7.93 5.3 9.63
4/30/2022 11:15:00 PM 13.31 55.958 0.393 7.91 4.9 9.54
4/30/2022 11:30:00 PM 13.23 55.814 0.393 7.89 4.94 9.47
4/30/2022 11:45:00 PM 13.16 55.688 0.393 7.87 5.3 9.39
5/1/2022 12:00:00 AM 13.08 55.544 0.393 7.85 4.41 9.32
5/1/2022 12:15:00 AM 13 55.4 0.393 7.84 4.98 9.25
5/1/2022 12:30:00 AM 12.91 55.238 0.394 7.82 4.77 9.21
5/1/2022 12:45:00 AM 12.83 55.094 0.394 7.8 5.2 9.17
5/1/2022 1:00:00 AM 12.74 54.932 0.394 7.8 5.09 9.13
5/1/2022 1:15:00 AM 12.66 54.788 0.394 7.78 4.85 9.11
5/1/2022 1:30:00 AM 12.58 54.644 0.394 7.78 5.18 9.07
5/1/2022 1:45:00 AM 12.51 54.518 0.394 7.77 5.41 9.06
5/1/2022 2:00:00 AM 12.43 54.374 0.394 7.76 5.31 9.03
5/1/2022 2:15:00 AM 12.35 54.23 0.394 7.76 5.6 9.02
5/1/2022 2:30:00 AM 12.28 54.104 0.387 7.74 5.94 9
5/1/2022 2:45:00 AM 12.22 53.996 0.388 7.74 49.97 8.92
5/1/2022 3:00:00 AM 12.14 53.852 0.394 7.74 8.58 9.02
5/1/2022 3:15:00 AM 12.06 53.708 0.394 7.73 5.13 9.02
5/1/2022 3:30:00 AM 11.99 53.582 0.394 7.73 5.03 9.02
5/1/2022 3:45:00 AM 11.91 53.438 0.394 7.73 4.35 9.02
5/1/2022 4:00:00 AM 11.83 53.294 0.394 7.72 4.25 9.03
5/1/2022 4:15:00 AM 11.74 53.132 0.394 7.72 4.72 9.04
5/1/2022 4:30:00 AM 11.67 53.006 0.394 7.71 4.79 9.04
5/1/2022 4:45:00 AM 11.59 52.862 0.394 7.71 4.73 9.05
5/1/2022 5:00:00 AM 11.52 52.736 0.393 7.71 4.42 9.06
5/1/2022 5:15:00 AM 11.45 52.61 0.394 7.7 4.75 9.07
5/1/2022 5:30:00 AM 11.37 52.466 0.394 7.7 4.93 9.1
5/1/2022 5:45:00 AM 11.29 52.322 0.394 7.7 4.69 9.11
5/1/2022 6:00:00 AM 11.22 52.196 0.394 7.7 4.62 9.12
5/1/2022 6:15:00 AM 11.15 52.07 0.394 7.7 4.08 9.16
5/1/2022 6:30:00 AM 11.1 51.98 0.394 7.7 4.92 9.19
5/1/2022 6:45:00 AM 11.04 51.872 0.394 7.7 4.13 9.25
5/1/2022 7:00:00 AM 11 51.8 0.394 7.71 3.98 9.38
5/1/2022 7:15:00 AM 10.97 51.746 0.394 7.72 4.45 9.54
5/1/2022 7:30:00 AM 10.96 51.728 0.394 7.74 4.28 9.71
5/1/2022 7:45:00 AM 10.98 51.764 0.393 7.76 3.94 9.91
5/1/2022 8:00:00 AM 11 51.8 0.393 7.78 3.8 10.16
5/1/2022 8:15:00 AM 11.06 51.908 0.393 7.81 4.02 10.4
5/1/2022 8:30:00 AM 11.12 52.016 0.393 7.84 3.58 10.69
5/1/2022 8:45:00 AM 11.19 52.142 0.393 7.87 3.24 10.93
5/1/2022 9:00:00 AM 11.27 52.286 0.393 7.9 3.49 11.19
5/1/2022 9:15:00 AM 11.34 52.412 0.393 7.94 3.75 11.45
5/1/2022 9:30:00 AM 11.43 52.574 0.392 7.97 3.74 11.67
5/1/2022 9:45:00 AM 11.55 52.79 0.392 8.01 3.97 11.92
5/1/2022 10:00:00 AM 11.64 52.952 0.392 8.04 3.79 12.1
5/1/2022 10:15:00 AM 11.77 53.186 0.392 8.08 3.81 12.32
5/1/2022 10:30:00 AM 11.86 53.348 0.392 8.11 3.55 12.46
5/1/2022 10:45:00 AM 12.05 53.69 0.392 8.14 3.52 12.68
5/1/2022 11:00:00 AM 12.14 53.852 0.392 8.17 3.68 12.78
5/1/2022 11:15:00 AM 12.19 53.942 0.392 8.18 3.35 12.78
5/1/2022 11:30:00 AM 12.23 54.014 0.392 8.2 3.53 12.81
5/1/2022 11:45:00 AM 12.26 54.068 0.391 8.22 3.63 12.86
5/1/2022 12:00:00 PM 12.3 54.14 0.391 8.24 3.75 13
5/1/2022 12:15:00 PM 12.35 54.23 0.391 8.27 3.56 13.1
5/1/2022 12:30:00 PM 12.37 54.266 0.391 8.29 3.31 13.12
5/1/2022 12:45:00 PM 12.4 54.32 0.391 8.31 3.76 13.16
5/1/2022 1:00:00 PM 12.45 54.41 0.391 8.33 3.55 13.2
5/1/2022 1:15:00 PM 12.49 54.482 0.39 8.34 3.86 13.22
5/1/2022 1:30:00 PM 12.53 54.554 0.39 8.35 3.82 13.18
5/1/2022 1:45:00 PM 12.54 54.572 0.39 8.33 3.54 13.01
5/1/2022 2:00:00 PM 12.54 54.572 0.39 8.31 3.57 12.75
5/1/2022 2:15:00 PM 12.53 54.554 0.389 8.27 3.8 12.53
5/1/2022 2:30:00 PM 12.54 54.572 0.388 8.26 4.61 12.45
5/1/2022 2:45:00 PM 12.55 54.59 0.388 8.28 3.68 12.46
5/1/2022 3:00:00 PM 12.57 54.626 0.388 8.28 3.72 12.46
5/1/2022 3:15:00 PM 12.58 54.644 0.388 8.29 4.38 12.4
5/1/2022 3:30:00 PM 12.6 54.68 0.388 8.28 4.11 12.29
5/1/2022 3:45:00 PM 12.61 54.698 0.388 8.27 3.67 12.2
5/1/2022 4:00:00 PM 12.61 54.698 0.388 8.26 4.95 12.06
5/1/2022 4:15:00 PM 12.6 54.68 0.388 8.24 3.87 11.9
5/1/2022 4:30:00 PM 12.58 54.644 0.386 8.22 3.69 11.76
5/1/2022 4:45:00 PM 12.56 54.608 0.386 8.2 3.86 11.66
5/1/2022 5:00:00 PM 12.54 54.572 0.385 8.19 3.61 11.62
5/1/2022 5:15:00 PM 12.55 54.59 0.385 8.2 3.99 11.72
5/1/2022 5:30:00 PM 12.55 54.59 0.385 8.22 3.94 11.85
5/1/2022 5:45:00 PM 12.54 54.572 0.385 8.22 4.1 11.88
5/1/2022 6:00:00 PM 12.54 54.572 0.386 8.21 3.74 11.78
5/1/2022 6:15:00 PM 12.54 54.572 0.386 8.18 4 11.68
5/1/2022 6:30:00 PM 12.52 54.536 0.386 8.17 4.09 11.58
5/1/2022 6:45:00 PM 12.5 54.5 0.386 8.15 3.92 11.46
5/1/2022 7:00:00 PM 12.47 54.446 0.386 8.11 3.58 11.24
5/1/2022 7:15:00 PM 12.44 54.392 0.386 8.07 3.5 11.04
5/1/2022 7:30:00 PM 12.4 54.32 0.386 8.03 3.51 10.87
5/1/2022 7:45:00 PM 12.37 54.266 0.386 8 3.42 10.69
5/1/2022 8:00:00 PM 12.35 54.23 0.386 7.98 3.71 10.54
5/1/2022 8:15:00 PM 12.33 54.194 0.386 7.95 3.92 10.42
5/1/2022 8:30:00 PM 12.31 54.158 0.386 7.93 3.81 10.32
5/1/2022 8:45:00 PM 12.3 54.14 0.386 7.92 4.73 10.24
5/1/2022 9:00:00 PM 12.29 54.122 0.386 7.91 4.37 10.18
5/1/2022 9:15:00 PM 12.28 54.104 0.386 7.9 3.93 10.14
5/1/2022 9:30:00 PM 12.28 54.104 0.386 7.89 3.82 10.07
5/1/2022 9:45:00 PM 12.27 54.086 0.386 7.88 5.26 10.05
5/1/2022 10:00:00 PM 12.25 54.05 0.386 7.87 4.74 9.99
5/1/2022 10:15:00 PM 12.23 54.014 0.385 7.86 4.26 9.92
5/1/2022 10:30:00 PM 12.22 53.996 0.386 7.85 4.03 9.86
5/1/2022 10:45:00 PM 12.2 53.96 0.386 7.84 4.1 9.81
5/1/2022 11:00:00 PM 12.18 53.924 0.386 7.82 4.67 9.74
5/1/2022 11:15:00 PM 12.17 53.906 0.386 7.81 4.56 9.68
5/1/2022 11:30:00 PM 12.16 53.888 0.385 7.8 4.16 9.62
5/1/2022 11:45:00 PM 12.14 53.852 0.385 7.79 4.96 9.56
5/2/2022 12:00:00 AM 12.12 53.816 0.385 7.79 4.57 9.53
5/2/2022 12:15:00 AM 12.09 53.762 0.385 7.78 4.39 9.49
5/2/2022 12:30:00 AM 12.06 53.708 0.385 7.78 4.83 9.44
5/2/2022 12:45:00 AM 12.05 53.69 0.385 7.77 4.37 9.42
5/2/2022 1:00:00 AM 12.03 53.654 0.385 7.77 4.77 9.4
5/2/2022 1:15:00 AM 12.02 53.636 0.385 7.76 4.61 9.39
5/2/2022 1:30:00 AM 12.02 53.636 0.385 7.76 4.19 9.37
5/2/2022 1:45:00 AM 12.01 53.618 0.384 7.75 3.82 9.34
5/2/2022 2:00:00 AM 12.01 53.618 0.384 7.75 4.03 9.33
5/2/2022 2:15:00 AM 12 53.6 0.384 7.74 4.2 9.31
5/2/2022 2:30:00 AM 11.95 53.51 0.379 7.75 10.04 9.39
5/2/2022 2:45:00 AM 11.93 53.474 0.379 7.74 5.63 9.36
5/2/2022 3:00:00 AM 11.9 53.42 0.378 7.74 6.27 9.35
5/2/2022 3:15:00 AM 11.87 53.366 0.378 7.74 5.85 9.33
5/2/2022 3:30:00 AM 11.85 53.33 0.379 7.72 6.29 9.3
5/2/2022 3:45:00 AM 11.82 53.276 0.379 7.72 5.67 9.28
5/2/2022 4:00:00 AM 11.8 53.24 0.38 7.72 5.36 9.27
5/2/2022 4:15:00 AM 11.79 53.222 0.381 7.72 4.51 9.25
5/2/2022 4:30:00 AM 11.78 53.204 0.381 7.72 3.86 9.25
5/2/2022 4:45:00 AM 11.77 53.186 0.382 7.71 4.38 9.25
5/2/2022 5:00:00 AM 11.77 53.186 0.382 7.71 4.33 9.25
5/2/2022 5:15:00 AM 11.76 53.168 0.382 7.71 4.31 9.25
5/2/2022 5:30:00 AM 11.75 53.15 0.382 7.71 3.94 9.22
5/2/2022 5:45:00 AM 11.75 53.15 0.382 7.71 4.65 9.23
5/2/2022 6:00:00 AM 11.74 53.132 0.382 7.71 4.31 9.24
5/2/2022 6:15:00 AM 11.73 53.114 0.382 7.71 4.69 9.23
5/2/2022 6:30:00 AM 11.72 53.096 0.382 7.71 4.15 9.25
5/2/2022 6:45:00 AM 11.71 53.078 0.382 7.71 5.52 9.3
5/2/2022 7:00:00 AM 11.72 53.096 0.382 7.71 4.44 9.37
5/2/2022 7:15:00 AM 11.73 53.114 0.382 7.73 3.96 9.46
5/2/2022 7:30:00 AM 11.74 53.132 0.383 7.74 4.09 9.63
5/2/2022 7:45:00 AM 11.77 53.186 0.382 7.76 4.11 9.84
5/2/2022 8:00:00 AM 11.8 53.24 0.382 7.78 3.79 10.03
5/2/2022 8:15:00 AM 11.84 53.312 0.382 7.81 3.87 10.28
5/2/2022 8:30:00 AM 11.89 53.402 0.382 7.84 4.26 10.5
5/2/2022 8:45:00 AM 11.94 53.492 0.383 7.86 3.91 10.69
5/2/2022 9:00:00 AM 12.01 53.618 0.383 7.9 4.09 10.97
5/2/2022 9:15:00 AM 12.08 53.744 0.383 7.93 3.94 11.2
5/2/2022 9:30:00 AM 12.16 53.888 0.382 7.97 3.82 11.45
5/2/2022 9:45:00 AM 12.25 54.05 0.383 8.01 3.76 11.68
5/2/2022 10:00:00 AM 12.36 54.248 0.382 8.05 3.95 11.91
5/2/2022 10:15:00 AM 12.48 54.464 0.382 8.09 3.76 12.12
5/2/2022 10:30:00 AM 12.65 54.77 0.382 8.13 3.67 12.35
5/2/2022 10:45:00 AM 12.85 55.13 0.381 8.18 4.04 12.56
5/2/2022 11:00:00 AM 13 55.4 0.381 8.23 3.84 12.74
5/2/2022 11:15:00 AM 13.17 55.706 0.38 8.27 4.2 12.92
5/2/2022 11:30:00 AM 13.27 55.886 0.38 8.3 4.06 13.05
5/2/2022 11:45:00 AM 13.39 56.102 0.38 8.33 4.01 13.15
5/2/2022 12:00:00 PM 13.5 56.3 0.38 8.37 5.32 13.24
5/2/2022 12:15:00 PM 13.65 56.57 0.38 8.41 4.51 13.41
5/2/2022 12:30:00 PM 14.01 57.218 0.38 8.46 4.66 13.65
5/2/2022 12:45:00 PM 14.33 57.794 0.379 8.5 4.4 13.78
5/2/2022 1:00:00 PM 14.59 58.262 0.379 8.54 3.93 13.91
5/2/2022 1:15:00 PM 14.72 58.496 0.378 8.57 3.97 13.95
5/2/2022 1:30:00 PM 14.85 58.73 0.378 8.6 4.11 14
5/2/2022 1:45:00 PM 14.86 58.748 0.378 8.62 4.06 13.99
5/2/2022 2:00:00 PM 14.82 58.676 0.378 8.63 3.91 13.91
5/2/2022 2:15:00 PM 14.72 58.496 0.378 8.61 3.85 13.65
5/2/2022 2:30:00 PM 14.71 58.478 0.379 8.6 4.44 13.52
5/2/2022 2:45:00 PM 14.7 58.46 0.377 8.61 4.13 13.49
5/2/2022 3:00:00 PM 14.85 58.73 0.378 8.64 4.12 13.61
5/2/2022 3:15:00 PM 14.91 58.838 0.377 8.67 4.45 13.63
5/2/2022 3:30:00 PM 14.98 58.964 0.377 8.68 4.27 13.54
5/2/2022 3:45:00 PM 15.1 59.18 0.376 8.69 4.01 13.53
5/2/2022 4:00:00 PM 15.3 59.54 0.449 8.7 4.11 13.54
5/2/2022 4:15:00 PM 15.41 59.738 0.373 8.72 3.61 13.53
5/2/2022 4:30:00 PM 15.59 60.062 0.448 8.75 6.71 13.59
5/2/2022 4:45:00 PM 15.67 60.206 0.383 8.75 4.09 13.55
5/2/2022 5:00:00 PM 15.73 60.314 0.402 8.76 4.27 13.45
5/2/2022 5:15:00 PM 15.79 60.422 0.447 8.75 4 13.33
5/2/2022 5:30:00 PM 15.79 60.422 0.384 8.73 4.83 13.08
5/2/2022 5:45:00 PM 15.78 60.404 0.381 8.7 3.97 12.84
5/2/2022 6:00:00 PM 15.78 60.404 0.381 8.68 5.28 12.67
5/2/2022 6:15:00 PM 15.74 60.332 0.382 8.64 3.8 12.4
5/2/2022 6:30:00 PM 15.71 60.278 0.382 8.6 5.11 12.16
5/2/2022 6:45:00 PM 15.68 60.224 0.386 8.57 3.89 11.95
5/2/2022 7:00:00 PM 15.63 60.134 0.383 8.52 3.53 11.7
5/2/2022 7:15:00 PM 15.6 60.08 0.391 8.48 3.67 11.46
5/2/2022 7:30:00 PM 15.56 60.008 0.384 8.43 3.9 11.19
5/2/2022 7:45:00 PM 15.52 59.936 0.385 8.39 4.27 10.98
5/2/2022 8:00:00 PM 15.47 59.846 0.385 8.34 5.13 10.76
5/2/2022 8:15:00 PM 15.43 59.774 0.385 8.29 4.7 10.54
5/2/2022 8:30:00 PM 15.38 59.684 0.408 8.24 4.6 10.35
5/2/2022 8:45:00 PM 15.33 59.594 0.389 8.19 5.56 10.18
5/2/2022 9:00:00 PM 15.28 59.504 0.386 8.16 4.49 10.04
5/2/2022 9:15:00 PM 15.23 59.414 0.394 8.12 4.81 9.93
5/2/2022 9:30:00 PM 15.19 59.342 0.409 8.09 4.92 9.81
5/2/2022 9:45:00 PM 15.15 59.27 0.387 8.06 4.15 9.7
5/2/2022 10:00:00 PM 15.1 59.18 0.389 8.03 4.55 9.58
5/2/2022 10:15:00 PM 15.06 59.108 0.387 8.01 5 9.46
5/2/2022 10:30:00 PM 15.01 59.018 0.395 7.97 4.63 9.37
5/2/2022 10:45:00 PM 14.95 58.91 0.396 7.94 4.15 9.27
5/2/2022 11:00:00 PM 14.9 58.82 0.396 7.91 4.75 9.16
5/2/2022 11:15:00 PM 14.83 58.694 0.41 7.89 4.79 9.06
5/2/2022 11:30:00 PM 14.78 58.604 0.388 7.86 5.47 8.98
5/2/2022 11:45:00 PM 14.72 58.496 0.39 7.85 4.53 8.9
5/3/2022 12:00:00 AM 14.65 58.37 0.381 7.83 4.27 8.82
5/3/2022 12:15:00 AM 14.59 58.262 0.381 7.81 4.38 8.76
5/3/2022 12:30:00 AM 14.53 58.154 0.388 7.8 4.71 8.69
5/3/2022 12:45:00 AM 14.47 58.046 0.458 7.78 3.93 8.65
5/3/2022 1:00:00 AM 14.41 57.938 0.383 7.77 4.37 8.6
5/3/2022 1:15:00 AM 14.35 57.83 0.393 7.76 4.16 8.56
5/3/2022 1:30:00 AM 14.3 57.74 0.389 7.75 4.95 8.54
5/3/2022 1:45:00 AM 14.24 57.632 0.385 7.74 4.3 8.51
5/3/2022 2:00:00 AM 14.18 57.524 0.385 7.73 3.95 8.47
5/3/2022 2:15:00 AM 14.12 57.416 0.386 7.73 5.35 8.5
5/3/2022 2:30:00 AM 14.07 57.326 0.386 7.72 4.48 8.46
5/3/2022 2:45:00 AM 14.02 57.236 0.387 7.72 4.4 8.43
5/3/2022 3:00:00 AM 13.97 57.146 0.387 7.71 4.3 8.39
5/3/2022 3:15:00 AM 13.91 57.038 0.387 7.7 4.53 8.42
5/3/2022 3:30:00 AM 13.86 56.948 0.387 7.7 4.94 8.44
5/3/2022 3:45:00 AM 13.81 56.858 0.386 7.69 4.51 8.43
5/3/2022 4:00:00 AM 13.77 56.786 0.388 7.69 4.52 8.41
5/3/2022 4:15:00 AM 13.74 56.732 0.388 7.69 4.47 8.41
5/3/2022 4:30:00 AM 13.72 56.696 0.388 7.69 4.5 8.36
5/3/2022 4:45:00 AM 13.72 56.696 0.388 7.68 5.05 8.4
5/3/2022 5:00:00 AM 13.72 56.696 0.388 7.68 4.65 8.4
5/3/2022 5:15:00 AM 13.72 56.696 0.388 7.68 4.77 8.38
5/3/2022 5:30:00 AM 13.73 56.714 0.388 7.68 4.58 8.39
5/3/2022 5:45:00 AM 13.73 56.714 0.389 7.68 4.28 8.39
5/3/2022 6:00:00 AM 13.71 56.678 0.389 7.68 4.27 8.38
5/3/2022 6:15:00 AM 13.69 56.642 0.389 7.68 4.13 8.39
5/3/2022 6:30:00 AM 13.65 56.57 0.389 7.68 4.77 8.44
5/3/2022 6:45:00 AM 13.63 56.534 0.389 7.68 4.61 8.39
5/3/2022 7:00:00 AM 13.6 56.48 0.389 7.69 4.04 8.53
5/3/2022 7:15:00 AM 13.57 56.426 0.39 7.7 3.57 8.61
5/3/2022 7:30:00 AM 13.55 56.39 0.39 7.71 3.7 8.76
5/3/2022 7:45:00 AM 13.53 56.354 0.39 7.71 4.5 8.86
5/3/2022 8:00:00 AM 13.52 56.336 0.389 7.72 3.85 8.94
5/3/2022 8:15:00 AM 13.51 56.318 0.389 7.73 4.01 9.03
5/3/2022 8:30:00 AM 13.51 56.318 0.39 7.74 4.06 9.09
5/3/2022 8:45:00 AM 13.5 56.3 0.389 7.74 3.99 9.16
5/3/2022 9:00:00 AM 13.5 56.3 0.39 7.76 4.09 9.36
5/3/2022 9:15:00 AM 13.52 56.336 0.39 7.78 4.18 9.51
5/3/2022 9:30:00 AM 13.53 56.354 0.39 7.8 4.28 9.68
5/3/2022 9:45:00 AM 13.55 56.39 0.39 7.82 3.86 9.98
5/3/2022 10:00:00 AM 13.59 56.462 0.39 7.85 4.17 10.1
5/3/2022 10:15:00 AM 13.62 56.516 0.39 7.88 3.94 10.36
5/3/2022 10:30:00 AM 13.65 56.57 0.39 7.91 4.06 10.72
5/3/2022 10:45:00 AM 13.69 56.642 0.386 7.95 3.9 10.9
5/3/2022 11:00:00 AM 13.73 56.714 0.389 7.98 3.81 11.1
5/3/2022 11:15:00 AM 13.79 56.822 0.388 8 4.07 11.32
5/3/2022 11:30:00 AM 13.86 56.948 0.388 8.05 4.26 11.56
5/3/2022 11:45:00 AM 13.98 57.164 0.387 8.11 3.92 11.87
5/3/2022 12:00:00 PM 14.09 57.362 0.415 8.16 3.79 12.05
5/3/2022 12:15:00 PM 14.26 57.668 0.399 8.23 4.14 12.49
5/3/2022 12:30:00 PM 14.48 58.064 0.39 8.25 3.7 12.72
5/3/2022 12:45:00 PM 14.78 58.604 0.39 8.34 3.95 12.94
5/3/2022 1:00:00 PM 15.02 59.036 0.389 8.38 4.5 13.23
5/3/2022 1:15:00 PM 15.28 59.504 0.39 8.43 3.71 13.17
5/3/2022 1:30:00 PM 15.46 59.828 0.389 8.47 4 13.5
5/3/2022 1:45:00 PM 15.62 60.116 0.41 8.5 4.3 13.63
5/3/2022 2:00:00 PM 15.73 60.314 0.388 8.53 3.66 13.62
5/3/2022 2:15:00 PM 15.85 60.53 0.388 8.56 3.9 13.84
5/3/2022 2:30:00 PM 15.97 60.746 0.395 8.6 4 13.89
5/3/2022 2:45:00 PM 16.05 60.89 0.387 8.62 4.41 13.99
5/3/2022 3:00:00 PM 16.13 61.034 0.387 8.64 4.11 14.03
5/3/2022 3:15:00 PM 16.24 61.232 0.386 8.67 5.39 13.85
5/3/2022 3:30:00 PM 16.32 61.376 0.386 8.7 4.91 14.1
5/3/2022 3:45:00 PM 16.36 61.448 0.387 8.71 3.87 14.15
5/3/2022 4:00:00 PM 16.39 61.502 0.385 8.72 3.91 14.06
5/3/2022 4:15:00 PM 16.45 61.61 0.385 8.73 4.29 14.06
5/3/2022 4:30:00 PM 16.51 61.718 0.385 8.74 3.48 13.96
5/3/2022 4:45:00 PM 16.58 61.844 0.385 8.75 4.6 13.77
5/3/2022 5:00:00 PM 16.58 61.844 0.386 8.75 3.85 13.73
5/3/2022 5:15:00 PM 16.61 61.898 0.386 8.75 3.59 13.57
5/3/2022 5:30:00 PM 16.61 61.898 0.386 8.73 3.56 13.35
5/3/2022 5:45:00 PM 16.62 61.916 0.386 8.72 3.88 13.03
5/3/2022 6:00:00 PM 16.63 61.934 0.386 8.7 4.36 12.86
5/3/2022 6:15:00 PM 16.61 61.898 0.387 8.68 10.86 12.64
5/3/2022 6:30:00 PM 16.6 61.88 0.387 8.66 5.68 12.43
5/3/2022 6:45:00 PM 16.56 61.808 0.388 8.63 5.03 12.09
5/3/2022 7:00:00 PM 16.53 61.754 0.388 8.59 4.07 11.85
5/3/2022 7:15:00 PM 16.5 61.7 0.389 8.55 4.52 11.61
5/3/2022 7:30:00 PM 16.46 61.628 0.389 8.51 4.51 11.34
5/3/2022 7:45:00 PM 16.42 61.556 0.391 8.46 4.2 11.06
5/3/2022 8:00:00 PM 16.38 61.484 0.391 8.41 3.66 10.75
5/3/2022 8:15:00 PM 16.32 61.376 0.391 8.36 3.94 10.53
5/3/2022 8:30:00 PM 16.26 61.268 0.391 8.3 3.97 10.19
5/3/2022 8:45:00 PM 16.2 61.16 0.391 8.25 3.83 10.12
5/3/2022 9:00:00 PM 16.13 61.034 0.392 8.22 4.29 9.87
5/3/2022 9:15:00 PM 16.07 60.926 0.394 8.18 4.29 9.77
5/3/2022 9:30:00 PM 16 60.8 0.393 8.14 4.22 9.53
5/3/2022 9:45:00 PM 15.94 60.692 0.393 8.11 4.22 9.52
5/3/2022 10:00:00 PM 15.87 60.566 0.393 8.08 5.33 9.28
5/3/2022 10:15:00 PM 15.81 60.458 0.393 8.05 5.41 9.21
5/3/2022 10:30:00 PM 15.74 60.332 0.394 8.02 4.72 9.2
5/3/2022 10:45:00 PM 15.69 60.242 0.394 8 5.04 9.11
5/3/2022 11:00:00 PM 15.63 60.134 0.394 7.97 4.51 9.03
5/3/2022 11:15:00 PM 15.58 60.044 0.394 7.93 4.37 8.88
5/3/2022 11:30:00 PM 15.53 59.954 0.394 7.9 4.37 8.69
5/3/2022 11:45:00 PM 15.48 59.864 0.395 7.88 4.16 8.7
5/4/2022 12:00:00 AM 15.43 59.774 0.395 7.86 4.33 8.53
5/4/2022 12:15:00 AM 15.37 59.666 0.396 7.84 4.08 8.55
5/4/2022 12:30:00 AM 15.32 59.576 0.396 7.82 4.1 8.49
5/4/2022 12:45:00 AM 15.27 59.486 0.396 7.8 4.92 8.41
5/4/2022 1:00:00 AM 15.21 59.378 0.395 7.8 4.27 8.34
5/4/2022 1:15:00 AM 15.17 59.306 0.394 7.79 4.92 8.29
5/4/2022 1:30:00 AM 15.11 59.198 0.394 7.77 4.41 8.3
5/4/2022 1:45:00 AM 15.07 59.126 0.395 7.75 4.24 8.18
5/4/2022 2:00:00 AM 15.01 59.018 0.394 7.75 4.52 8.2
5/4/2022 2:15:00 AM 14.96 58.928 0.395 7.74 4.17 8.22
5/4/2022 2:30:00 AM 14.91 58.838 0.394 7.73 4.76 8.18
5/4/2022 2:45:00 AM 14.87 58.766 0.395 7.73 4.32 8.15
5/4/2022 3:00:00 AM 14.82 58.676 0.397 7.72 4.08 8.14
5/4/2022 3:15:00 AM 14.78 58.604 0.394 7.71 4.42 8.12
5/4/2022 3:30:00 AM 14.74 58.532 0.402 7.7 4.46 8.12
5/4/2022 3:45:00 AM 14.69 58.442 0.394 7.71 4.28 8.07
5/4/2022 4:00:00 AM 14.65 58.37 0.396 7.7 4.49 8.11
5/4/2022 4:15:00 AM 14.62 58.316 0.415 7.7 4.04 8.1
5/4/2022 4:30:00 AM 14.58 58.244 0.415 7.7 4.28 8.09
5/4/2022 4:45:00 AM 14.54 58.172 0.415 7.69 4.6 8.11
5/4/2022 5:00:00 AM 14.5 58.1 0.395 7.69 5.13 8.06
5/4/2022 5:15:00 AM 14.46 58.028 0.395 7.69 4.29 8.08
5/4/2022 5:30:00 AM 14.42 57.956 0.392 7.69 4.64 8.08
5/4/2022 5:45:00 AM 14.38 57.884 0.395 7.69 5.08 8.08
5/4/2022 6:00:00 AM 14.35 57.83 0.395 7.69 4.5 8.09
5/4/2022 6:15:00 AM 14.32 57.776 0.383 7.68 4.43 8.1
5/4/2022 6:30:00 AM 14.29 57.722 0.414 7.68 4.81 8.11
5/4/2022 6:45:00 AM 14.27 57.686 0.393 7.69 5.87 8.12
5/4/2022 7:00:00 AM 14.23 57.614 0.391 7.69 5.3 8.18
5/4/2022 7:15:00 AM 14.19 57.542 0.391 7.69 4.94 8.24
5/4/2022 7:30:00 AM 14.15 57.47 0.385 7.69 4.61 8.29
5/4/2022 7:45:00 AM 14.12 57.416 0.386 7.7 4.49 8.38
5/4/2022 8:00:00 AM 14.09 57.362 0.386 7.71 5.38 8.48
5/4/2022 8:15:00 AM 14.07 57.326 0.386 7.71 4.97 8.56
5/4/2022 8:30:00 AM 14.05 57.29 0.385 7.72 5.77 8.6
5/4/2022 8:45:00 AM 14.05 57.29 0.386 7.74 4.98 8.8
5/4/2022 9:00:00 AM 14.06 57.308 0.401 7.75 4.65 8.93
5/4/2022 9:15:00 AM 14.06 57.308 0.404 7.76 5.99 9.02
5/4/2022 9:30:00 AM 14.07 57.326 0.401 7.77 7.37 9.14
5/4/2022 9:45:00 AM 14.09 57.362 0.403 7.78 6.73 9.17
5/4/2022 10:00:00 AM 14.1 57.38 0.406 7.8 6.62 9.35
5/4/2022 10:15:00 AM 14.13 57.434 0.409 7.82 6.36 9.54
5/4/2022 10:30:00 AM 14.15 57.47 0.41 7.84 5.44 9.67
5/4/2022 10:45:00 AM 14.17 57.506 0.411 7.86 5.5 9.77
5/4/2022 11:00:00 AM 14.18 57.524 0.409 7.87 5.06 9.86
5/4/2022 11:15:00 AM 14.18 57.524 0.405 7.87 5.55 9.91
5/4/2022 11:30:00 AM 14.17 57.506 0.405 7.88 5.65 9.92
5/4/2022 11:45:00 AM 14.17 57.506 0.413 7.88 6.32 9.89
5/4/2022 12:00:00 PM 14.18 57.524 0.405 7.88 6.65 9.96
5/4/2022 12:15:00 PM 14.2 57.56 0.403 7.9 6.75 10.07
5/4/2022 12:30:00 PM 14.23 57.614 0.404 7.92 6.12 10.25
5/4/2022 12:45:00 PM 14.28 57.704 0.399 7.95 6.18 10.48
5/4/2022 1:00:00 PM 14.32 57.776 0.397 7.98 5.92 10.66
5/4/2022 1:15:00 PM 14.38 57.884 0.397 8.02 6.55 10.86
5/4/2022 1:30:00 PM 14.43 57.974 0.397 8.05 6.87 11.03
5/4/2022 1:45:00 PM 14.52 58.136 0.4 8.09 6.5 11.26
5/4/2022 2:00:00 PM 14.58 58.244 0.413 8.12 5.94 11.4
5/4/2022 2:15:00 PM 14.58 58.244 0.411 8.13 6.27 11.34
5/4/2022 2:30:00 PM 14.6 58.28 0.387 8.14 5.8 11.33
5/4/2022 2:45:00 PM 14.72 58.496 0.455 8.14 5.54 11.35
5/4/2022 3:00:00 PM 14.79 58.622 0.453 8.19 5.67 11.59
5/4/2022 3:15:00 PM 14.9 58.82 0.385 8.26 5.5 11.88
5/4/2022 3:30:00 PM 15.03 59.054 0.377 8.3 4.79 12.09
5/4/2022 3:45:00 PM 15.09 59.162 0.377 8.34 4.83 12.18
5/4/2022 4:00:00 PM 15.09 59.162 0.376 8.35 4.6 12.16
5/4/2022 4:15:00 PM 15.21 59.378 0.375 8.39 4.73 12.29
5/4/2022 4:30:00 PM 15.27 59.486 0.374 8.43 4.78 12.41
5/4/2022 4:45:00 PM 15.34 59.612 0.374 8.45 4.97 12.46
5/4/2022 5:00:00 PM 15.4 59.72 0.374 8.46 4.77 12.42
5/4/2022 5:15:00 PM 15.42 59.756 0.373 8.44 4.67 12.31
5/4/2022 5:30:00 PM 15.42 59.756 0.374 8.44 4.83 12.22
5/4/2022 5:45:00 PM 15.42 59.756 0.374 8.42 4.39 12.11
5/4/2022 6:00:00 PM 15.38 59.684 0.373 8.4 6.78 11.96
5/4/2022 6:15:00 PM 15.34 59.612 0.374 8.37 5.93 11.78
5/4/2022 6:30:00 PM 15.3 59.54 0.373 8.35 5.49 11.58
5/4/2022 6:45:00 PM 15.25 59.45 0.374 8.31 5.45 11.38
5/4/2022 7:00:00 PM 15.23 59.414 0.374 8.28 5.45 11.15
5/4/2022 7:15:00 PM 15.22 59.396 0.374 8.24 4.49 11.01
5/4/2022 7:30:00 PM 15.21 59.378 0.374 8.21 5.49 10.85
5/4/2022 7:45:00 PM 15.2 59.36 0.374 8.17 4.99 10.63
5/4/2022 8:00:00 PM 15.2 59.36 0.374 8.13 4.88 10.46
5/4/2022 8:15:00 PM 15.19 59.342 0.374 8.09 4.88 10.23
5/4/2022 8:30:00 PM 15.19 59.342 0.374 8.05 5.31 10.02
5/4/2022 8:45:00 PM 15.18 59.324 0.375 8.03 5.43 9.87
5/4/2022 9:00:00 PM 15.17 59.306 0.375 8 5.1 9.8
5/4/2022 9:15:00 PM 15.15 59.27 0.375 7.98 5.46 9.66
5/4/2022 9:30:00 PM 15.12 59.216 0.375 7.96 5.7 9.57
5/4/2022 9:45:00 PM 15.09 59.162 0.375 7.94 5.54 9.48
5/4/2022 10:00:00 PM 15.05 59.09 0.375 7.92 5.08 9.37
5/4/2022 10:15:00 PM 15 59 0.373 7.9 5.02 9.26
5/4/2022 10:30:00 PM 14.95 58.91 0.375 7.88 4.96 9.19
5/4/2022 10:45:00 PM 14.9 58.82 0.375 7.86 5.02 9.1
5/4/2022 11:00:00 PM 14.84 58.712 0.376 7.84 4.91 8.95
5/4/2022 11:15:00 PM 14.78 58.604 0.376 7.82 5.03 8.94
5/4/2022 11:30:00 PM 14.73 58.514 0.376 7.81 4.88 8.83
5/4/2022 11:45:00 PM 14.68 58.424 0.377 7.8 5.15 8.79
5/5/2022 12:00:00 AM 14.64 58.352 0.377 7.78 4.78 8.58
5/5/2022 12:15:00 AM 14.59 58.262 0.377 7.77 5.22 8.61
5/5/2022 12:30:00 AM 14.55 58.19 0.377 7.76 4.62 8.6
5/5/2022 12:45:00 AM 14.5 58.1 0.377 7.75 5.09 8.56
5/5/2022 1:00:00 AM 14.45 58.01 0.377 7.74 5.11 8.52
5/5/2022 1:15:00 AM 14.4 57.92 0.377 7.73 5.05 8.56
5/5/2022 1:30:00 AM 14.36 57.848 0.378 7.73 4.88 7.99
5/5/2022 1:45:00 AM 14.34 57.812 0.378 7.73 4.59 8.37
5/5/2022 2:00:00 AM 14.31 57.758 0.378 7.72 4.84 8.49
5/5/2022 2:15:00 AM 14.28 57.704 0.378 7.71 4.87 8.43
5/5/2022 2:30:00 AM 14.26 57.668 0.378 7.71 4.55 8.13
5/5/2022 2:45:00 AM 14.24 57.632 0.378 7.71 4.69 8.33
5/5/2022 3:00:00 AM 14.22 57.596 0.379 7.7 4.57 8.28
5/5/2022 3:15:00 AM 14.2 57.56 0.379 7.7 4.48 8.35
5/5/2022 3:30:00 AM 14.18 57.524 0.379 7.7 4.51 8.33
5/5/2022 3:45:00 AM 14.16 57.488 0.379 7.7 4.28 8.22
5/5/2022 4:00:00 AM 14.14 57.452 0.38 7.7 4.3 8.11
5/5/2022 4:15:00 AM 14.11 57.398 0.379 7.69 4.48 8.37
5/5/2022 4:30:00 AM 14.09 57.362 0.38 7.69 4.26 8.26
5/5/2022 4:45:00 AM 14.06 57.308 0.38 7.69 4.15 8.37
5/5/2022 5:00:00 AM 14.03 57.254 0.381 7.68 4.82 7.29
5/5/2022 5:15:00 AM 13.99 57.182 0.381 7.68 4.96 8.27
5/5/2022 5:30:00 AM 13.95 57.11 0.381 7.68 4.77 8.21
5/5/2022 5:45:00 AM 13.9 57.02 0.381 7.68 4.44 8.31
5/5/2022 6:00:00 AM 13.83 56.894 0.382 7.68 4.48 8.3
5/5/2022 6:15:00 AM 13.78 56.804 0.382 7.68 4.76 8.24
5/5/2022 6:30:00 AM 13.72 56.696 0.382 7.68 4.4 8.26
5/5/2022 6:45:00 AM 13.69 56.642 0.382 7.68 4.59 8.48
5/5/2022 7:00:00 AM 13.68 56.624 0.382 7.69 4.3 8.61
5/5/2022 7:15:00 AM 13.68 56.624 0.382 7.7 4.05 8.71
5/5/2022 7:30:00 AM 13.7 56.66 0.383 7.72 4.02 8.89
5/5/2022 7:45:00 AM 13.72 56.696 0.382 7.74 4.22 9.08
5/5/2022 8:00:00 AM 13.74 56.732 0.382 7.75 4.28 9.26
5/5/2022 8:15:00 AM 13.77 56.786 0.382 7.77 4.12 9.35
5/5/2022 8:30:00 AM 13.82 56.876 0.383 7.79 4.35 9.69
5/5/2022 8:45:00 AM 13.86 56.948 0.383 7.83 4.53 9.89
5/5/2022 9:00:00 AM 13.91 57.038 0.383 7.86 3.89 10.23
5/5/2022 9:15:00 AM 13.97 57.146 0.382 7.9 3.94 10.4
5/5/2022 9:30:00 AM 14.07 57.326 0.382 7.94 4.13 10.8
5/5/2022 9:45:00 AM 14.18 57.524 0.382 7.96 4.4 10.86
5/5/2022 10:00:00 AM 14.31 57.758 0.382 8 4.33 11.18
5/5/2022 10:15:00 AM 14.43 57.974 0.382 8.02 3.89 11.31
5/5/2022 10:30:00 AM 14.58 58.244 0.382 8.05 4.2 11.52
5/5/2022 10:45:00 AM 14.72 58.496 0.38 8.09 4.17 11.69
5/5/2022 11:00:00 AM 14.88 58.784 0.379 8.12 4.16 11.62
5/5/2022 11:15:00 AM 15.06 59.108 0.385 8.17 3.91 12.07
5/5/2022 11:30:00 AM 15.24 59.432 0.392 8.2 3.91 12.22
5/5/2022 11:45:00 AM 15.43 59.774 0.406 8.25 3.68 12.42
5/5/2022 12:00:00 PM 15.6 60.08 0.384 8.29 3.71 12.48
5/5/2022 12:15:00 PM 15.84 60.512 0.384 8.32 4.01 12.45
5/5/2022 12:30:00 PM 16.09 60.962 0.387 8.36 3.77 12.81
5/5/2022 12:45:00 PM 16.32 61.376 0.385 8.41 3.71 12.98
5/5/2022 1:00:00 PM 16.53 61.754 0.386 8.45 3.58 13.15
5/5/2022 1:15:00 PM 16.71 62.078 0.383 8.49 4.42 13.38
5/5/2022 1:30:00 PM 16.87 62.366 0.382 8.52 5.8 13.35
5/5/2022 1:45:00 PM 17.02 62.636 0.383 8.55 4.11 13.51
5/5/2022 2:00:00 PM 17.1 62.78 0.382 8.58 3.96 13.39
5/5/2022 2:15:00 PM 17.24 63.032 0.381 8.59 3.97 13.6
5/5/2022 2:30:00 PM 17.46 63.428 0.382 8.63 3.9 13.65
5/5/2022 2:45:00 PM 17.55 63.59 0.381 8.64 4.23 13.59
5/5/2022 3:00:00 PM 17.72 63.896 0.382 8.65 3.93 13.52
5/5/2022 3:15:00 PM 17.87 64.166 0.383 8.67 4.21 13.52
5/5/2022 3:30:00 PM 17.96 64.328 0.381 8.68 4.49 13.52
5/5/2022 3:45:00 PM 18.07 64.526 0.381 8.68 3.88 13.33
5/5/2022 4:00:00 PM 18.16 64.688 0.381 8.68 3.72 13.37
5/5/2022 4:15:00 PM 18.24 64.832 0.381 8.69 3.79 12.71
5/5/2022 4:30:00 PM 18.27 64.886 0.382 8.69 3.75 13.13
5/5/2022 4:45:00 PM 18.27 64.886 0.382 8.69 3.79 13.05
5/5/2022 5:00:00 PM 18.23 64.814 0.382 8.68 4.01 12.91
5/5/2022 5:15:00 PM 18.15 64.67 0.383 8.66 3.84 12.72
5/5/2022 5:30:00 PM 18.1 64.58 0.383 8.65 3.61 12.38
5/5/2022 5:45:00 PM 18.06 64.508 0.383 8.63 3.66 12.29
5/5/2022 6:00:00 PM 18.04 64.472 0.384 8.61 3.78 12.16
5/5/2022 6:15:00 PM 18.01 64.418 0.384 8.59 3.68 11.94
5/5/2022 6:30:00 PM 17.96 64.328 0.385 8.55 4.11 11.63
5/5/2022 6:45:00 PM 17.92 64.256 0.385 8.51 4.08 11.37
5/5/2022 7:00:00 PM 17.87 64.166 0.386 8.46 3.77 10.97
5/5/2022 7:15:00 PM 17.84 64.112 0.387 8.41 7.4 10.69
5/5/2022 7:30:00 PM 17.8 64.04 0.387 8.37 4.87 10.58
5/5/2022 7:45:00 PM 17.76 63.968 0.388 8.32 3.72 9.87
5/5/2022 8:00:00 PM 17.69 63.842 0.389 8.27 4.21 10.06
5/5/2022 8:15:00 PM 17.62 63.716 0.389 8.2 4.53 9.7
5/5/2022 8:30:00 PM 17.55 63.59 0.39 8.15 4.35 9.34
5/5/2022 8:45:00 PM 17.49 63.482 0.39 8.11 3.96 9.32
5/5/2022 9:00:00 PM 17.42 63.356 0.39 8.08 4.69 9.21
5/5/2022 9:15:00 PM 17.36 63.248 0.391 8.05 4.71 8.91
5/5/2022 9:30:00 PM 17.31 63.158 0.393 8 3.82 8.91
5/5/2022 9:45:00 PM 17.26 63.068 0.392 7.97 3.88 8.81
5/5/2022 10:00:00 PM 17.22 62.996 0.392 7.94 3.91 8.71
5/5/2022 10:15:00 PM 17.19 62.942 0.392 7.92 3.95 8.63
5/5/2022 10:30:00 PM 17.16 62.888 0.392 7.91 5.13 8.52
5/5/2022 10:45:00 PM 17.12 62.816 0.393 7.87 3.56 8.2
5/5/2022 11:00:00 PM 17.09 62.762 0.394 7.86 3.93 8.34
5/5/2022 11:15:00 PM 17.04 62.672 0.394 7.84 3.94 8.23
5/5/2022 11:30:00 PM 17 62.6 0.394 7.82 3.79 8.11
5/5/2022 11:45:00 PM 16.95 62.51 0.394 7.8 4.22 8.01
5/6/2022 12:00:00 AM 16.89 62.402 0.395 7.78 3.79 7.86
5/6/2022 12:15:00 AM 16.84 62.312 0.395 7.78 4.62 7.89
5/6/2022 12:30:00 AM 16.79 62.222 0.395 7.76 4.07 7.83
5/6/2022 12:45:00 AM 16.75 62.15 0.396 7.74 3.92 7.76
5/6/2022 1:00:00 AM 16.7 62.06 0.395 7.73 4.31 7.72
5/6/2022 1:15:00 AM 16.66 61.988 0.397 7.72 3.84 7.72
5/6/2022 1:30:00 AM 16.62 61.916 0.396 7.72 4.18 7.59
5/6/2022 1:45:00 AM 16.58 61.844 0.396 7.71 4.18 7.64
5/6/2022 2:00:00 AM 16.54 61.772 0.399 7.7 4.14 7.57
5/6/2022 2:15:00 AM 16.5 61.7 0.397 7.69 3.61 7.37
5/6/2022 2:30:00 AM 16.46 61.628 0.398 7.68 3.75 7.57
5/6/2022 2:45:00 AM 16.42 61.556 0.398 7.68 4.61 7.55
5/6/2022 3:00:00 AM 16.39 61.502 0.398 7.67 3.65 7.54
5/6/2022 3:15:00 AM 16.35 61.43 0.399 7.67 3.9 7.47
5/6/2022 3:30:00 AM 16.32 61.376 0.399 7.66 4.06 7.47
5/6/2022 3:45:00 AM 16.29 61.322 0.399 7.66 3.9 7.5
5/6/2022 4:00:00 AM 16.26 61.268 0.399 7.66 5.17 7.46
5/6/2022 4:15:00 AM 16.22 61.196 0.4 7.65 4.49 7.46
5/6/2022 4:30:00 AM 16.19 61.142 0.4 7.66 4.11 7.36
5/6/2022 4:45:00 AM 16.16 61.088 0.399 7.65 4.4 7.38
5/6/2022 5:00:00 AM 16.13 61.034 0.399 7.65 5.16 7.44
5/6/2022 5:15:00 AM 16.09 60.962 0.399 7.64 4.58 7.48
5/6/2022 5:30:00 AM 16.06 60.908 0.399 7.64 3.91 7.51
5/6/2022 5:45:00 AM 16.02 60.836 0.4 7.65 3.88 7.42
5/6/2022 6:00:00 AM 15.99 60.782 0.399 7.65 3.84 7.22
5/6/2022 6:15:00 AM 15.95 60.71 0.398 7.64 3.94 7.2
5/6/2022 6:30:00 AM 15.92 60.656 0.397 7.64 4.14 7.49
5/6/2022 6:45:00 AM 15.88 60.584 0.397 7.64 6.21 7.52
5/6/2022 7:00:00 AM 15.84 60.512 0.397 7.64 3.98 7.52
5/6/2022 7:15:00 AM 15.81 60.458 0.396 7.64 4.6 7.59
5/6/2022 7:30:00 AM 15.77 60.386 0.397 7.65 4.86 7.57
5/6/2022 7:45:00 AM 15.73 60.314 0.395 7.66 4.92 7.68
5/6/2022 8:00:00 AM 15.7 60.26 0.394 7.66 5.29 7.51
5/6/2022 8:15:00 AM 15.67 60.206 0.394 7.67 5.25 7.84
5/6/2022 8:30:00 AM 15.64 60.152 0.394 7.67 7.09 7.88
5/6/2022 8:45:00 AM 15.62 60.116 0.392 7.67 5.09 7.95
5/6/2022 9:00:00 AM 15.59 60.062 0.392 7.68 5.14 7.96
5/6/2022 9:15:00 AM 15.57 60.026 0.392 7.68 6.26 7.98
5/6/2022 9:30:00 AM 15.54 59.972 0.392 7.69 5.57 8.16
5/6/2022 9:45:00 AM 15.51 59.918 0.391 7.7 5.56 8.23
5/6/2022 10:00:00 AM 15.47 59.846 0.39 7.7 6.45 8.35
5/6/2022 10:15:00 AM 15.43 59.774 0.393 7.71 6.48 8.45
5/6/2022 10:30:00 AM 15.38 59.684 0.391 7.72 5.92 8.48
5/6/2022 10:45:00 AM 15.34 59.612 0.386 7.72 6.69 8.51
5/6/2022 11:00:00 AM 15.29 59.522 0.387 7.74 6.35 8.6
5/6/2022 11:15:00 AM 15.24 59.432 0.384 7.75 6.34 8.74
5/6/2022 11:30:00 AM 15.19 59.342 0.449 7.77 7.05 8.9
5/6/2022 11:45:00 AM 15.15 59.27 0.376 7.78 7.44 9.06
5/6/2022 12:00:00 PM 15.11 59.198 0.374 7.79 8.88 9.16
5/6/2022 12:15:00 PM 15.09 59.162 0.372 7.79 9.49 9.21
5/6/2022 12:30:00 PM 15.06 59.108 0.37 7.8 8.92 9.27
5/6/2022 12:45:00 PM 15.02 59.036 0.367 7.82 10.64 9.27
5/6/2022 1:00:00 PM 14.96 58.928 0.363 7.82 10.83 9.3
5/6/2022 1:15:00 PM 14.92 58.856 0.36 7.81 10.68 9.29
5/6/2022 1:30:00 PM 14.87 58.766 0.357 7.81 12.72 9.27
5/6/2022 1:45:00 PM 14.83 58.694 0.353 7.82 14.66 9.33
5/6/2022 2:00:00 PM 14.8 58.64 0.35 7.82 20.11 9.38
5/6/2022 2:15:00 PM 14.75 58.55 0.347 7.82 20.68 9.46
5/6/2022 2:30:00 PM 14.7 58.46 0.343 7.82 22.46 9.43
5/6/2022 2:45:00 PM 14.61 58.298 0.338 7.81 24.96 9.36
5/6/2022 3:00:00 PM 14.52 58.136 0.334 7.79 29.95 9.32
5/6/2022 3:15:00 PM 14.44 57.992 0.331 7.78 39.92 9.33
5/6/2022 3:30:00 PM 14.36 57.848 0.247 7.6 371.24 9.36
5/6/2022 3:45:00 PM 14.27 57.686 0.324 7.66 71.47 9.32
5/6/2022 4:00:00 PM 14.19 57.542 0.32 7.73 84.4 9.34
5/6/2022 4:15:00 PM 14.1 57.38 0.315 7.66 83.47 9.31
5/6/2022 4:30:00 PM 14.01 57.218 0.313 7.71 59.12 9.29
5/6/2022 4:45:00 PM 13.87 56.966 0.309 7.68 66.67 9.22
5/6/2022 5:00:00 PM 13.71 56.678 0.299 7.67 61.95 9.1
5/6/2022 5:15:00 PM 13.63 56.534 0.296 7.51 178.87 8.99
5/6/2022 5:30:00 PM 13.62 56.516 0.293 7.6 207.85 9.1
5/6/2022 5:45:00 PM 13.61 56.498 0.29 7.47 134.94 9.18
5/6/2022 6:00:00 PM 13.59 56.462 0.284 7.63 119.94 9.26
5/6/2022 6:15:00 PM 13.52 56.336 0.278 7.58 150.81 9.23
5/6/2022 6:30:00 PM 13.46 56.228 0.272 7.64 172.4 9.23
5/6/2022 6:45:00 PM 13.4 56.12 0.265 7.64 172.17 9.24
5/6/2022 7:00:00 PM 13.33 55.994 0.258 7.54 193.73 9.26
5/6/2022 7:15:00 PM 13.26 55.868 0.252 7.57 215.62 9.27
5/6/2022 7:30:00 PM 13.19 55.742 0.247 7.4 209.47 9.27
5/6/2022 7:45:00 PM 13.13 55.634 0.243 7.57 208.73 9.27
5/6/2022 8:00:00 PM 13.09 55.562 0.24 7.6 206.01 9.26
5/6/2022 8:15:00 PM 13.04 55.472 0.238 7.5 208.34 9.25
5/6/2022 8:30:00 PM 13 55.4 0.212 7.47 243.76 9.25
5/6/2022 8:45:00 PM 12.96 55.328 0.232 7.49 227.02 9.23
5/6/2022 9:00:00 PM 12.92 55.256 0.229 7.5 244.97 9.22
5/6/2022 9:15:00 PM 12.87 55.166 0.225 7.45 233.44 9.23
5/6/2022 9:30:00 PM 12.83 55.094 0.222 7.44 222.49 9.23
5/6/2022 9:45:00 PM 12.79 55.022 0.219 7.42 222.38 9.23
5/6/2022 10:00:00 PM 12.75 54.95 0.217 7.44 235.56 9.23
5/6/2022 10:15:00 PM 12.71 54.878 0.215 7.48 95.19 9.24
5/6/2022 10:30:00 PM 12.67 54.806 0.214 7.37 197.6 9.24
5/6/2022 10:45:00 PM 12.64 54.752 0.213 7.43 175.67 9.25
5/6/2022 11:00:00 PM 12.6 54.68 0.213 7.46 171.99 9.26
5/6/2022 11:15:00 PM 12.56 54.608 0.213 7.41 147.18 9.26
5/6/2022 11:30:00 PM 12.53 54.554 0.214 7.47 92.15 9.27
5/6/2022 11:45:00 PM 12.49 54.482 0.215 7.4 138.56 9.27
5/7/2022 12:00:00 AM 12.46 54.428 0.218 7.41 88.66 9.27
5/7/2022 12:15:00 AM 12.43 54.374 0.22 7.38 133.22 9.26
5/7/2022 12:30:00 AM 12.39 54.302 0.225 7.41 112.13 9.25
5/7/2022 12:45:00 AM 12.36 54.248 0.23 7.46 120.38 9.19
5/7/2022 1:00:00 AM 12.33 54.194 0.24 7.37 108.79 9.13
5/7/2022 1:15:00 AM 12.29 54.122 0.254 7.37 108.55 9.04
5/7/2022 1:30:00 AM 12.26 54.068 0.25 7.41 89.86 9.12
5/7/2022 1:45:00 AM 12.22 53.996 0.266 7.38 99.75 9.04
5/7/2022 2:00:00 AM 12.19 53.942 0.254 7.34 101.21 9.16
5/7/2022 2:15:00 AM 12.15 53.87 0.273 7.33 90.48 9.1
5/7/2022 2:30:00 AM 12.12 53.816 0.265 7.3 80.51 9.11
5/7/2022 2:45:00 AM 12.08 53.744 0.268 7.41 85.9 9.12
5/7/2022 3:00:00 AM 12.04 53.672 0.282 7.3 72.69 9.13
5/7/2022 3:15:00 AM 12.01 53.618 0.28 7.41 64.34 9.15
5/7/2022 3:30:00 AM 11.98 53.564 0.278 7.44 76.18 9.18
5/7/2022 3:45:00 AM 11.95 53.51 0.282 7.46 73.42 9.21
5/7/2022 4:00:00 AM 11.92 53.456 0.282 7.33 67.77 9.23
5/7/2022 4:15:00 AM 11.89 53.402 0.271 7.43 71.99 9.32
5/7/2022 4:30:00 AM 11.87 53.366 0.278 7.45 62.38 9.32
5/7/2022 4:45:00 AM 11.83 53.294 0.279 7.46 60.97 9.32
5/7/2022 5:00:00 AM 11.8 53.24 0.286 7.47 57.35 9.33
5/7/2022 5:15:00 AM 11.77 53.186 0.283 7.46 56.79 9.38
5/7/2022 5:30:00 AM 11.75 53.15 0.286 7.47 55.47 9.35
5/7/2022 5:45:00 AM 11.71 53.078 0.29 7.49 46.72 9.39
5/7/2022 6:00:00 AM 11.68 53.024 0.283 7.48 53.55 9.47
5/7/2022 6:15:00 AM 11.65 52.97 0.292 7.48 40.22 9.4
5/7/2022 6:30:00 AM 11.61 52.898 0.282 7.44 51.24 9.52
5/7/2022 6:45:00 AM 11.6 52.88 0.291 7.46 50.95 9.41
5/7/2022 7:00:00 AM 11.56 52.808 0.286 7.4 51.38 9.52
5/7/2022 7:15:00 AM 11.53 52.754 0.288 7.35 53.89 9.54
5/7/2022 7:30:00 AM 11.5 52.7 0.28 7.5 62.77 9.58
5/7/2022 7:45:00 AM 11.49 52.682 0.28 7.49 71.91 9.54
5/7/2022 8:00:00 AM 11.45 52.61 0.277 7.47 61.52 9.61
5/7/2022 8:15:00 AM 11.43 52.574 0.282 7.49 48.73 9.65
5/7/2022 8:30:00 AM 11.37 52.466 0.271 7.53 70.46 9.71
5/7/2022 8:45:00 AM 11.35 52.43 0.27 7.55 79.44 9.74
5/7/2022 9:00:00 AM 11.32 52.376 0.267 7.53 82.27 9.76
5/7/2022 9:15:00 AM 11.3 52.34 0.264 7.55 73.07 9.78
5/7/2022 9:30:00 AM 11.29 52.322 0.262 7.55 91.31 9.81
5/7/2022 9:45:00 AM 11.27